<?xml version="1.0" encoding="utf-8"?>
<gpx version="1.1" creator="com.bodunov.GalileoPro/v5.4.1" xmlns:xsi="http://www.w3.org/2001/XMLSchema-instance" xmlns="http://www.topografix.com/GPX/1/1" xmlns:gom="https://gurumaps.app/gpx/v3" xsi:schemaLocation="http://www.topografix.com/GPX/1/1 http://www.topografix.com/GPX/1/1/gpx.xsd https://gurumaps.app/gpx/v3 https://gurumaps.app/gpx/v3/schema.xsd">
 <trk>
  <name>20260422_группа8_Морт</name>
  <type>TrackStyle_FFD60AC8</type>
  <extensions>
   <gom:time>2026-04-22T07:46:15.002Z</gom:time>
  </extensions>
  <trkseg>
   <trkpt lat="59.0566872267" lon="29.9892284371"><ele>105.398</ele><time>2026-04-22T07:46:16.049Z</time><hdop>6.75</hdop><vdop>4.75</vdop><extensions><gom:speed>0.42</gom:speed><gom:rel_alt>142.504</gom:rel_alt></extensions></trkpt>
   <trkpt lat="59.0566886516" lon="29.9894142639"><ele>105.398</ele><time>2026-04-22T07:46:31.802Z</time><hdop>3.0</hdop><vdop>4.375</vdop><extensions><gom:speed>0.938</gom:speed><gom:rel_alt>143.249</gom:rel_alt></extensions></trkpt>
   <trkpt lat="59.0567083491" lon="29.9895912897"><ele>105.398</ele><time>2026-04-22T07:46:42.084Z</time><hdop>3.0</hdop><vdop>3.75</vdop><extensions><gom:speed>0.546</gom:speed><gom:rel_alt>143.442</gom:rel_alt></extensions></trkpt>
   <trkpt lat="59.0567884382" lon="29.9895117455"><ele>105.382</ele><time>2026-04-22T07:47:10.893Z</time><hdop>3.0</hdop><vdop>3.875</vdop><extensions><gom:speed>0.419</gom:speed><gom:rel_alt>141.852</gom:rel_alt></extensions></trkpt>
   <trkpt lat="59.056886255" lon="29.9894430139"><ele>105.371</ele><time>2026-04-22T07:48:59.983Z</time><hdop>1.0</hdop><vdop>9.75</vdop><extensions><gom:speed>0.018</gom:speed><gom:rel_alt>139.371</gom:rel_alt></extensions></trkpt>
   <trkpt lat="59.0569246441" lon="29.9892740347"><ele>105.398</ele><time>2026-04-22T07:49:23.984Z</time><hdop>2.125</hdop><vdop>10.75</vdop><extensions><gom:speed>0.128</gom:speed><gom:rel_alt>140.594</gom:rel_alt></extensions></trkpt>
   <trkpt lat="59.0569375523" lon="29.9890996911"><ele>105.526</ele><time>2026-04-22T07:49:54.983Z</time><hdop>1.5</hdop><vdop>10.25</vdop><extensions><gom:speed>0.008</gom:speed><gom:rel_alt>140.108</gom:rel_alt></extensions></trkpt>
   <trkpt lat="59.0570191501" lon="29.988968682"><ele>105.84</ele><time>2026-04-22T07:51:50.984Z</time><hdop>1.5</hdop><vdop>8.5</vdop><extensions><gom:speed>0.178</gom:speed><gom:rel_alt>140.636</gom:rel_alt></extensions></trkpt>
   <trkpt lat="59.0570885522" lon="29.9888240941"><ele>105.865</ele><time>2026-04-22T07:52:08.983Z</time><hdop>1.5</hdop><vdop>9.0</vdop><extensions><gom:speed>0.248</gom:speed><gom:rel_alt>141.138</gom:rel_alt></extensions></trkpt>
   <trkpt lat="59.0570975209" lon="29.9886413686"><ele>105.866</ele><time>2026-04-22T07:52:26.579Z</time><hdop>2.5</hdop><vdop>6.0</vdop><extensions><gom:speed>0.322</gom:speed><gom:rel_alt>145.472</gom:rel_alt></extensions></trkpt>
   <trkpt lat="59.0570799189" lon="29.9884574697"><ele>106.417</ele><time>2026-04-22T07:52:38.085Z</time><hdop>3.0</hdop><vdop>9.0</vdop><extensions><gom:speed>0.64</gom:speed><gom:rel_alt>141.281</gom:rel_alt></extensions></trkpt>
   <trkpt lat="59.0570571201" lon="29.9882849701"><ele>106.937</ele><time>2026-04-22T07:52:53.560Z</time><hdop>3.0</hdop><vdop>7.5</vdop><extensions><gom:speed>0.376</gom:speed><gom:rel_alt>142.523</gom:rel_alt></extensions></trkpt>
   <trkpt lat="59.0570662564" lon="29.9881063518"><ele>107.192</ele><time>2026-04-22T07:53:09.084Z</time><hdop>3.0</hdop><vdop>8.75</vdop><extensions><gom:speed>0.389</gom:speed><gom:rel_alt>143.109</gom:rel_alt></extensions></trkpt>
   <trkpt lat="59.0571061542" lon="29.9879361153"><ele>106.957</ele><time>2026-04-22T07:53:25.580Z</time><hdop>3.0</hdop><vdop>6.625</vdop><extensions><gom:speed>0.387</gom:speed><gom:rel_alt>142.536</gom:rel_alt></extensions></trkpt>
   <trkpt lat="59.0571116444" lon="29.9877520487"><ele>106.848</ele><time>2026-04-22T07:53:46.085Z</time><hdop>3.0</hdop><vdop>8.375</vdop><extensions><gom:speed>0.168</gom:speed><gom:rel_alt>142.586</gom:rel_alt></extensions></trkpt>
   <trkpt lat="59.0571194396" lon="29.9875749391"><ele>107.386</ele><time>2026-04-22T07:54:13.085Z</time><hdop>3.0</hdop><vdop>9.25</vdop><extensions><gom:speed>0.44</gom:speed><gom:rel_alt>142.388</gom:rel_alt></extensions></trkpt>
   <trkpt lat="59.0571676355" lon="29.9874157668"><ele>107.462</ele><time>2026-04-22T07:54:32.936Z</time><hdop>3.0</hdop><vdop>9.5</vdop><extensions><gom:speed>0.13</gom:speed><gom:rel_alt>142.75</gom:rel_alt></extensions></trkpt>
   <trkpt lat="59.0572440365" lon="29.9873116635"><ele>102.51</ele><time>2026-04-22T07:54:52.097Z</time><hdop>3.0</hdop><vdop>1.5</vdop><extensions><gom:speed>0.577</gom:speed><gom:rel_alt>142.391</gom:rel_alt></extensions></trkpt>
   <trkpt lat="59.0573248381" lon="29.9872265034"><ele>106.88</ele><time>2026-04-22T07:55:13.143Z</time><hdop>3.0</hdop><vdop>8.25</vdop><extensions><gom:speed>0.114</gom:speed><gom:rel_alt>142.288</gom:rel_alt></extensions></trkpt>
   <trkpt lat="59.057411046" lon="29.9871400021"><ele>100.053</ele><time>2026-04-22T07:56:34.984Z</time><hdop>1.75</hdop><vdop>1.25</vdop><extensions><gom:speed>0.0</gom:speed><gom:rel_alt>143.152</gom:rel_alt></extensions></trkpt>
   <trkpt lat="59.0575024506" lon="29.9870661576"><ele>101.664</ele><time>2026-04-22T07:56:57.983Z</time><hdop>1.5</hdop><vdop>1.375</vdop><extensions><gom:speed>0.0</gom:speed><gom:rel_alt>142.547</gom:rel_alt></extensions></trkpt>
   <trkpt lat="59.0575804442" lon="29.9869787343"><ele>99.928</ele><time>2026-04-22T07:57:10.984Z</time><hdop>1.125</hdop><vdop>1.25</vdop><extensions><gom:speed>0.0</gom:speed><gom:rel_alt>142.372</gom:rel_alt></extensions></trkpt>
   <trkpt lat="59.0576606171" lon="29.9868785706"><ele>100.078</ele><time>2026-04-22T07:57:29.107Z</time><hdop>3.0</hdop><vdop>1.125</vdop><extensions><gom:speed>0.193</gom:speed><gom:rel_alt>142.935</gom:rel_alt></extensions></trkpt>
   <trkpt lat="59.0577362219" lon="29.9867821787"><ele>99.979</ele><time>2026-04-22T07:57:48.976Z</time><hdop>3.0</hdop><vdop>1.25</vdop><extensions><gom:speed>0.425</gom:speed><gom:rel_alt>142.753</gom:rel_alt></extensions></trkpt>
   <trkpt lat="59.0578087254" lon="29.986669945"><ele>99.606</ele><time>2026-04-22T07:57:57.374Z</time><hdop>3.0</hdop><vdop>1.25</vdop><extensions><gom:speed>0.568</gom:speed><gom:rel_alt>142.647</gom:rel_alt></extensions></trkpt>
   <trkpt lat="59.0578949332" lon="29.9866132833"><ele>99.855</ele><time>2026-04-22T07:58:08.979Z</time><hdop>3.0</hdop><vdop>1.375</vdop><extensions><gom:speed>0.261</gom:speed><gom:rel_alt>143.226</gom:rel_alt></extensions></trkpt>
   <trkpt lat="59.0579547381" lon="29.9864801787"><ele>100.546</ele><time>2026-04-22T07:58:25.359Z</time><hdop>3.0</hdop><vdop>1.25</vdop><extensions><gom:speed>0.406</gom:speed><gom:rel_alt>143.062</gom:rel_alt></extensions></trkpt>
   <trkpt lat="59.058027032" lon="29.9863718007"><ele>99.472</ele><time>2026-04-22T07:58:32.835Z</time><hdop>3.0</hdop><vdop>1.125</vdop><extensions><gom:speed>0.489</gom:speed><gom:rel_alt>141.548</gom:rel_alt></extensions></trkpt>
   <trkpt lat="59.0580845319" lon="29.9862260394"><ele>97.828</ele><time>2026-04-22T07:58:43.360Z</time><hdop>3.0</hdop><vdop>1.25</vdop><extensions><gom:speed>0.275</gom:speed><gom:rel_alt>142.311</gom:rel_alt></extensions></trkpt>
   <trkpt lat="59.0581532216" lon="29.9861046695"><ele>99.595</ele><time>2026-04-22T07:58:59.956Z</time><hdop>3.0</hdop><vdop>1.25</vdop><extensions><gom:speed>0.192</gom:speed><gom:rel_alt>142.377</gom:rel_alt></extensions></trkpt>
   <trkpt lat="59.0582414411" lon="29.9860692978"><ele>100.482</ele><time>2026-04-22T07:59:16.817Z</time><hdop>3.0</hdop><vdop>1.375</vdop><extensions><gom:speed>0.167</gom:speed><gom:rel_alt>143.125</gom:rel_alt></extensions></trkpt>
   <trkpt lat="59.0583104242" lon="29.9859499395"><ele>98.531</ele><time>2026-04-22T07:59:32.085Z</time><hdop>3.0</hdop><vdop>1.125</vdop><extensions><gom:speed>0.216</gom:speed><gom:rel_alt>142.689</gom:rel_alt></extensions></trkpt>
   <trkpt lat="59.0583931536" lon="29.9858710658"><ele>97.651</ele><time>2026-04-22T07:59:46.856Z</time><hdop>3.0</hdop><vdop>1.0</vdop><extensions><gom:speed>0.292</gom:speed><gom:rel_alt>142.002</gom:rel_alt></extensions></trkpt>
   <trkpt lat="59.0584805349" lon="29.9858285696"><ele>99.239</ele><time>2026-04-22T08:00:09.085Z</time><hdop>3.0</hdop><vdop>1.125</vdop><extensions><gom:speed>0.063</gom:speed><gom:rel_alt>143.049</gom:rel_alt></extensions></trkpt>
   <trkpt lat="59.0585232407" lon="29.9856731691"><ele>98.258</ele><time>2026-04-22T08:01:33.775Z</time><hdop>3.0</hdop><vdop>1.125</vdop><extensions><gom:speed>0.407</gom:speed><gom:rel_alt>143.796</gom:rel_alt></extensions></trkpt>
   <trkpt lat="59.0585635576" lon="29.9855117336"><ele>98.852</ele><time>2026-04-22T08:02:02.084Z</time><hdop>3.0</hdop><vdop>1.125</vdop><extensions><gom:speed>0.368</gom:speed><gom:rel_alt>143.976</gom:rel_alt></extensions></trkpt>
   <trkpt lat="59.0586511485" lon="29.9854706623"><ele>97.918</ele><time>2026-04-22T08:02:14.440Z</time><hdop>3.0</hdop><vdop>1.25</vdop><extensions><gom:speed>0.54</gom:speed><gom:rel_alt>144.119</gom:rel_alt></extensions></trkpt>
   <trkpt lat="59.0587205507" lon="29.9853563331"><ele>98.12</ele><time>2026-04-22T08:02:27.813Z</time><hdop>3.0</hdop><vdop>1.125</vdop><extensions><gom:speed>0.588</gom:speed><gom:rel_alt>143.418</gom:rel_alt></extensions></trkpt>
   <trkpt lat="59.0588066328" lon="29.9852653057"><ele>98.483</ele><time>2026-04-22T08:02:40.319Z</time><hdop>3.0</hdop><vdop>1.125</vdop><extensions><gom:speed>0.711</gom:speed><gom:rel_alt>143.987</gom:rel_alt></extensions></trkpt>
   <trkpt lat="59.0588750292" lon="29.9851358053"><ele>98.138</ele><time>2026-04-22T08:02:53.696Z</time><hdop>3.0</hdop><vdop>1.0</vdop><extensions><gom:speed>0.282</gom:speed><gom:rel_alt>143.825</gom:rel_alt></extensions></trkpt>
   <trkpt lat="59.0589467364" lon="29.9850183748"><ele>96.656</ele><time>2026-04-22T08:03:08.396Z</time><hdop>3.0</hdop><vdop>1.125</vdop><extensions><gom:speed>0.535</gom:speed><gom:rel_alt>143.902</gom:rel_alt></extensions></trkpt>
   <trkpt lat="59.0590318546" lon="29.9849194684"><ele>97.49</ele><time>2026-04-22T08:03:25.915Z</time><hdop>3.0</hdop><vdop>1.125</vdop><extensions><gom:speed>0.433</gom:speed><gom:rel_alt>143.247</gom:rel_alt></extensions></trkpt>
   <trkpt lat="59.059099748" lon="29.9847977631"><ele>96.452</ele><time>2026-04-22T08:03:35.579Z</time><hdop>3.0</hdop><vdop>1.125</vdop><extensions><gom:speed>0.473</gom:speed><gom:rel_alt>143.207</gom:rel_alt></extensions></trkpt>
   <trkpt lat="59.0591790408" lon="29.9847087473"><ele>97.279</ele><time>2026-04-22T08:03:47.085Z</time><hdop>3.0</hdop><vdop>1.0</vdop><extensions><gom:speed>0.667</gom:speed><gom:rel_alt>143.226</gom:rel_alt></extensions></trkpt>
   <trkpt lat="59.0592664221" lon="29.9846505769"><ele>97.354</ele><time>2026-04-22T08:04:05.084Z</time><hdop>3.0</hdop><vdop>1.125</vdop><extensions><gom:speed>0.469</gom:speed><gom:rel_alt>143.487</gom:rel_alt></extensions></trkpt>
   <trkpt lat="59.059361431" lon="29.984646805"><ele>96.343</ele><time>2026-04-22T08:04:16.701Z</time><hdop>3.0</hdop><vdop>1.125</vdop><extensions><gom:speed>0.467</gom:speed><gom:rel_alt>143.638</gom:rel_alt></extensions></trkpt>
   <trkpt lat="59.0594514527" lon="29.9846351542"><ele>96.995</ele><time>2026-04-22T08:04:39.638Z</time><hdop>3.0</hdop><vdop>1.125</vdop><extensions><gom:speed>0.404</gom:speed><gom:rel_alt>143.675</gom:rel_alt></extensions></trkpt>
   <trkpt lat="59.0595390435" lon="29.9845729605"><ele>96.572</ele><time>2026-04-22T08:04:57.084Z</time><hdop>3.0</hdop><vdop>1.125</vdop><extensions><gom:speed>0.203</gom:speed><gom:rel_alt>143.617</gom:rel_alt></extensions></trkpt>
   <trkpt lat="59.0596122176" lon="29.9844620679"><ele>95.668</ele><time>2026-04-22T08:05:16.615Z</time><hdop>3.0</hdop><vdop>1.125</vdop><extensions><gom:speed>0.364</gom:speed><gom:rel_alt>143.054</gom:rel_alt></extensions></trkpt>
   <trkpt lat="59.0596914265" lon="29.9843775783"><ele>95.712</ele><time>2026-04-22T08:05:29.084Z</time><hdop>3.0</hdop><vdop>1.125</vdop><extensions><gom:speed>0.593</gom:speed><gom:rel_alt>143.59</gom:rel_alt></extensions></trkpt>
   <trkpt lat="59.0597797299" lon="29.9843118642"><ele>94.784</ele><time>2026-04-22T08:08:39.084Z</time><hdop>3.0</hdop><vdop>1.375</vdop><extensions><gom:speed>0.16</gom:speed><gom:rel_alt>145.841</gom:rel_alt></extensions></trkpt>
   <trkpt lat="59.059865351" lon="29.9842493352"><ele>95.548</ele><time>2026-04-22T08:08:51.085Z</time><hdop>3.0</hdop><vdop>1.125</vdop><extensions><gom:speed>0.365</gom:speed><gom:rel_alt>145.07</gom:rel_alt></extensions></trkpt>
   <trkpt lat="59.0599548278" lon="29.9841627501"><ele>93.467</ele><time>2026-04-22T08:09:15.097Z</time><hdop>3.0</hdop><vdop>1.75</vdop><extensions><gom:speed>0.476</gom:speed><gom:rel_alt>145.543</gom:rel_alt></extensions></trkpt>
   <trkpt lat="59.0600459391" lon="29.9841643427"><ele>93.733</ele><time>2026-04-22T08:09:35.809Z</time><hdop>3.0</hdop><vdop>1.375</vdop><extensions><gom:speed>0.112</gom:speed><gom:rel_alt>144.927</gom:rel_alt></extensions></trkpt>
   <trkpt lat="59.0601343263" lon="29.9841000535"><ele>92.363</ele><time>2026-04-22T08:09:47.719Z</time><hdop>3.0</hdop><vdop>1.625</vdop><extensions><gom:speed>0.294</gom:speed><gom:rel_alt>145.464</gom:rel_alt></extensions></trkpt>
   <trkpt lat="59.0602160499" lon="29.9840212636"><ele>92.116</ele><time>2026-04-22T08:10:08.380Z</time><hdop>3.0</hdop><vdop>1.5</vdop><extensions><gom:speed>0.296</gom:speed><gom:rel_alt>143.688</gom:rel_alt></extensions></trkpt>
   <trkpt lat="59.060300749" lon="29.9839314096"><ele>92.492</ele><time>2026-04-22T08:10:32.836Z</time><hdop>3.0</hdop><vdop>1.5</vdop><extensions><gom:speed>0.526</gom:speed><gom:rel_alt>144.251</gom:rel_alt></extensions></trkpt>
   <trkpt lat="59.0603606377" lon="29.9837864865"><ele>92.1</ele><time>2026-04-22T08:10:56.982Z</time><hdop>1.625</hdop><vdop>1.625</vdop><extensions><gom:speed>0.308</gom:speed><gom:rel_alt>144.658</gom:rel_alt></extensions></trkpt>
   <trkpt lat="59.0604061514" lon="29.9836211116"><ele>91.026</ele><time>2026-04-22T08:11:20.982Z</time><hdop>1.5</hdop><vdop>1.25</vdop><extensions><gom:speed>0.458</gom:speed><gom:rel_alt>143.603</gom:rel_alt></extensions></trkpt>
   <trkpt lat="59.0604680518" lon="29.9834741768"><ele>90.656</ele><time>2026-04-22T08:12:03.981Z</time><hdop>1.0</hdop><vdop>1.25</vdop><extensions><gom:speed>0.738</gom:speed><gom:rel_alt>153.031</gom:rel_alt></extensions></trkpt>
   <trkpt lat="59.0605379569" lon="29.983334199"><ele>91.715</ele><time>2026-04-22T08:13:27.982Z</time><hdop>1.5</hdop><vdop>1.25</vdop><extensions><gom:speed>0.308</gom:speed><gom:rel_alt>145.001</gom:rel_alt></extensions></trkpt>
   <trkpt lat="59.0605884578" lon="29.9831832409"><ele>91.684</ele><time>2026-04-22T08:13:55.981Z</time><hdop>1.5</hdop><vdop>1.125</vdop><extensions><gom:speed>0.238</gom:speed><gom:rel_alt>145.17</gom:rel_alt></extensions></trkpt>
   <trkpt lat="59.0606487237" lon="29.9830513098"><ele>90.22</ele><time>2026-04-22T08:14:12.982Z</time><hdop>1.5</hdop><vdop>1.0</vdop><extensions><gom:speed>0.788</gom:speed><gom:rel_alt>144.518</gom:rel_alt></extensions></trkpt>
   <trkpt lat="59.0606926449" lon="29.9828985077"><ele>90.995</ele><time>2026-04-22T08:14:39.981Z</time><hdop>1.375</hdop><vdop>1.125</vdop><extensions><gom:speed>0.248</gom:speed><gom:rel_alt>145.405</gom:rel_alt></extensions></trkpt>
   <trkpt lat="59.0607255438" lon="29.982730702"><ele>91.059</ele><time>2026-04-22T08:15:14.982Z</time><hdop>1.5</hdop><vdop>1.125</vdop><extensions><gom:speed>0.258</gom:speed><gom:rel_alt>144.782</gom:rel_alt></extensions></trkpt>
   <trkpt lat="59.0607967481" lon="29.9826165405"><ele>91.49</ele><time>2026-04-22T08:15:43.982Z</time><hdop>1.5</hdop><vdop>1.125</vdop><extensions><gom:speed>0.468</gom:speed><gom:rel_alt>145.289</gom:rel_alt></extensions></trkpt>
   <trkpt lat="59.0608698383" lon="29.9825077434"><ele>90.408</ele><time>2026-04-22T08:16:04.982Z</time><hdop>1.5</hdop><vdop>1.25</vdop><extensions><gom:speed>0.668</gom:speed><gom:rel_alt>145.107</gom:rel_alt></extensions></trkpt>
   <trkpt lat="59.0609495502" lon="29.9824212421"><ele>90.865</ele><time>2026-04-22T08:16:17.982Z</time><hdop>1.5</hdop><vdop>1.25</vdop><extensions><gom:speed>0.528</gom:speed><gom:rel_alt>144.969</gom:rel_alt></extensions></trkpt>
   <trkpt lat="59.0610438466" lon="29.9824387603"><ele>90.269</ele><time>2026-04-22T08:16:32.172Z</time><hdop>2.75</hdop><vdop>1.375</vdop><extensions><gom:speed>1.003</gom:speed><gom:rel_alt>145.353</gom:rel_alt></extensions></trkpt>
   <trkpt lat="59.0611352513" lon="29.9824537639"><ele>90.624</ele><time>2026-04-22T08:16:41.360Z</time><hdop>3.0</hdop><vdop>1.125</vdop><extensions><gom:speed>0.761</gom:speed><gom:rel_alt>145.572</gom:rel_alt></extensions></trkpt>
   <trkpt lat="59.0612207467" lon="29.9825178855"><ele>90.614</ele><time>2026-04-22T08:16:51.781Z</time><hdop>3.0</hdop><vdop>1.125</vdop><extensions><gom:speed>0.932</gom:speed><gom:rel_alt>145.387</gom:rel_alt></extensions></trkpt>
   <trkpt lat="59.0613096368" lon="29.982559795"><ele>89.132</ele><time>2026-04-22T08:17:02.977Z</time><hdop>3.0</hdop><vdop>1.25</vdop><extensions><gom:speed>0.616</gom:speed><gom:rel_alt>145.017</gom:rel_alt></extensions></trkpt>
   <trkpt lat="59.0614028435" lon="29.9825618904"><ele>90.801</ele><time>2026-04-22T08:17:13.940Z</time><hdop>3.0</hdop><vdop>1.0</vdop><extensions><gom:speed>0.882</gom:speed><gom:rel_alt>145.458</gom:rel_alt></extensions></trkpt>
   <trkpt lat="59.0614972238" lon="29.9825807497"><ele>90.747</ele><time>2026-04-22T08:17:24.319Z</time><hdop>3.0</hdop><vdop>1.125</vdop><extensions><gom:speed>0.852</gom:speed><gom:rel_alt>145.326</gom:rel_alt></extensions></trkpt>
   <trkpt lat="59.0615877483" lon="29.9825983517"><ele>88.058</ele><time>2026-04-22T08:17:37.085Z</time><hdop>3.0</hdop><vdop>1.5</vdop><extensions><gom:speed>0.727</gom:speed><gom:rel_alt>145.564</gom:rel_alt></extensions></trkpt>
   <trkpt lat="59.0616839307" lon="29.9826136068"><ele>89.439</ele><time>2026-04-22T08:17:51.893Z</time><hdop>3.0</hdop><vdop>1.5</vdop><extensions><gom:speed>0.654</gom:speed><gom:rel_alt>145.559</gom:rel_alt></extensions></trkpt>
   <trkpt lat="59.0617734494" lon="29.9825951666"><ele>87.384</ele><time>2026-04-22T08:18:31.900Z</time><hdop>3.0</hdop><vdop>1.25</vdop><extensions><gom:speed>0.336</gom:speed><gom:rel_alt>147.805</gom:rel_alt></extensions></trkpt>
   <trkpt lat="59.0618089467" lon="29.9824160453"><ele>87.125</ele><time>2026-04-22T08:18:48.090Z</time><hdop>3.0</hdop><vdop>1.5</vdop><extensions><gom:speed>0.42</gom:speed><gom:rel_alt>143.963</gom:rel_alt></extensions></trkpt>
   <trkpt lat="59.0618911313" lon="29.9823412788"><ele>87.032</ele><time>2026-04-22T08:19:37.863Z</time><hdop>3.0</hdop><vdop>1.625</vdop><extensions><gom:speed>0.124</gom:speed><gom:rel_alt>146.446</gom:rel_alt></extensions></trkpt>
   <trkpt lat="59.0619828293" lon="29.9823102657"><ele>87.291</ele><time>2026-04-22T08:19:49.942Z</time><hdop>3.0</hdop><vdop>1.375</vdop><extensions><gom:speed>0.353</gom:speed><gom:rel_alt>146.248</gom:rel_alt></extensions></trkpt>
   <trkpt lat="59.0620731443" lon="29.9822189868"><ele>86.857</ele><time>2026-04-22T08:20:02.086Z</time><hdop>3.0</hdop><vdop>1.625</vdop><extensions><gom:speed>0.522</gom:speed><gom:rel_alt>145.955</gom:rel_alt></extensions></trkpt>
   <trkpt lat="59.0621510541" lon="29.9821309768"><ele>86.827</ele><time>2026-04-22T08:20:17.597Z</time><hdop>3.0</hdop><vdop>1.25</vdop><extensions><gom:speed>0.495</gom:speed><gom:rel_alt>146.018</gom:rel_alt></extensions></trkpt>
   <trkpt lat="59.0622404471" lon="29.9820678611"><ele>86.721</ele><time>2026-04-22T08:20:33.778Z</time><hdop>3.0</hdop><vdop>1.625</vdop><extensions><gom:speed>0.568</gom:speed><gom:rel_alt>145.775</gom:rel_alt></extensions></trkpt>
   <trkpt lat="59.06232435" lon="29.981997956"><ele>86.91</ele><time>2026-04-22T08:21:27.980Z</time><hdop>3.0</hdop><vdop>1.625</vdop><extensions><gom:speed>0.057</gom:speed><gom:rel_alt>146.166</gom:rel_alt></extensions></trkpt>
   <trkpt lat="59.0624155451" lon="29.9819899932"><ele>86.915</ele><time>2026-04-22T08:22:40.680Z</time><hdop>3.0</hdop><vdop>1.375</vdop><extensions><gom:speed>0.134</gom:speed><gom:rel_alt>145.921</gom:rel_alt></extensions></trkpt>
   <trkpt lat="59.0624926167" lon="29.9818988819"><ele>87.47</ele><time>2026-04-22T08:22:59.089Z</time><hdop>3.0</hdop><vdop>2.0</vdop><extensions><gom:speed>0.479</gom:speed><gom:rel_alt>145.625</gom:rel_alt></extensions></trkpt>
   <trkpt lat="59.0625773577" lon="29.9819749896"><ele>86.776</ele><time>2026-04-22T08:23:13.540Z</time><hdop>3.0</hdop><vdop>1.5</vdop><extensions><gom:speed>0.454</gom:speed><gom:rel_alt>145.709</gom:rel_alt></extensions></trkpt>
   <trkpt lat="59.0626653258" lon="29.981914137"><ele>87.499</ele><time>2026-04-22T08:23:45.959Z</time><hdop>3.0</hdop><vdop>1.625</vdop><extensions><gom:speed>0.168</gom:speed><gom:rel_alt>146.203</gom:rel_alt></extensions></trkpt>
   <trkpt lat="59.0627109233" lon="29.9817464151"><ele>87.544</ele><time>2026-04-22T08:24:08.839Z</time><hdop>3.0</hdop><vdop>2.125</vdop><extensions><gom:speed>0.524</gom:speed><gom:rel_alt>145.958</gom:rel_alt></extensions></trkpt>
   <trkpt lat="59.0627200177" lon="29.9815634381"><ele>87.138</ele><time>2026-04-22T08:24:22.779Z</time><hdop>3.0</hdop><vdop>1.875</vdop><extensions><gom:speed>0.497</gom:speed><gom:rel_alt>146.09</gom:rel_alt></extensions></trkpt>
   <trkpt lat="59.062800023" lon="29.9814817984"><ele>86.621</ele><time>2026-04-22T08:24:39.084Z</time><hdop>3.0</hdop><vdop>1.625</vdop><extensions><gom:speed>0.447</gom:speed><gom:rel_alt>145.773</gom:rel_alt></extensions></trkpt>
   <trkpt lat="59.0628879491" lon="29.9814313393"><ele>86.421</ele><time>2026-04-22T08:24:52.084Z</time><hdop>3.0</hdop><vdop>1.75</vdop><extensions><gom:speed>0.456</gom:speed><gom:rel_alt>145.458</gom:rel_alt></extensions></trkpt>
   <trkpt lat="59.0629701337" lon="29.9813534715"><ele>86.957</ele><time>2026-04-22T08:25:09.379Z</time><hdop>3.0</hdop><vdop>1.375</vdop><extensions><gom:speed>0.529</gom:speed><gom:rel_alt>146.092</gom:rel_alt></extensions></trkpt>
   <trkpt lat="59.063049636" lon="29.9812608514"><ele>86.629</ele><time>2026-04-22T08:25:20.085Z</time><hdop>3.0</hdop><vdop>1.75</vdop><extensions><gom:speed>0.863</gom:speed><gom:rel_alt>146.198</gom:rel_alt></extensions></trkpt>
   <trkpt lat="59.0631145539" lon="29.9811353743"><ele>86.79</ele><time>2026-04-22T08:25:35.539Z</time><hdop>3.0</hdop><vdop>1.625</vdop><extensions><gom:speed>0.143</gom:speed><gom:rel_alt>146.417</gom:rel_alt></extensions></trkpt>
   <trkpt lat="59.0631868478" lon="29.9810203746"><ele>87.172</ele><time>2026-04-22T08:25:51.743Z</time><hdop>3.0</hdop><vdop>1.875</vdop><extensions><gom:speed>0.186</gom:speed><gom:rel_alt>146.84</gom:rel_alt></extensions></trkpt>
   <trkpt lat="59.063275235" lon="29.9809551634"><ele>86.547</ele><time>2026-04-22T08:26:12.659Z</time><hdop>3.0</hdop><vdop>1.625</vdop><extensions><gom:speed>0.327</gom:speed><gom:rel_alt>146.301</gom:rel_alt></extensions></trkpt>
   <trkpt lat="59.06336182" lon="29.9808985856"><ele>86.479</ele><time>2026-04-22T08:26:38.818Z</time><hdop>3.0</hdop><vdop>1.75</vdop><extensions><gom:speed>0.23</gom:speed><gom:rel_alt>146.333</gom:rel_alt></extensions></trkpt>
   <trkpt lat="59.063421122" lon="29.9807604518"><ele>87.073</ele><time>2026-04-22T08:26:55.085Z</time><hdop>3.0</hdop><vdop>1.5</vdop><extensions><gom:speed>0.356</gom:speed><gom:rel_alt>146.51</gom:rel_alt></extensions></trkpt>
   <trkpt lat="59.0635111436" lon="29.9807453644"><ele>86.446</ele><time>2026-04-22T08:27:16.740Z</time><hdop>3.0</hdop><vdop>1.875</vdop><extensions><gom:speed>0.258</gom:speed><gom:rel_alt>145.73</gom:rel_alt></extensions></trkpt>
   <trkpt lat="59.0635915261" lon="29.9806624674"><ele>86.744</ele><time>2026-04-22T08:27:29.135Z</time><hdop>3.0</hdop><vdop>2.0</vdop><extensions><gom:speed>0.471</gom:speed><gom:rel_alt>146.367</gom:rel_alt></extensions></trkpt>
   <trkpt lat="59.0636645325" lon="29.9805594538"><ele>85.153</ele><time>2026-04-22T08:27:45.999Z</time><hdop>3.0</hdop><vdop>1.875</vdop><extensions><gom:speed>0.205</gom:speed><gom:rel_alt>146.312</gom:rel_alt></extensions></trkpt>
   <trkpt lat="59.0637415202" lon="29.9804670852"><ele>86.123</ele><time>2026-04-22T08:28:14.085Z</time><hdop>3.0</hdop><vdop>1.875</vdop><extensions><gom:speed>0.409</gom:speed><gom:rel_alt>145.95</gom:rel_alt></extensions></trkpt>
   <trkpt lat="59.063833344" lon="29.9803953361"><ele>87.094</ele><time>2026-04-22T08:28:47.980Z</time><hdop>2.125</hdop><vdop>1.75</vdop><extensions><gom:speed>0.248</gom:speed><gom:rel_alt>146.164</gom:rel_alt></extensions></trkpt>
   <trkpt lat="59.0638874492" lon="29.9802256864"><ele>87.2</ele><time>2026-04-22T08:29:36.981Z</time><hdop>2.625</hdop><vdop>2.0</vdop><extensions><gom:speed>0.258</gom:speed><gom:rel_alt>146.547</gom:rel_alt></extensions></trkpt>
   <trkpt lat="59.063925042" lon="29.9800443858"><ele>87.19</ele><time>2026-04-22T08:29:56.981Z</time><hdop>2.25</hdop><vdop>2.0</vdop><extensions><gom:speed>0.398</gom:speed><gom:rel_alt>145.963</gom:rel_alt></extensions></trkpt>
   <trkpt lat="59.0639519479" lon="29.9798765801"><ele>88.728</ele><time>2026-04-22T08:31:28.371Z</time><hdop>3.0</hdop><vdop>2.0</vdop><extensions><gom:speed>0.391</gom:speed><gom:rel_alt>147.089</gom:rel_alt></extensions></trkpt>
   <trkpt lat="59.0640293548" lon="29.9797474988"><ele>87.908</ele><time>2026-04-22T08:33:07.981Z</time><hdop>2.25</hdop><vdop>1.875</vdop><extensions><gom:speed>0.258</gom:speed><gom:rel_alt>147.48</gom:rel_alt></extensions></trkpt>
   <trkpt lat="59.0641199213" lon="29.979715899"><ele>89.522</ele><time>2026-04-22T08:33:32.980Z</time><hdop>3.875</hdop><vdop>1.875</vdop><extensions><gom:speed>0.0</gom:speed><gom:rel_alt>148.648</gom:rel_alt></extensions></trkpt>
   <trkpt lat="59.0641808577" lon="29.9795824591"><ele>88.001</ele><time>2026-04-22T08:34:24.979Z</time><hdop>1.75</hdop><vdop>2.0</vdop><extensions><gom:speed>0.538</gom:speed><gom:rel_alt>149.675</gom:rel_alt></extensions></trkpt>
   <trkpt lat="59.0642750284" lon="29.9795516976"><ele>89.521</ele><time>2026-04-22T08:34:41.003Z</time><hdop>2.5</hdop><vdop>1.625</vdop><extensions><gom:speed>0.418</gom:speed><gom:rel_alt>150.064</gom:rel_alt></extensions></trkpt>
   <trkpt lat="59.0643572549" lon="29.9796321638"><ele>88.715</ele><time>2026-04-22T08:35:04.980Z</time><hdop>3.0</hdop><vdop>1.875</vdop><extensions><gom:speed>0.126</gom:speed><gom:rel_alt>148.167</gom:rel_alt></extensions></trkpt>
   <trkpt lat="59.0644480309" lon="29.979646916"><ele>88.442</ele><time>2026-04-22T08:35:20.088Z</time><hdop>3.0</hdop><vdop>1.875</vdop><extensions><gom:speed>0.607</gom:speed><gom:rel_alt>148.071</gom:rel_alt></extensions></trkpt>
   <trkpt lat="59.0645275332" lon="29.9795488477"><ele>88.428</ele><time>2026-04-22T08:35:31.084Z</time><hdop>3.0</hdop><vdop>1.75</vdop><extensions><gom:speed>0.67</gom:speed><gom:rel_alt>148.859</gom:rel_alt></extensions></trkpt>
   <trkpt lat="59.0646038504" lon="29.9794518691"><ele>88.595</ele><time>2026-04-22T08:35:49.794Z</time><hdop>3.0</hdop><vdop>1.875</vdop><extensions><gom:speed>0.293</gom:speed><gom:rel_alt>148.933</gom:rel_alt></extensions></trkpt>
   <trkpt lat="59.0646873342" lon="29.9793515377"><ele>88.689</ele><time>2026-04-22T08:36:10.791Z</time><hdop>3.0</hdop><vdop>1.875</vdop><extensions><gom:speed>0.266</gom:speed><gom:rel_alt>148.19</gom:rel_alt></extensions></trkpt>
   <trkpt lat="59.0647516234" lon="29.9792178464"><ele>87.806</ele><time>2026-04-22T08:36:27.145Z</time><hdop>3.0</hdop><vdop>1.75</vdop><extensions><gom:speed>0.346</gom:speed><gom:rel_alt>148.563</gom:rel_alt></extensions></trkpt>
   <trkpt lat="59.064843531" lon="29.9791769427"><ele>88.159</ele><time>2026-04-22T08:36:42.084Z</time><hdop>3.0</hdop><vdop>1.875</vdop><extensions><gom:speed>0.34</gom:speed><gom:rel_alt>148.325</gom:rel_alt></extensions></trkpt>
   <trkpt lat="59.0649322534" lon="29.979138805"><ele>88.343</ele><time>2026-04-22T08:36:58.613Z</time><hdop>3.0</hdop><vdop>1.875</vdop><extensions><gom:speed>0.143</gom:speed><gom:rel_alt>148.452</gom:rel_alt></extensions></trkpt>
   <trkpt lat="59.0649848499" lon="29.9789927923"><ele>87.969</ele><time>2026-04-22T08:37:13.084Z</time><hdop>3.0</hdop><vdop>1.875</vdop><extensions><gom:speed>0.067</gom:speed><gom:rel_alt>148.283</gom:rel_alt></extensions></trkpt>
   <trkpt lat="59.0650011527" lon="29.9788130004"><ele>87.232</ele><time>2026-04-22T08:38:05.511Z</time><hdop>3.0</hdop><vdop>1.75</vdop><extensions><gom:speed>0.283</gom:speed><gom:rel_alt>148.531</gom:rel_alt></extensions></trkpt>
   <trkpt lat="59.065084343" lon="29.978730774"><ele>87.329</ele><time>2026-04-22T08:39:10.980Z</time><hdop>1.75</hdop><vdop>1.625</vdop><extensions><gom:speed>1.458</gom:speed><gom:rel_alt>148.494</gom:rel_alt></extensions></trkpt>
   <trkpt lat="59.0651699223" lon="29.9788071331"><ele>86.61</ele><time>2026-04-22T08:41:46.981Z</time><hdop>1.75</hdop><vdop>1.875</vdop><extensions><gom:speed>0.238</gom:speed><gom:rel_alt>148.811</gom:rel_alt></extensions></trkpt>
   <trkpt lat="59.0652562559" lon="29.9787551653"><ele>85.807</ele><time>2026-04-22T08:42:07.374Z</time><hdop>3.0</hdop><vdop>1.625</vdop><extensions><gom:speed>0.265</gom:speed><gom:rel_alt>149.311</gom:rel_alt></extensions></trkpt>
   <trkpt lat="59.0653357163" lon="29.9786609527"><ele>85.8</ele><time>2026-04-22T08:42:24.084Z</time><hdop>3.0</hdop><vdop>1.5</vdop><extensions><gom:speed>0.39</gom:speed><gom:rel_alt>149.485</gom:rel_alt></extensions></trkpt>
   <trkpt lat="59.0654190324" lon="29.9785949033"><ele>85.299</ele><time>2026-04-22T08:43:02.992Z</time><hdop>3.0</hdop><vdop>1.625</vdop><extensions><gom:speed>0.185</gom:speed><gom:rel_alt>148.951</gom:rel_alt></extensions></trkpt>
   <trkpt lat="59.0655002531" lon="29.9785178736"><ele>86.154</ele><time>2026-04-22T08:43:16.951Z</time><hdop>3.0</hdop><vdop>1.75</vdop><extensions><gom:speed>0.297</gom:speed><gom:rel_alt>149.128</gom:rel_alt></extensions></trkpt>
   <trkpt lat="59.0655766541" lon="29.9784203921"><ele>85.187</ele><time>2026-04-22T08:43:33.031Z</time><hdop>3.0</hdop><vdop>1.5</vdop><extensions><gom:speed>0.323</gom:speed><gom:rel_alt>149.213</gom:rel_alt></extensions></trkpt>
   <trkpt lat="59.0656644546" lon="29.9783400935"><ele>85.05</ele><time>2026-04-22T08:43:55.084Z</time><hdop>3.0</hdop><vdop>1.5</vdop><extensions><gom:speed>0.416</gom:speed><gom:rel_alt>148.515</gom:rel_alt></extensions></trkpt>
   <trkpt lat="59.0657403527" lon="29.9782325536"><ele>85.288</ele><time>2026-04-22T08:44:13.555Z</time><hdop>3.0</hdop><vdop>1.5</vdop><extensions><gom:speed>0.581</gom:speed><gom:rel_alt>148.061</gom:rel_alt></extensions></trkpt>
   <trkpt lat="59.0658211542" lon="29.9781365808"><ele>85.096</ele><time>2026-04-22T08:44:30.891Z</time><hdop>3.0</hdop><vdop>1.5</vdop><extensions><gom:speed>0.207</gom:speed><gom:rel_alt>149.012</gom:rel_alt></extensions></trkpt>
   <trkpt lat="59.0659001537" lon="29.9780354951"><ele>85.208</ele><time>2026-04-22T08:44:50.089Z</time><hdop>3.0</hdop><vdop>1.5</vdop><extensions><gom:speed>0.285</gom:speed><gom:rel_alt>148.621</gom:rel_alt></extensions></trkpt>
   <trkpt lat="59.0659821287" lon="29.9779254407"><ele>85.166</ele><time>2026-04-22T08:45:20.869Z</time><hdop>3.0</hdop><vdop>1.5</vdop><extensions><gom:speed>0.261</gom:speed><gom:rel_alt>148.621</gom:rel_alt></extensions></trkpt>
   <trkpt lat="59.0660140218" lon="29.9777536955"><ele>85.784</ele><time>2026-04-22T08:45:55.853Z</time><hdop>3.0</hdop><vdop>1.5</vdop><extensions><gom:speed>0.162</gom:speed><gom:rel_alt>149.477</gom:rel_alt></extensions></trkpt>
   <trkpt lat="59.0660182547" lon="29.9775754124"><ele>85.851</ele><time>2026-04-22T08:46:15.084Z</time><hdop>3.0</hdop><vdop>1.5</vdop><extensions><gom:speed>0.211</gom:speed><gom:rel_alt>149.187</gom:rel_alt></extensions></trkpt>
   <trkpt lat="59.0660096213" lon="29.9773985543"><ele>85.805</ele><time>2026-04-22T08:48:03.628Z</time><hdop>3.0</hdop><vdop>1.375</vdop><extensions><gom:speed>0.117</gom:speed><gom:rel_alt>149.562</gom:rel_alt></extensions></trkpt>
   <trkpt lat="59.0659779377" lon="29.977224546"><ele>86.178</ele><time>2026-04-22T08:48:29.011Z</time><hdop>3.0</hdop><vdop>1.25</vdop><extensions><gom:speed>0.222</gom:speed><gom:rel_alt>149.818</gom:rel_alt></extensions></trkpt>
   <trkpt lat="59.0659788178" lon="29.9770408146"><ele>85.89</ele><time>2026-04-22T08:48:49.765Z</time><hdop>3.0</hdop><vdop>1.25</vdop><extensions><gom:speed>0.176</gom:speed><gom:rel_alt>149.646</gom:rel_alt></extensions></trkpt>
   <trkpt lat="59.0659689272" lon="29.9768603523"><ele>86.787</ele><time>2026-04-22T08:49:09.085Z</time><hdop>3.0</hdop><vdop>1.25</vdop><extensions><gom:speed>0.03</gom:speed><gom:rel_alt>150.14</gom:rel_alt></extensions></trkpt>
   <trkpt lat="59.0659396324" lon="29.9766857572"><ele>87.043</ele><time>2026-04-22T08:49:53.893Z</time><hdop>3.0</hdop><vdop>1.125</vdop><extensions><gom:speed>0.323</gom:speed><gom:rel_alt>151.16</gom:rel_alt></extensions></trkpt>
   <trkpt lat="59.0659980543" lon="29.9765138444"><ele>87.388</ele><time>2026-04-22T08:50:52.979Z</time><hdop>1.75</hdop><vdop>1.25</vdop><extensions><gom:speed>0.148</gom:speed><gom:rel_alt>150.048</gom:rel_alt></extensions></trkpt>
   <trkpt lat="59.0660021195" lon="29.9763188813"><ele>87.43</ele><time>2026-04-22T08:51:27.979Z</time><hdop>1.375</hdop><vdop>1.375</vdop><extensions><gom:speed>0.618</gom:speed><gom:rel_alt>151.055</gom:rel_alt></extensions></trkpt>
   <trkpt lat="59.0659910554" lon="29.9761445377"><ele>87.661</ele><time>2026-04-22T08:51:46.978Z</time><hdop>1.0</hdop><vdop>1.375</vdop><extensions><gom:speed>0.958</gom:speed><gom:rel_alt>152.928</gom:rel_alt></extensions></trkpt>
   <trkpt lat="59.0659802428" lon="29.9759432882"><ele>87.759</ele><time>2026-04-22T08:52:06.979Z</time><hdop>2.0</hdop><vdop>1.25</vdop><extensions><gom:speed>0.508</gom:speed><gom:rel_alt>151.266</gom:rel_alt></extensions></trkpt>
   <trkpt lat="59.0659577374" lon="29.9757417035"><ele>87.566</ele><time>2026-04-22T08:52:30.978Z</time><hdop>1.5</hdop><vdop>1.375</vdop><extensions><gom:speed>0.598</gom:speed><gom:rel_alt>144.031</gom:rel_alt></extensions></trkpt>
   <trkpt lat="59.0660189252" lon="29.9755927571"><ele>86.986</ele><time>2026-04-22T08:54:42.979Z</time><hdop>1.5</hdop><vdop>1.125</vdop><extensions><gom:speed>0.568</gom:speed><gom:rel_alt>151.274</gom:rel_alt></extensions></trkpt>
   <trkpt lat="59.0661025347" lon="29.9755119555"><ele>87.115</ele><time>2026-04-22T08:55:00.977Z</time><hdop>1.5</hdop><vdop>1.375</vdop><extensions><gom:speed>0.438</gom:speed><gom:rel_alt>152.162</gom:rel_alt></extensions></trkpt>
   <trkpt lat="59.0661882397" lon="29.9754457385"><ele>87.627</ele><time>2026-04-22T08:55:20.978Z</time><hdop>1.5</hdop><vdop>1.25</vdop><extensions><gom:speed>0.768</gom:speed><gom:rel_alt>152.207</gom:rel_alt></extensions></trkpt>
   <trkpt lat="59.0662715558" lon="29.9753599078"><ele>87.135</ele><time>2026-04-22T08:55:37.084Z</time><hdop>2.625</hdop><vdop>1.25</vdop><extensions><gom:speed>0.585</gom:speed><gom:rel_alt>151.686</gom:rel_alt></extensions></trkpt>
   <trkpt lat="59.066357135" lon="29.975296373"><ele>86.766</ele><time>2026-04-22T08:55:56.342Z</time><hdop>3.0</hdop><vdop>1.375</vdop><extensions><gom:speed>0.25</gom:speed><gom:rel_alt>151.966</gom:rel_alt></extensions></trkpt>
   <trkpt lat="59.0664513476" lon="29.9752449919"><ele>87.253</ele><time>2026-04-22T08:56:20.551Z</time><hdop>3.0</hdop><vdop>1.375</vdop><extensions><gom:speed>0.704</gom:speed><gom:rel_alt>152.444</gom:rel_alt></extensions></trkpt>
   <trkpt lat="59.0665422494" lon="29.975239376"><ele>86.874</ele><time>2026-04-22T08:56:39.730Z</time><hdop>3.0</hdop><vdop>1.125</vdop><extensions><gom:speed>0.441</gom:speed><gom:rel_alt>151.567</gom:rel_alt></extensions></trkpt>
   <trkpt lat="59.0666324386" lon="29.9752019089"><ele>86.55</ele><time>2026-04-22T08:56:56.085Z</time><hdop>3.0</hdop><vdop>1.25</vdop><extensions><gom:speed>0.083</gom:speed><gom:rel_alt>151.742</gom:rel_alt></extensions></trkpt>
   <trkpt lat="59.0667250168" lon="29.9752174992"><ele>87.076</ele><time>2026-04-22T08:57:08.698Z</time><hdop>3.0</hdop><vdop>1.125</vdop><extensions><gom:speed>0.461</gom:speed><gom:rel_alt>152.32</gom:rel_alt></extensions></trkpt>
   <trkpt lat="59.0668225402" lon="29.9752374482"><ele>86.522</ele><time>2026-04-22T08:57:41.555Z</time><hdop>3.0</hdop><vdop>1.125</vdop><extensions><gom:speed>0.646</gom:speed><gom:rel_alt>152.415</gom:rel_alt></extensions></trkpt>
   <trkpt lat="59.0669117237" lon="29.9751943652"><ele>86.558</ele><time>2026-04-22T08:59:14.977Z</time><hdop>1.75</hdop><vdop>1.25</vdop><extensions><gom:speed>0.768</gom:speed><gom:rel_alt>153.832</gom:rel_alt></extensions></trkpt>
   <trkpt lat="59.0668999471" lon="29.9750116397"><ele>88.292</ele><time>2026-04-22T09:06:21.977Z</time><hdop>1.5</hdop><vdop>1.125</vdop><extensions><gom:speed>0.128</gom:speed><gom:rel_alt>154.104</gom:rel_alt></extensions></trkpt>
   <trkpt lat="59.0668954209" lon="29.9748300039"><ele>87.881</ele><time>2026-04-22T09:06:46.192Z</time><hdop>3.0</hdop><vdop>1.0</vdop><extensions><gom:speed>0.047</gom:speed><gom:rel_alt>154.204</gom:rel_alt></extensions></trkpt>
   <trkpt lat="59.0668671319" lon="29.9746609409"><ele>87.951</ele><time>2026-04-22T09:07:03.100Z</time><hdop>3.0</hdop><vdop>1.0</vdop><extensions><gom:speed>0.181</gom:speed><gom:rel_alt>154.376</gom:rel_alt></extensions></trkpt>
   <trkpt lat="59.0668536371" lon="29.9744669836"><ele>87.71</ele><time>2026-04-22T09:07:21.110Z</time><hdop>3.0</hdop><vdop>1.0</vdop><extensions><gom:speed>0.46</gom:speed><gom:rel_alt>154.342</gom:rel_alt></extensions></trkpt>
   <trkpt lat="59.0668375438" lon="29.9742867727"><ele>88.635</ele><time>2026-04-22T09:07:38.834Z</time><hdop>3.0</hdop><vdop>1.0</vdop><extensions><gom:speed>0.096</gom:speed><gom:rel_alt>154.661</gom:rel_alt></extensions></trkpt>
   <trkpt lat="59.0668252224" lon="29.9741056398"><ele>88.657</ele><time>2026-04-22T09:07:50.376Z</time><hdop>3.0</hdop><vdop>1.125</vdop><extensions><gom:speed>0.328</gom:speed><gom:rel_alt>155.314</gom:rel_alt></extensions></trkpt>
   <trkpt lat="59.0668123562" lon="29.9739226628"><ele>89.043</ele><time>2026-04-22T09:08:04.119Z</time><hdop>3.0</hdop><vdop>1.125</vdop><extensions><gom:speed>0.632</gom:speed><gom:rel_alt>155.277</gom:rel_alt></extensions></trkpt>
   <trkpt lat="59.0667842349" lon="29.973753516"><ele>88.655</ele><time>2026-04-22T09:08:16.055Z</time><hdop>3.0</hdop><vdop>1.0</vdop><extensions><gom:speed>0.429</gom:speed><gom:rel_alt>154.32</gom:rel_alt></extensions></trkpt>
   <trkpt lat="59.0667795411" lon="29.9735780828"><ele>88.077</ele><time>2026-04-22T09:08:28.892Z</time><hdop>3.0</hdop><vdop>1.125</vdop><extensions><gom:speed>0.259</gom:speed><gom:rel_alt>154.585</gom:rel_alt></extensions></trkpt>
   <trkpt lat="59.0667571195" lon="29.9733962793"><ele>88.553</ele><time>2026-04-22T09:08:45.394Z</time><hdop>3.0</hdop><vdop>1.0</vdop><extensions><gom:speed>0.324</gom:speed><gom:rel_alt>154.645</gom:rel_alt></extensions></trkpt>
   <trkpt lat="59.0667422416" lon="29.9732169904"><ele>88.578</ele><time>2026-04-22T09:08:58.549Z</time><hdop>3.0</hdop><vdop>1.0</vdop><extensions><gom:speed>0.286</gom:speed><gom:rel_alt>155.137</gom:rel_alt></extensions></trkpt>
   <trkpt lat="59.0667345302" lon="29.9730363604"><ele>88.58</ele><time>2026-04-22T09:09:13.084Z</time><hdop>3.0</hdop><vdop>1.0</vdop><extensions><gom:speed>0.145</gom:speed><gom:rel_alt>154.138</gom:rel_alt></extensions></trkpt>
   <trkpt lat="59.0667234242" lon="29.9728616815"><ele>88.571</ele><time>2026-04-22T09:09:27.836Z</time><hdop>3.0</hdop><vdop>1.0</vdop><extensions><gom:speed>0.176</gom:speed><gom:rel_alt>154.83</gom:rel_alt></extensions></trkpt>
   <trkpt lat="59.066706828" lon="29.9726842367"><ele>88.674</ele><time>2026-04-22T09:09:41.085Z</time><hdop>3.0</hdop><vdop>1.0</vdop><extensions><gom:speed>0.256</gom:speed><gom:rel_alt>154.241</gom:rel_alt></extensions></trkpt>
   <trkpt lat="59.0666852446" lon="29.9725115694"><ele>88.776</ele><time>2026-04-22T09:09:53.437Z</time><hdop>3.0</hdop><vdop>1.125</vdop><extensions><gom:speed>0.384</gom:speed><gom:rel_alt>154.714</gom:rel_alt></extensions></trkpt>
   <trkpt lat="59.0666769466" lon="29.9723286763"><ele>90.095</ele><time>2026-04-22T09:11:47.670Z</time><hdop>3.0</hdop><vdop>1.125</vdop><extensions><gom:speed>0.808</gom:speed><gom:rel_alt>155.959</gom:rel_alt></extensions></trkpt>
   <trkpt lat="59.0666640384" lon="29.9721545004"><ele>90.16</ele><time>2026-04-22T09:12:14.093Z</time><hdop>3.0</hdop><vdop>1.125</vdop><extensions><gom:speed>0.03</gom:speed><gom:rel_alt>156.469</gom:rel_alt></extensions></trkpt>
   <trkpt lat="59.0666599313" lon="29.9719753791"><ele>89.949</ele><time>2026-04-22T09:12:43.093Z</time><hdop>3.0</hdop><vdop>1.125</vdop><extensions><gom:speed>0.223</gom:speed><gom:rel_alt>156.358</gom:rel_alt></extensions></trkpt>
   <trkpt lat="59.0666241406" lon="29.9718051426"><ele>89.513</ele><time>2026-04-22T09:13:04.084Z</time><hdop>3.0</hdop><vdop>1.0</vdop><extensions><gom:speed>0.237</gom:speed><gom:rel_alt>155.951</gom:rel_alt></extensions></trkpt>
   <trkpt lat="59.0666135375" lon="29.9716295418"><ele>89.764</ele><time>2026-04-22T09:13:23.571Z</time><hdop>3.0</hdop><vdop>1.125</vdop><extensions><gom:speed>0.201</gom:speed><gom:rel_alt>156.323</gom:rel_alt></extensions></trkpt>
   <trkpt lat="59.0665953487" lon="29.9714500014"><ele>89.954</ele><time>2026-04-22T09:13:52.469Z</time><hdop>3.0</hdop><vdop>1.125</vdop><extensions><gom:speed>0.184</gom:speed><gom:rel_alt>153.795</gom:rel_alt></extensions></trkpt>
   <trkpt lat="59.0665690296" lon="29.9712796811"><ele>91.158</ele><time>2026-04-22T09:14:16.091Z</time><hdop>3.0</hdop><vdop>1.0</vdop><extensions><gom:speed>0.265</gom:speed><gom:rel_alt>157.557</gom:rel_alt></extensions></trkpt>
   <trkpt lat="59.0665630365" lon="29.9711013981"><ele>91.038</ele><time>2026-04-22T09:14:37.084Z</time><hdop>3.0</hdop><vdop>1.125</vdop><extensions><gom:speed>0.42</gom:speed><gom:rel_alt>156.5</gom:rel_alt></extensions></trkpt>
   <trkpt lat="59.0665518467" lon="29.9709227797"><ele>89.577</ele><time>2026-04-22T09:14:57.070Z</time><hdop>3.0</hdop><vdop>1.125</vdop><extensions><gom:speed>0.403</gom:speed><gom:rel_alt>151.314</gom:rel_alt></extensions></trkpt>
   <trkpt lat="59.0665367173" lon="29.9707455863"><ele>90.251</ele><time>2026-04-22T09:15:18.000Z</time><hdop>3.0</hdop><vdop>1.125</vdop><extensions><gom:speed>0.37</gom:speed><gom:rel_alt>157.364</gom:rel_alt></extensions></trkpt>
   <trkpt lat="59.0665182352" lon="29.9705737573"><ele>91.211</ele><time>2026-04-22T09:15:31.990Z</time><hdop>3.0</hdop><vdop>1.375</vdop><extensions><gom:speed>0.32</gom:speed><gom:rel_alt>155.821</gom:rel_alt></extensions></trkpt>
   <trkpt lat="59.0664999208" lon="29.9703979887"><ele>90.586</ele><time>2026-04-22T09:15:45.086Z</time><hdop>3.0</hdop><vdop>1.125</vdop><extensions><gom:speed>0.704</gom:speed><gom:rel_alt>157.282</gom:rel_alt></extensions></trkpt>
   <trkpt lat="59.0664881442" lon="29.9702143412"><ele>91.484</ele><time>2026-04-22T09:20:14.975Z</time><hdop>1.5</hdop><vdop>1.0</vdop><extensions><gom:speed>0.338</gom:speed><gom:rel_alt>158.543</gom:rel_alt></extensions></trkpt>
   <trkpt lat="59.0664821511" lon="29.9700358905"><ele>92.624</ele><time>2026-04-22T09:23:15.975Z</time><hdop>1.5</hdop><vdop>1.375</vdop><extensions><gom:speed>0.0</gom:speed><gom:rel_alt>159.296</gom:rel_alt></extensions></trkpt>
   <trkpt lat="59.0664687401" lon="29.9698552605"><ele>92.036</ele><time>2026-04-22T09:23:52.975Z</time><hdop>1.5</hdop><vdop>1.25</vdop><extensions><gom:speed>0.148</gom:speed><gom:rel_alt>158.707</gom:rel_alt></extensions></trkpt>
   <trkpt lat="59.0664588494" lon="29.9696792405"><ele>92.41</ele><time>2026-04-22T09:24:09.975Z</time><hdop>1.625</hdop><vdop>1.125</vdop><extensions><gom:speed>0.058</gom:speed><gom:rel_alt>159.201</gom:rel_alt></extensions></trkpt>
   <trkpt lat="59.0664355477" lon="29.9694807571"><ele>91.894</ele><time>2026-04-22T09:24:37.975Z</time><hdop>1.5</hdop><vdop>1.125</vdop><extensions><gom:speed>0.428</gom:speed><gom:rel_alt>159.217</gom:rel_alt></extensions></trkpt>
   <trkpt lat="59.0664142577" lon="29.9692966067"><ele>91.591</ele><time>2026-04-22T09:25:01.976Z</time><hdop>1.875</hdop><vdop>1.125</vdop><extensions><gom:speed>0.218</gom:speed><gom:rel_alt>159.111</gom:rel_alt></extensions></trkpt>
   <trkpt lat="59.0663996313" lon="29.9691108637"><ele>91.458</ele><time>2026-04-22T09:25:21.975Z</time><hdop>1.75</hdop><vdop>1.125</vdop><extensions><gom:speed>0.428</gom:speed><gom:rel_alt>159.468</gom:rel_alt></extensions></trkpt>
   <trkpt lat="59.0663682411" lon="29.9689193372"><ele>90.345</ele><time>2026-04-22T09:25:39.976Z</time><hdop>1.5</hdop><vdop>1.0</vdop><extensions><gom:speed>0.488</gom:speed><gom:rel_alt>158.109</gom:rel_alt></extensions></trkpt>
   <trkpt lat="59.0663646368" lon="29.968734181"><ele>90.731</ele><time>2026-04-22T09:27:04.974Z</time><hdop>1.5</hdop><vdop>1.0</vdop><extensions><gom:speed>0.248</gom:speed><gom:rel_alt>159.402</gom:rel_alt></extensions></trkpt>
   <trkpt lat="59.0663605297" lon="29.9685374577"><ele>89.983</ele><time>2026-04-22T09:27:39.975Z</time><hdop>1.5</hdop><vdop>1.0</vdop><extensions><gom:speed>0.308</gom:speed><gom:rel_alt>160.062</gom:rel_alt></extensions></trkpt>
   <trkpt lat="59.0663368508" lon="29.9683679756"><ele>90.297</ele><time>2026-04-22T09:27:54.975Z</time><hdop>1.5</hdop><vdop>1.125</vdop><extensions><gom:speed>0.0</gom:speed><gom:rel_alt>160.102</gom:rel_alt></extensions></trkpt>
   <trkpt lat="59.0663237332" lon="29.9681742698"><ele>90.569</ele><time>2026-04-22T09:28:15.974Z</time><hdop>1.5</hdop><vdop>1.125</vdop><extensions><gom:speed>0.258</gom:speed><gom:rel_alt>159.859</gom:rel_alt></extensions></trkpt>
   <trkpt lat="59.0663105317" lon="29.9679770436"><ele>90.747</ele><time>2026-04-22T09:28:45.974Z</time><hdop>1.375</hdop><vdop>1.0</vdop><extensions><gom:speed>2.948</gom:speed><gom:rel_alt>158.337</gom:rel_alt></extensions></trkpt>
   <trkpt lat="59.0663019402" lon="29.9677910492"><ele>89.301</ele><time>2026-04-22T09:31:17.975Z</time><hdop>1.5</hdop><vdop>1.125</vdop><extensions><gom:speed>0.088</gom:speed><gom:rel_alt>159.727</gom:rel_alt></extensions></trkpt>
   <trkpt lat="59.0662840448" lon="29.9676149454"><ele>89.757</ele><time>2026-04-22T09:31:39.975Z</time><hdop>1.5</hdop><vdop>1.0</vdop><extensions><gom:speed>0.0</gom:speed><gom:rel_alt>159.077</gom:rel_alt></extensions></trkpt>
   <trkpt lat="59.0662643474" lon="29.9674376682"><ele>89.222</ele><time>2026-04-22T09:32:06.975Z</time><hdop>1.75</hdop><vdop>1.125</vdop><extensions><gom:speed>0.248</gom:speed><gom:rel_alt>159.708</gom:rel_alt></extensions></trkpt>
   <trkpt lat="59.0662518164" lon="29.9672557809"><ele>89.856</ele><time>2026-04-22T09:32:18.974Z</time><hdop>1.75</hdop><vdop>1.125</vdop><extensions><gom:speed>0.038</gom:speed><gom:rel_alt>159.782</gom:rel_alt></extensions></trkpt>
   <trkpt lat="59.0662908342" lon="29.967094094"><ele>90.243</ele><time>2026-04-22T09:34:42.974Z</time><hdop>1.625</hdop><vdop>1.125</vdop><extensions><gom:speed>0.0</gom:speed><gom:rel_alt>159.882</gom:rel_alt></extensions></trkpt>
   <trkpt lat="59.0663847534" lon="29.967093172"><ele>89.844</ele><time>2026-04-22T09:35:14.975Z</time><hdop>2.375</hdop><vdop>1.25</vdop><extensions><gom:speed>1.638</gom:speed><gom:rel_alt>160.876</gom:rel_alt></extensions></trkpt>
   <trkpt lat="59.0664536527" lon="29.9669807706"><ele>90.099</ele><time>2026-04-22T09:36:16.974Z</time><hdop>3.25</hdop><vdop>1.375</vdop><extensions><gom:speed>0.0</gom:speed><gom:rel_alt>159.214</gom:rel_alt></extensions></trkpt>
   <trkpt lat="59.0665470271" lon="29.9670019769"><ele>90.131</ele><time>2026-04-22T09:36:37.974Z</time><hdop>2.875</hdop><vdop>1.25</vdop><extensions><gom:speed>0.0</gom:speed><gom:rel_alt>160.736</gom:rel_alt></extensions></trkpt>
   <trkpt lat="59.0666428322" lon="29.967007006"><ele>90.001</ele><time>2026-04-22T09:37:46.974Z</time><hdop>1.5</hdop><vdop>1.375</vdop><extensions><gom:speed>0.458</gom:speed><gom:rel_alt>160.543</gom:rel_alt></extensions></trkpt>
   <trkpt lat="59.0667319318" lon="29.9670347501"><ele>89.775</ele><time>2026-04-22T09:38:12.084Z</time><hdop>3.0</hdop><vdop>1.375</vdop><extensions><gom:speed>0.096</gom:speed><gom:rel_alt>159.795</gom:rel_alt></extensions></trkpt>
   <trkpt lat="59.0668224564" lon="29.9670712114"><ele>89.716</ele><time>2026-04-22T09:39:59.095Z</time><hdop>2.375</hdop><vdop>1.25</vdop><extensions><gom:speed>0.421</gom:speed><gom:rel_alt>160.242</gom:rel_alt></extensions></trkpt>
   <trkpt lat="59.0669013301" lon="29.9671614007"><ele>90.058</ele><time>2026-04-22T09:40:11.362Z</time><hdop>3.0</hdop><vdop>1.375</vdop><extensions><gom:speed>0.81</gom:speed><gom:rel_alt>160.355</gom:rel_alt></extensions></trkpt>
   <trkpt lat="59.0669876218" lon="29.9672466446"><ele>90.073</ele><time>2026-04-22T09:40:20.720Z</time><hdop>3.0</hdop><vdop>1.125</vdop><extensions><gom:speed>0.46</gom:speed><gom:rel_alt>160.091</gom:rel_alt></extensions></trkpt>
   <trkpt lat="59.0670789426" lon="29.9673028034"><ele>89.954</ele><time>2026-04-22T09:40:33.881Z</time><hdop>3.0</hdop><vdop>1.25</vdop><extensions><gom:speed>0.681</gom:speed><gom:rel_alt>160.509</gom:rel_alt></extensions></trkpt>
   <trkpt lat="59.0671704311" lon="29.9673748039"><ele>90.306</ele><time>2026-04-22T09:40:44.085Z</time><hdop>3.0</hdop><vdop>1.125</vdop><extensions><gom:speed>0.846</gom:speed><gom:rel_alt>159.959</gom:rel_alt></extensions></trkpt>
   <trkpt lat="59.0672514422" lon="29.9674691841"><ele>90.274</ele><time>2026-04-22T09:40:59.659Z</time><hdop>3.0</hdop><vdop>1.125</vdop><extensions><gom:speed>0.584</gom:speed><gom:rel_alt>160.456</gom:rel_alt></extensions></trkpt>
   <trkpt lat="59.0673430564" lon="29.9675568588"><ele>90.277</ele><time>2026-04-22T09:41:17.145Z</time><hdop>3.0</hdop><vdop>1.125</vdop><extensions><gom:speed>0.611</gom:speed><gom:rel_alt>160.207</gom:rel_alt></extensions></trkpt>
   <trkpt lat="59.0674368499" lon="29.967589213"><ele>89.564</ele><time>2026-04-22T09:41:35.085Z</time><hdop>3.0</hdop><vdop>1.25</vdop><extensions><gom:speed>0.286</gom:speed><gom:rel_alt>159.394</gom:rel_alt></extensions></trkpt>
   <trkpt lat="59.0675232254" lon="29.9676431924"><ele>90.615</ele><time>2026-04-22T09:41:58.823Z</time><hdop>3.0</hdop><vdop>1.125</vdop><extensions><gom:speed>0.257</gom:speed><gom:rel_alt>160.813</gom:rel_alt></extensions></trkpt>
   <trkpt lat="59.0676030211" lon="29.9675597925"><ele>90.598</ele><time>2026-04-22T09:42:34.336Z</time><hdop>3.0</hdop><vdop>1.25</vdop><extensions><gom:speed>0.078</gom:speed><gom:rel_alt>160.852</gom:rel_alt></extensions></trkpt>
   <trkpt lat="59.0676222576" lon="29.9677336332"><ele>90.459</ele><time>2026-04-22T09:44:42.973Z</time><hdop>1.5</hdop><vdop>1.25</vdop><extensions><gom:speed>0.498</gom:speed><gom:rel_alt>160.184</gom:rel_alt></extensions></trkpt>
   <trkpt lat="59.0676328188" lon="29.9679216393"><ele>90.948</ele><time>2026-04-22T09:45:00.974Z</time><hdop>1.5</hdop><vdop>1.125</vdop><extensions><gom:speed>0.0</gom:speed><gom:rel_alt>160.934</gom:rel_alt></extensions></trkpt>
   <trkpt lat="59.0676335313" lon="29.9681228049"><ele>90.908</ele><time>2026-04-22T09:45:26.972Z</time><hdop>1.5</hdop><vdop>1.125</vdop><extensions><gom:speed>0.418</gom:speed><gom:rel_alt>159.732</gom:rel_alt></extensions></trkpt>
   <trkpt lat="59.067659138" lon="29.9682982382"><ele>91.164</ele><time>2026-04-22T09:45:41.973Z</time><hdop>1.5</hdop><vdop>1.25</vdop><extensions><gom:speed>0.0</gom:speed><gom:rel_alt>161.359</gom:rel_alt></extensions></trkpt>
   <trkpt lat="59.0676807214" lon="29.9684694805"><ele>91.08</ele><time>2026-04-22T09:46:03.085Z</time><hdop>3.0</hdop><vdop>1.125</vdop><extensions><gom:speed>0.401</gom:speed><gom:rel_alt>160.768</gom:rel_alt></extensions></trkpt>
   <trkpt lat="59.0676963536" lon="29.9686519545"><ele>91.261</ele><time>2026-04-22T09:46:23.096Z</time><hdop>3.0</hdop><vdop>1.125</vdop><extensions><gom:speed>0.245</gom:speed><gom:rel_alt>161.88</gom:rel_alt></extensions></trkpt>
   <trkpt lat="59.0677303422" lon="29.9688254599"><ele>90.969</ele><time>2026-04-22T09:46:43.519Z</time><hdop>3.0</hdop><vdop>1.125</vdop><extensions><gom:speed>0.302</gom:speed><gom:rel_alt>159.867</gom:rel_alt></extensions></trkpt>
   <trkpt lat="59.0677344494" lon="29.9690071795"><ele>90.348</ele><time>2026-04-22T09:47:04.084Z</time><hdop>3.0</hdop><vdop>1.125</vdop><extensions><gom:speed>0.239</gom:speed><gom:rel_alt>160.765</gom:rel_alt></extensions></trkpt>
   <trkpt lat="59.0677328568" lon="29.9691863846"><ele>90.829</ele><time>2026-04-22T09:47:35.084Z</time><hdop>3.0</hdop><vdop>1.25</vdop><extensions><gom:speed>0.15</gom:speed><gom:rel_alt>159.933</gom:rel_alt></extensions></trkpt>
   <trkpt lat="59.0677444238" lon="29.9693666794"><ele>91.0</ele><time>2026-04-22T09:47:55.077Z</time><hdop>3.0</hdop><vdop>1.0</vdop><extensions><gom:speed>0.324</gom:speed><gom:rel_alt>160.696</gom:rel_alt></extensions></trkpt>
   <trkpt lat="59.067774934" lon="29.9695314676"><ele>90.51</ele><time>2026-04-22T09:48:14.085Z</time><hdop>3.0</hdop><vdop>1.125</vdop><extensions><gom:speed>0.217</gom:speed><gom:rel_alt>160.535</gom:rel_alt></extensions></trkpt>
   <trkpt lat="59.0677935418" lon="29.9697032128"><ele>90.169</ele><time>2026-04-22T09:49:01.641Z</time><hdop>3.0</hdop><vdop>1.125</vdop><extensions><gom:speed>0.133</gom:speed><gom:rel_alt>160.451</gom:rel_alt></extensions></trkpt>
   <trkpt lat="59.0678003311" lon="29.9698783946"><ele>90.402</ele><time>2026-04-22T09:49:20.259Z</time><hdop>3.0</hdop><vdop>1.125</vdop><extensions><gom:speed>0.062</gom:speed><gom:rel_alt>160.244</gom:rel_alt></extensions></trkpt>
   <trkpt lat="59.0678169273" lon="29.9700622935"><ele>90.914</ele><time>2026-04-22T09:49:40.198Z</time><hdop>3.0</hdop><vdop>1.125</vdop><extensions><gom:speed>0.185</gom:speed><gom:rel_alt>160.355</gom:rel_alt></extensions></trkpt>
   <trkpt lat="59.0678381335" lon="29.970243175"><ele>90.648</ele><time>2026-04-22T09:50:03.085Z</time><hdop>3.0</hdop><vdop>1.125</vdop><extensions><gom:speed>0.157</gom:speed><gom:rel_alt>160.303</gom:rel_alt></extensions></trkpt>
   <trkpt lat="59.0678463478" lon="29.970418692"><ele>90.503</ele><time>2026-04-22T09:50:29.972Z</time><hdop>1.625</hdop><vdop>1.125</vdop><extensions><gom:speed>0.108</gom:speed><gom:rel_alt>161.365</gom:rel_alt></extensions></trkpt>
   <trkpt lat="59.0678682245" lon="29.9705914431"><ele>91.284</ele><time>2026-04-22T09:52:06.973Z</time><hdop>1.5</hdop><vdop>1.0</vdop><extensions><gom:speed>0.0</gom:speed><gom:rel_alt>160.456</gom:rel_alt></extensions></trkpt>
   <trkpt lat="59.067881929" lon="29.9707732465"><ele>91.246</ele><time>2026-04-22T09:52:38.973Z</time><hdop>1.5</hdop><vdop>1.125</vdop><extensions><gom:speed>0.348</gom:speed><gom:rel_alt>160.503</gom:rel_alt></extensions></trkpt>
   <trkpt lat="59.0679052306" lon="29.9709465843"><ele>91.009</ele><time>2026-04-22T09:52:55.973Z</time><hdop>1.5</hdop><vdop>1.125</vdop><extensions><gom:speed>0.0</gom:speed><gom:rel_alt>161.5</gom:rel_alt></extensions></trkpt>
   <trkpt lat="59.0679212401" lon="29.9711191677"><ele>91.083</ele><time>2026-04-22T09:53:16.973Z</time><hdop>1.5</hdop><vdop>1.125</vdop><extensions><gom:speed>0.0</gom:speed><gom:rel_alt>161.542</gom:rel_alt></extensions></trkpt>
   <trkpt lat="59.0679343578" lon="29.9712949362"><ele>91.087</ele><time>2026-04-22T09:53:49.973Z</time><hdop>1.5</hdop><vdop>1.0</vdop><extensions><gom:speed>0.178</gom:speed><gom:rel_alt>161.008</gom:rel_alt></extensions></trkpt>
   <trkpt lat="59.0679576175" lon="29.9714838643"><ele>91.127</ele><time>2026-04-22T09:54:09.972Z</time><hdop>1.5</hdop><vdop>1.0</vdop><extensions><gom:speed>0.038</gom:speed><gom:rel_alt>161.227</gom:rel_alt></extensions></trkpt>
   <trkpt lat="59.0679696456" lon="29.9716596328"><ele>91.454</ele><time>2026-04-22T09:54:30.973Z</time><hdop>1.75</hdop><vdop>1.0</vdop><extensions><gom:speed>0.058</gom:speed><gom:rel_alt>161.053</gom:rel_alt></extensions></trkpt>
   <trkpt lat="59.0680133572" lon="29.9718209006"><ele>91.828</ele><time>2026-04-22T09:54:53.972Z</time><hdop>1.5</hdop><vdop>1.125</vdop><extensions><gom:speed>0.748</gom:speed><gom:rel_alt>161.523</gom:rel_alt></extensions></trkpt>
   <trkpt lat="59.0680290314" lon="29.9720035423"><ele>91.567</ele><time>2026-04-22T09:55:28.972Z</time><hdop>1.5</hdop><vdop>1.125</vdop><extensions><gom:speed>0.078</gom:speed><gom:rel_alt>161.737</gom:rel_alt></extensions></trkpt>
   <trkpt lat="59.068035234" lon="29.9721804843"><ele>92.13</ele><time>2026-04-22T09:56:51.973Z</time><hdop>1.5</hdop><vdop>1.125</vdop><extensions><gom:speed>0.478</gom:speed><gom:rel_alt>161.243</gom:rel_alt></extensions></trkpt>
   <trkpt lat="59.0680472201" lon="29.9723611143"><ele>91.967</ele><time>2026-04-22T09:57:13.441Z</time><hdop>3.0</hdop><vdop>1.0</vdop><extensions><gom:speed>0.581</gom:speed><gom:rel_alt>162.226</gom:rel_alt></extensions></trkpt>
   <trkpt lat="59.0680409337" lon="29.9725478631"><ele>92.064</ele><time>2026-04-22T09:57:34.977Z</time><hdop>3.0</hdop><vdop>1.0</vdop><extensions><gom:speed>0.205</gom:speed><gom:rel_alt>162.29</gom:rel_alt></extensions></trkpt>
   <trkpt lat="59.0680579489" lon="29.9727217876"><ele>92.71</ele><time>2026-04-22T09:57:55.155Z</time><hdop>3.0</hdop><vdop>1.0</vdop><extensions><gom:speed>0.237</gom:speed><gom:rel_alt>161.832</gom:rel_alt></extensions></trkpt>
   <trkpt lat="59.0680694321" lon="29.9729015794"><ele>92.514</ele><time>2026-04-22T09:58:17.569Z</time><hdop>3.0</hdop><vdop>1.125</vdop><extensions><gom:speed>0.274</gom:speed><gom:rel_alt>161.732</gom:rel_alt></extensions></trkpt>
   <trkpt lat="59.0680953322" lon="29.973073157"><ele>92.006</ele><time>2026-04-22T09:58:31.644Z</time><hdop>3.0</hdop><vdop>1.0</vdop><extensions><gom:speed>0.474</gom:speed><gom:rel_alt>162.741</gom:rel_alt></extensions></trkpt>
   <trkpt lat="59.0681119284" lon="29.9732459918"><ele>92.59</ele><time>2026-04-22T09:58:45.085Z</time><hdop>3.0</hdop><vdop>1.0</vdop><extensions><gom:speed>0.573</gom:speed><gom:rel_alt>162.596</gom:rel_alt></extensions></trkpt>
   <trkpt lat="59.0681252556" lon="29.973419581"><ele>92.932</ele><time>2026-04-22T09:59:00.948Z</time><hdop>3.0</hdop><vdop>1.0</vdop><extensions><gom:speed>0.458</gom:speed><gom:rel_alt>162.76</gom:rel_alt></extensions></trkpt>
   <trkpt lat="59.0681532512" lon="29.9735935055"><ele>92.776</ele><time>2026-04-22T09:59:15.084Z</time><hdop>3.0</hdop><vdop>1.125</vdop><extensions><gom:speed>0.618</gom:speed><gom:rel_alt>162.76</gom:rel_alt></extensions></trkpt>
   <trkpt lat="59.0681796542" lon="29.973778997"><ele>92.644</ele><time>2026-04-22T09:59:31.065Z</time><hdop>3.0</hdop><vdop>1.0</vdop><extensions><gom:speed>0.672</gom:speed><gom:rel_alt>162.538</gom:rel_alt></extensions></trkpt>
   <trkpt lat="59.0681827555" lon="29.9739566096"><ele>93.03</ele><time>2026-04-22T09:59:44.144Z</time><hdop>3.0</hdop><vdop>1.0</vdop><extensions><gom:speed>0.628</gom:speed><gom:rel_alt>162.755</gom:rel_alt></extensions></trkpt>
   <trkpt lat="59.0682081526" lon="29.9741255887"><ele>92.943</ele><time>2026-04-22T09:59:59.870Z</time><hdop>3.0</hdop><vdop>1.0</vdop><extensions><gom:speed>0.255</gom:speed><gom:rel_alt>162.929</gom:rel_alt></extensions></trkpt>
   <trkpt lat="59.0682127208" lon="29.9743090686"><ele>93.605</ele><time>2026-04-22T10:00:13.085Z</time><hdop>3.0</hdop><vdop>1.125</vdop><extensions><gom:speed>0.458</gom:speed><gom:rel_alt>163.394</gom:rel_alt></extensions></trkpt>
   <trkpt lat="59.0682684185" lon="29.9744613678"><ele>93.488</ele><time>2026-04-22T10:02:28.972Z</time><hdop>1.75</hdop><vdop>1.125</vdop><extensions><gom:speed>0.578</gom:speed><gom:rel_alt>163.838</gom:rel_alt></extensions></trkpt>
   <trkpt lat="59.068356638" lon="29.9744135909"><ele>93.623</ele><time>2026-04-22T10:02:45.688Z</time><hdop>3.0</hdop><vdop>1.0</vdop><extensions><gom:speed>0.436</gom:speed><gom:rel_alt>163.827</gom:rel_alt></extensions></trkpt>
   <trkpt lat="59.068447456" lon="29.9743540794"><ele>94.161</ele><time>2026-04-22T10:03:11.098Z</time><hdop>3.0</hdop><vdop>1.125</vdop><extensions><gom:speed>0.67</gom:speed><gom:rel_alt>164.599</gom:rel_alt></extensions></trkpt>
   <trkpt lat="59.0685364299" lon="29.9743058835"><ele>94.476</ele><time>2026-04-22T10:03:22.384Z</time><hdop>3.0</hdop><vdop>1.0</vdop><extensions><gom:speed>0.592</gom:speed><gom:rel_alt>164.485</gom:rel_alt></extensions></trkpt>
   <trkpt lat="59.0686274573" lon="29.974273697"><ele>94.564</ele><time>2026-04-22T10:03:37.085Z</time><hdop>3.0</hdop><vdop>1.125</vdop><extensions><gom:speed>0.537</gom:speed><gom:rel_alt>164.097</gom:rel_alt></extensions></trkpt>
   <trkpt lat="59.0687231368" lon="29.9742610403"><ele>94.177</ele><time>2026-04-22T10:03:51.155Z</time><hdop>3.0</hdop><vdop>1.0</vdop><extensions><gom:speed>0.641</gom:speed><gom:rel_alt>163.899</gom:rel_alt></extensions></trkpt>
   <trkpt lat="59.0688003341" lon="29.974168085"><ele>93.796</ele><time>2026-04-22T10:04:06.084Z</time><hdop>3.0</hdop><vdop>1.125</vdop><extensions><gom:speed>0.394</gom:speed><gom:rel_alt>163.883</gom:rel_alt></extensions></trkpt>
   <trkpt lat="59.0688824348" lon="29.9740830925"><ele>94.427</ele><time>2026-04-22T10:04:21.631Z</time><hdop>3.0</hdop><vdop>1.125</vdop><extensions><gom:speed>0.572</gom:speed><gom:rel_alt>164.504</gom:rel_alt></extensions></trkpt>
   <trkpt lat="59.0689556508" lon="29.9739784863"><ele>94.027</ele><time>2026-04-22T10:04:39.092Z</time><hdop>3.0</hdop><vdop>1.125</vdop><extensions><gom:speed>0.316</gom:speed><gom:rel_alt>164.388</gom:rel_alt></extensions></trkpt>
   <trkpt lat="59.0690162519" lon="29.9738380056"><ele>93.848</ele><time>2026-04-22T10:06:16.972Z</time><hdop>1.5</hdop><vdop>1.25</vdop><extensions><gom:speed>0.368</gom:speed><gom:rel_alt>163.698</gom:rel_alt></extensions></trkpt>
   <trkpt lat="59.0690114323" lon="29.9736503348"><ele>93.283</ele><time>2026-04-22T10:06:37.809Z</time><hdop>2.375</hdop><vdop>1.0</vdop><extensions><gom:speed>0.275</gom:speed><gom:rel_alt>164.718</gom:rel_alt></extensions></trkpt>
   <trkpt lat="59.0690114323" lon="29.973464508"><ele>92.919</ele><time>2026-04-22T10:06:57.084Z</time><hdop>3.0</hdop><vdop>1.0</vdop><extensions><gom:speed>0.132</gom:speed><gom:rel_alt>163.93</gom:rel_alt></extensions></trkpt>
   <trkpt lat="59.0689899327" lon="29.9732910864"><ele>94.165</ele><time>2026-04-22T10:07:23.603Z</time><hdop>3.0</hdop><vdop>1.0</vdop><extensions><gom:speed>0.12</gom:speed><gom:rel_alt>164.837</gom:rel_alt></extensions></trkpt>
   <trkpt lat="59.0689784495" lon="29.9731113784"><ele>93.987</ele><time>2026-04-22T10:07:41.644Z</time><hdop>3.0</hdop><vdop>1.0</vdop><extensions><gom:speed>0.252</gom:speed><gom:rel_alt>164.353</gom:rel_alt></extensions></trkpt>
   <trkpt lat="59.0689539325" lon="29.9729430698"><ele>93.463</ele><time>2026-04-22T10:08:01.626Z</time><hdop>3.0</hdop><vdop>1.0</vdop><extensions><gom:speed>0.1</gom:speed><gom:rel_alt>163.954</gom:rel_alt></extensions></trkpt>
   <trkpt lat="59.068939348" lon="29.9727684748"><ele>93.382</ele><time>2026-04-22T10:08:18.807Z</time><hdop>3.0</hdop><vdop>1.125</vdop><extensions><gom:speed>0.154</gom:speed><gom:rel_alt>165.347</gom:rel_alt></extensions></trkpt>
   <trkpt lat="59.0689386355" lon="29.972587258"><ele>93.155</ele><time>2026-04-22T10:08:37.069Z</time><hdop>3.0</hdop><vdop>1.0</vdop><extensions><gom:speed>0.207</gom:speed><gom:rel_alt>163.534</gom:rel_alt></extensions></trkpt>
   <trkpt lat="59.06888562" lon="29.972443676"><ele>93.019</ele><time>2026-04-22T10:08:59.449Z</time><hdop>3.0</hdop><vdop>1.0</vdop><extensions><gom:speed>0.28</gom:speed><gom:rel_alt>164.295</gom:rel_alt></extensions></trkpt>
   <trkpt lat="59.0688517571" lon="29.9722770438"><ele>92.827</ele><time>2026-04-22T10:09:17.084Z</time><hdop>3.0</hdop><vdop>1.0</vdop><extensions><gom:speed>0.115</gom:speed><gom:rel_alt>163.886</gom:rel_alt></extensions></trkpt>
   <trkpt lat="59.0688483205" lon="29.9721007724"><ele>92.58</ele><time>2026-04-22T10:09:31.549Z</time><hdop>3.0</hdop><vdop>1.0</vdop><extensions><gom:speed>0.315</gom:speed><gom:rel_alt>164.047</gom:rel_alt></extensions></trkpt>
   <trkpt lat="59.0688444229" lon="29.9719245009"><ele>93.587</ele><time>2026-04-22T10:09:51.084Z</time><hdop>3.0</hdop><vdop>1.125</vdop><extensions><gom:speed>0.045</gom:speed><gom:rel_alt>164.152</gom:rel_alt></extensions></trkpt>
   <trkpt lat="59.0688130327" lon="29.9717551027"><ele>92.361</ele><time>2026-04-22T10:11:31.885Z</time><hdop>3.0</hdop><vdop>1.0</vdop><extensions><gom:speed>0.36</gom:speed><gom:rel_alt>164.557</gom:rel_alt></extensions></trkpt>
   <trkpt lat="59.0688091351" lon="29.9715748079"><ele>92.193</ele><time>2026-04-22T10:11:55.287Z</time><hdop>3.0</hdop><vdop>1.0</vdop><extensions><gom:speed>0.279</gom:speed><gom:rel_alt>164.335</gom:rel_alt></extensions></trkpt>
   <trkpt lat="59.0688086322" lon="29.9713933397"><ele>92.044</ele><time>2026-04-22T10:12:12.100Z</time><hdop>3.0</hdop><vdop>1.0</vdop><extensions><gom:speed>0.174</gom:speed><gom:rel_alt>164.269</gom:rel_alt></extensions></trkpt>
   <trkpt lat="59.0688040221" lon="29.9712140508"><ele>92.411</ele><time>2026-04-22T10:12:29.972Z</time><hdop>1.375</hdop><vdop>1.0</vdop><extensions><gom:speed>0.538</gom:speed><gom:rel_alt>164.425</gom:rel_alt></extensions></trkpt>
   <trkpt lat="59.0687902339" lon="29.9710348457"><ele>92.691</ele><time>2026-04-22T10:12:49.586Z</time><hdop>3.0</hdop><vdop>1.125</vdop><extensions><gom:speed>0.193</gom:speed><gom:rel_alt>165.04</gom:rel_alt></extensions></trkpt>
   <trkpt lat="59.0687743502" lon="29.9708530423"><ele>91.996</ele><time>2026-04-22T10:13:09.784Z</time><hdop>3.0</hdop><vdop>1.0</vdop><extensions><gom:speed>0.288</gom:speed><gom:rel_alt>165.674</gom:rel_alt></extensions></trkpt>
   <trkpt lat="59.0687593466" lon="29.9706787825"><ele>92.551</ele><time>2026-04-22T10:13:29.084Z</time><hdop>3.0</hdop><vdop>1.0</vdop><extensions><gom:speed>0.17</gom:speed><gom:rel_alt>164.884</gom:rel_alt></extensions></trkpt>
   <trkpt lat="59.0687478215" lon="29.9704949674"><ele>92.48</ele><time>2026-04-22T10:13:45.968Z</time><hdop>3.0</hdop><vdop>1.0</vdop><extensions><gom:speed>0.19</gom:speed><gom:rel_alt>165.164</gom:rel_alt></extensions></trkpt>
   <trkpt lat="59.0687383499" lon="29.9703095597"><ele>92.495</ele><time>2026-04-22T10:14:03.085Z</time><hdop>3.0</hdop><vdop>1.0</vdop><extensions><gom:speed>0.324</gom:speed><gom:rel_alt>164.929</gom:rel_alt></extensions></trkpt>
   <trkpt lat="59.0686941354" lon="29.9701485433"><ele>92.372</ele><time>2026-04-22T10:14:30.829Z</time><hdop>3.0</hdop><vdop>1.0</vdop><extensions><gom:speed>0.244</gom:speed><gom:rel_alt>164.34</gom:rel_alt></extensions></trkpt>
   <trkpt lat="59.0686783355" lon="29.969967578"><ele>92.33</ele><time>2026-04-22T10:15:05.085Z</time><hdop>3.0</hdop><vdop>1.0</vdop><extensions><gom:speed>0.03</gom:speed><gom:rel_alt>164.979</gom:rel_alt></extensions></trkpt>
   <trkpt lat="59.0686779164" lon="29.969788792"><ele>92.033</ele><time>2026-04-22T10:16:28.970Z</time><hdop>1.5</hdop><vdop>1.0</vdop><extensions><gom:speed>0.288</gom:speed><gom:rel_alt>163.748</gom:rel_alt></extensions></trkpt>
   <trkpt lat="59.0686531479" lon="29.9695953377"><ele>92.628</ele><time>2026-04-22T10:17:41.971Z</time><hdop>1.5</hdop><vdop>1.0</vdop><extensions><gom:speed>0.078</gom:speed><gom:rel_alt>164.366</gom:rel_alt></extensions></trkpt>
   <trkpt lat="59.0686655531" lon="29.9694201559"><ele>92.491</ele><time>2026-04-22T10:17:56.970Z</time><hdop>1.5</hdop><vdop>1.0</vdop><extensions><gom:speed>0.0</gom:speed><gom:rel_alt>165.307</gom:rel_alt></extensions></trkpt>
   <trkpt lat="59.0686593505" lon="29.969238101"><ele>92.672</ele><time>2026-04-22T10:18:18.154Z</time><hdop>3.0</hdop><vdop>1.0</vdop><extensions><gom:speed>0.131</gom:speed><gom:rel_alt>164.863</gom:rel_alt></extensions></trkpt>
   <trkpt lat="59.0686278345" lon="29.969066272"><ele>92.861</ele><time>2026-04-22T10:19:00.844Z</time><hdop>3.0</hdop><vdop>1.0</vdop><extensions><gom:speed>0.114</gom:speed><gom:rel_alt>164.913</gom:rel_alt></extensions></trkpt>
   <trkpt lat="59.0686226377" lon="29.9688915931"><ele>92.69</ele><time>2026-04-22T10:19:18.085Z</time><hdop>3.0</hdop><vdop>1.0</vdop><extensions><gom:speed>0.228</gom:speed><gom:rel_alt>165.587</gom:rel_alt></extensions></trkpt>
   <trkpt lat="59.0685988331" lon="29.9687143997"><ele>92.909</ele><time>2026-04-22T10:19:46.085Z</time><hdop>3.0</hdop><vdop>1.0</vdop><extensions><gom:speed>0.042</gom:speed><gom:rel_alt>165.788</gom:rel_alt></extensions></trkpt>
   <trkpt lat="59.0685619528" lon="29.9685546406"><ele>93.118</ele><time>2026-04-22T10:20:08.369Z</time><hdop>3.0</hdop><vdop>1.0</vdop><extensions><gom:speed>0.408</gom:speed><gom:rel_alt>166.353</gom:rel_alt></extensions></trkpt>
   <trkpt lat="59.0685388187" lon="29.9683828954"><ele>92.67</ele><time>2026-04-22T10:20:33.108Z</time><hdop>3.0</hdop><vdop>1.0</vdop><extensions><gom:speed>0.166</gom:speed><gom:rel_alt>165.561</gom:rel_alt></extensions></trkpt>
   <trkpt lat="59.068531736" lon="29.968203355"><ele>92.745</ele><time>2026-04-22T10:20:49.028Z</time><hdop>3.0</hdop><vdop>1.0</vdop><extensions><gom:speed>0.387</gom:speed><gom:rel_alt>166.274</gom:rel_alt></extensions></trkpt>
   <trkpt lat="59.0685153494" lon="29.9680291791"><ele>92.951</ele><time>2026-04-22T10:21:07.827Z</time><hdop>3.0</hdop><vdop>1.0</vdop><extensions><gom:speed>0.117</gom:speed><gom:rel_alt>165.598</gom:rel_alt></extensions></trkpt>
   <trkpt lat="59.0684962386" lon="29.9678515666"><ele>92.791</ele><time>2026-04-22T10:21:24.767Z</time><hdop>3.0</hdop><vdop>1.0</vdop><extensions><gom:speed>0.255</gom:speed><gom:rel_alt>166.005</gom:rel_alt></extensions></trkpt>
   <trkpt lat="59.0685689516" lon="29.9677484691"><ele>93.309</ele><time>2026-04-22T10:23:49.057Z</time><hdop>3.0</hdop><vdop>1.0</vdop><extensions><gom:speed>0.195</gom:speed><gom:rel_alt>166.279</gom:rel_alt></extensions></trkpt>
   <trkpt lat="59.068638731" lon="29.9678729404"><ele>92.305</ele><time>2026-04-22T10:24:04.958Z</time><hdop>3.0</hdop><vdop>1.0</vdop><extensions><gom:speed>0.21</gom:speed><gom:rel_alt>165.701</gom:rel_alt></extensions></trkpt>
   <trkpt lat="59.0687317282" lon="29.967924992"><ele>92.918</ele><time>2026-04-22T10:24:22.913Z</time><hdop>3.0</hdop><vdop>1.0</vdop><extensions><gom:speed>0.257</gom:speed><gom:rel_alt>166.142</gom:rel_alt></extensions></trkpt>
   <trkpt lat="59.0688223366" lon="29.9679770436"><ele>92.584</ele><time>2026-04-22T10:24:41.677Z</time><hdop>3.0</hdop><vdop>1.0</vdop><extensions><gom:speed>0.257</gom:speed><gom:rel_alt>165.838</gom:rel_alt></extensions></trkpt>
   <trkpt lat="59.0689130288" lon="29.9680238147"><ele>93.139</ele><time>2026-04-22T10:24:54.520Z</time><hdop>3.0</hdop><vdop>1.0</vdop><extensions><gom:speed>0.497</gom:speed><gom:rel_alt>166.887</gom:rel_alt></extensions></trkpt>
   <trkpt lat="59.0690029247" lon="29.9680183664"><ele>93.188</ele><time>2026-04-22T10:25:16.780Z</time><hdop>3.0</hdop><vdop>1.0</vdop><extensions><gom:speed>0.286</gom:speed><gom:rel_alt>166.676</gom:rel_alt></extensions></trkpt>
   <trkpt lat="59.0690966344" lon="29.9680078052"><ele>92.596</ele><time>2026-04-22T10:25:35.091Z</time><hdop>3.0</hdop><vdop>1.0</vdop><extensions><gom:speed>0.21</gom:speed><gom:rel_alt>166.499</gom:rel_alt></extensions></trkpt>
   <trkpt lat="59.069188039" lon="29.9680492957"><ele>93.072</ele><time>2026-04-22T10:25:52.974Z</time><hdop>3.0</hdop><vdop>1.0</vdop><extensions><gom:speed>0.212</gom:speed><gom:rel_alt>166.811</gom:rel_alt></extensions></trkpt>
   <trkpt lat="59.0692734506" lon="29.9681114894"><ele>92.431</ele><time>2026-04-22T10:26:06.895Z</time><hdop>3.0</hdop><vdop>1.0</vdop><extensions><gom:speed>0.368</gom:speed><gom:rel_alt>165.643</gom:rel_alt></extensions></trkpt>
   <trkpt lat="59.0693629274" lon="29.968160775"><ele>93.086</ele><time>2026-04-22T10:26:23.753Z</time><hdop>3.0</hdop><vdop>1.0</vdop><extensions><gom:speed>0.215</gom:speed><gom:rel_alt>167.088</gom:rel_alt></extensions></trkpt>
   <trkpt lat="59.0694494287" lon="29.9681086395"><ele>93.221</ele><time>2026-04-22T10:26:49.775Z</time><hdop>3.0</hdop><vdop>1.0</vdop><extensions><gom:speed>0.268</gom:speed><gom:rel_alt>166.393</gom:rel_alt></extensions></trkpt>
   <trkpt lat="59.0695151428" lon="29.9679855094"><ele>92.737</ele><time>2026-04-22T10:27:05.084Z</time><hdop>3.0</hdop><vdop>1.0</vdop><extensions><gom:speed>0.076</gom:speed><gom:rel_alt>165.072</gom:rel_alt></extensions></trkpt>
   <trkpt lat="59.0696079305" lon="29.9680037819"><ele>92.362</ele><time>2026-04-22T10:27:33.816Z</time><hdop>3.0</hdop><vdop>1.0</vdop><extensions><gom:speed>0.204</gom:speed><gom:rel_alt>166.269</gom:rel_alt></extensions></trkpt>
   <trkpt lat="59.0696985388" lon="29.9680007644"><ele>92.832</ele><time>2026-04-22T10:27:49.123Z</time><hdop>3.0</hdop><vdop>1.0</vdop><extensions><gom:speed>0.159</gom:speed><gom:rel_alt>166.351</gom:rel_alt></extensions></trkpt>
   <trkpt lat="59.0697873451" lon="29.9679390736"><ele>92.744</ele><time>2026-04-22T10:28:09.085Z</time><hdop>3.0</hdop><vdop>1.0</vdop><extensions><gom:speed>0.05</gom:speed><gom:rel_alt>166.134</gom:rel_alt></extensions></trkpt>
   <trkpt lat="59.0698770315" lon="29.9679166101"><ele>92.809</ele><time>2026-04-22T10:29:37.084Z</time><hdop>3.0</hdop><vdop>1.0</vdop><extensions><gom:speed>0.334</gom:speed><gom:rel_alt>165.976</gom:rel_alt></extensions></trkpt>
   <trkpt lat="59.0699733395" lon="29.9679359723"><ele>92.44</ele><time>2026-04-22T10:29:56.085Z</time><hdop>3.0</hdop><vdop>1.125</vdop><extensions><gom:speed>0.299</gom:speed><gom:rel_alt>166.158</gom:rel_alt></extensions></trkpt>
   <trkpt lat="59.0700600503" lon="29.967890291"><ele>92.524</ele><time>2026-04-22T10:30:16.094Z</time><hdop>3.0</hdop><vdop>1.0</vdop><extensions><gom:speed>0.027</gom:speed><gom:rel_alt>166.068</gom:rel_alt></extensions></trkpt>
   <trkpt lat="59.0701536343" lon="29.9678852618"><ele>92.446</ele><time>2026-04-22T10:30:52.657Z</time><hdop>3.0</hdop><vdop>1.125</vdop><extensions><gom:speed>0.239</gom:speed><gom:rel_alt>165.677</gom:rel_alt></extensions></trkpt>
   <trkpt lat="59.070248224" lon="29.9678793945"><ele>92.358</ele><time>2026-04-22T10:31:13.334Z</time><hdop>3.0</hdop><vdop>1.0</vdop><extensions><gom:speed>0.161</gom:speed><gom:rel_alt>165.629</gom:rel_alt></extensions></trkpt>
   <trkpt lat="59.0703412213" lon="29.9679311946"><ele>92.19</ele><time>2026-04-22T10:31:36.835Z</time><hdop>3.0</hdop><vdop>1.125</vdop><extensions><gom:speed>0.263</gom:speed><gom:rel_alt>163.896</gom:rel_alt></extensions></trkpt>
   <trkpt lat="59.0704326259" lon="29.9679920473"><ele>92.153</ele><time>2026-04-22T10:31:55.372Z</time><hdop>3.0</hdop><vdop>1.125</vdop><extensions><gom:speed>0.374</gom:speed><gom:rel_alt>165.053</gom:rel_alt></extensions></trkpt>
   <trkpt lat="59.0705077278" lon="29.9681042809"><ele>92.62</ele><time>2026-04-22T10:32:12.478Z</time><hdop>3.0</hdop><vdop>1.0</vdop><extensions><gom:speed>0.207</gom:speed><gom:rel_alt>165.511</gom:rel_alt></extensions></trkpt>
   <trkpt lat="59.0706017308" lon="29.9681648821"><ele>92.579</ele><time>2026-04-22T10:32:31.085Z</time><hdop>3.0</hdop><vdop>1.125</vdop><extensions><gom:speed>0.509</gom:speed><gom:rel_alt>165.928</gom:rel_alt></extensions></trkpt>
   <trkpt lat="59.0706917524" lon="29.9681971524"><ele>92.277</ele><time>2026-04-22T10:32:55.913Z</time><hdop>3.0</hdop><vdop>1.125</vdop><extensions><gom:speed>0.19</gom:speed><gom:rel_alt>165.54</gom:rel_alt></extensions></trkpt>
   <trkpt lat="59.0707821513" lon="29.9681842443"><ele>92.153</ele><time>2026-04-22T10:33:16.085Z</time><hdop>3.0</hdop><vdop>1.125</vdop><extensions><gom:speed>0.071</gom:speed><gom:rel_alt>164.612</gom:rel_alt></extensions></trkpt>
   <trkpt lat="59.0708734302" lon="29.9681901954"><ele>92.125</ele><time>2026-04-22T10:33:33.675Z</time><hdop>3.0</hdop><vdop>1.125</vdop><extensions><gom:speed>0.187</gom:speed><gom:rel_alt>164.979</gom:rel_alt></extensions></trkpt>
   <trkpt lat="59.0709610211" lon="29.9682502099"><ele>92.379</ele><time>2026-04-22T10:33:51.473Z</time><hdop>3.0</hdop><vdop>1.375</vdop><extensions><gom:speed>0.148</gom:speed><gom:rel_alt>165.672</gom:rel_alt></extensions></trkpt>
   <trkpt lat="59.0710513361" lon="29.9682192807"><ele>92.215</ele><time>2026-04-22T10:34:20.085Z</time><hdop>3.0</hdop><vdop>1.25</vdop><extensions><gom:speed>0.018</gom:speed><gom:rel_alt>164.847</gom:rel_alt></extensions></trkpt>
   <trkpt lat="59.0711285334" lon="29.9683148343"><ele>93.141</ele><time>2026-04-22T10:36:47.128Z</time><hdop>3.0</hdop><vdop>1.0</vdop><extensions><gom:speed>0.226</gom:speed><gom:rel_alt>166.179</gom:rel_alt></extensions></trkpt>
   <trkpt lat="59.0711909367" lon="29.9684458435"><ele>93.013</ele><time>2026-04-22T10:37:01.814Z</time><hdop>3.0</hdop><vdop>1.0</vdop><extensions><gom:speed>0.235</gom:speed><gom:rel_alt>166.726</gom:rel_alt></extensions></trkpt>
   <trkpt lat="59.0712607579" lon="29.9683201149"><ele>93.433</ele><time>2026-04-22T10:37:51.853Z</time><hdop>3.0</hdop><vdop>1.125</vdop><extensions><gom:speed>0.114</gom:speed><gom:rel_alt>166.528</gom:rel_alt></extensions></trkpt>
   <trkpt lat="59.0713076547" lon="29.9684706539"><ele>93.17</ele><time>2026-04-22T10:38:24.088Z</time><hdop>3.0</hdop><vdop>1.125</vdop><extensions><gom:speed>0.253</gom:speed><gom:rel_alt>165.862</gom:rel_alt></extensions></trkpt>
   <trkpt lat="59.0713659508" lon="29.9686040938"><ele>93.262</ele><time>2026-04-22T10:39:15.979Z</time><hdop>3.0</hdop><vdop>1.125</vdop><extensions><gom:speed>0.097</gom:speed><gom:rel_alt>164.858</gom:rel_alt></extensions></trkpt>
   <trkpt lat="59.0714560563" lon="29.9685859889"><ele>92.485</ele><time>2026-04-22T10:39:41.793Z</time><hdop>3.0</hdop><vdop>1.125</vdop><extensions><gom:speed>0.175</gom:speed><gom:rel_alt>165.156</gom:rel_alt></extensions></trkpt>
   <trkpt lat="59.0715018215" lon="29.9687446583"><ele>93.493</ele><time>2026-04-22T10:40:00.085Z</time><hdop>3.0</hdop><vdop>1.25</vdop><extensions><gom:speed>0.295</gom:speed><gom:rel_alt>166.573</gom:rel_alt></extensions></trkpt>
   <trkpt lat="59.0715413422" lon="29.9689136375"><ele>93.704</ele><time>2026-04-22T10:40:25.118Z</time><hdop>3.0</hdop><vdop>1.125</vdop><extensions><gom:speed>0.183</gom:speed><gom:rel_alt>166.361</gom:rel_alt></extensions></trkpt>
   <trkpt lat="59.0716085231" lon="29.9690490891"><ele>93.719</ele><time>2026-04-22T10:40:51.085Z</time><hdop>3.0</hdop><vdop>1.25</vdop><extensions><gom:speed>0.129</gom:speed><gom:rel_alt>166.493</gom:rel_alt></extensions></trkpt>
   <trkpt lat="59.0716866424" lon="29.9691497557"><ele>92.913</ele><time>2026-04-22T10:41:12.122Z</time><hdop>3.0</hdop><vdop>1.0</vdop><extensions><gom:speed>0.06</gom:speed><gom:rel_alt>166.615</gom:rel_alt></extensions></trkpt>
   <trkpt lat="59.0716976227" lon="29.969325189"><ele>93.321</ele><time>2026-04-22T10:41:30.737Z</time><hdop>3.0</hdop><vdop>1.0</vdop><extensions><gom:speed>0.382</gom:speed><gom:rel_alt>165.735</gom:rel_alt></extensions></trkpt>
   <trkpt lat="59.071731318" lon="29.9694922403"><ele>93.159</ele><time>2026-04-22T10:41:58.117Z</time><hdop>3.0</hdop><vdop>1.25</vdop><extensions><gom:speed>0.178</gom:speed><gom:rel_alt>165.999</gom:rel_alt></extensions></trkpt>
   <trkpt lat="59.0717661448" lon="29.9696574476"><ele>94.077</ele><time>2026-04-22T10:42:20.085Z</time><hdop>3.0</hdop><vdop>1.125</vdop><extensions><gom:speed>0.083</gom:speed><gom:rel_alt>166.322</gom:rel_alt></extensions></trkpt>
   <trkpt lat="59.0718524365" lon="29.9697118461"><ele>93.461</ele><time>2026-04-22T10:42:42.109Z</time><hdop>3.0</hdop><vdop>1.25</vdop><extensions><gom:speed>0.113</gom:speed><gom:rel_alt>166.319</gom:rel_alt></extensions></trkpt>
   <trkpt lat="59.0719274545" lon="29.9698136863"><ele>93.142</ele><time>2026-04-22T10:43:03.085Z</time><hdop>3.0</hdop><vdop>1.25</vdop><extensions><gom:speed>0.428</gom:speed><gom:rel_alt>166.124</gom:rel_alt></extensions></trkpt>
   <trkpt lat="59.0720210385" lon="29.9698426038"><ele>94.025</ele><time>2026-04-22T10:43:32.096Z</time><hdop>3.0</hdop><vdop>1.125</vdop><extensions><gom:speed>0.307</gom:speed><gom:rel_alt>166.821</gom:rel_alt></extensions></trkpt>
   <trkpt lat="59.0721121498" lon="29.9698488064"><ele>94.662</ele><time>2026-04-22T10:44:10.085Z</time><hdop>3.0</hdop><vdop>1.25</vdop><extensions><gom:speed>0.18</gom:speed><gom:rel_alt>166.507</gom:rel_alt></extensions></trkpt>
   <trkpt lat="59.072169943" lon="29.9699868564"><ele>94.593</ele><time>2026-04-22T10:44:33.084Z</time><hdop>3.0</hdop><vdop>1.0</vdop><extensions><gom:speed>0.368</gom:speed><gom:rel_alt>167.894</gom:rel_alt></extensions></trkpt>
   <trkpt lat="59.0722423207" lon="29.9700955697"><ele>93.996</ele><time>2026-04-22T10:45:00.420Z</time><hdop>3.0</hdop><vdop>1.25</vdop><extensions><gom:speed>0.14</gom:speed><gom:rel_alt>167.31</gom:rel_alt></extensions></trkpt>
   <trkpt lat="59.0723352341" lon="29.9700489663"><ele>94.892</ele><time>2026-04-22T10:45:17.640Z</time><hdop>3.0</hdop><vdop>1.375</vdop><extensions><gom:speed>0.186</gom:speed><gom:rel_alt>167.257</gom:rel_alt></extensions></trkpt>
   <trkpt lat="59.0722443324" lon="29.9701050412"><ele>94.145</ele><time>2026-04-22T10:49:29.041Z</time><hdop>3.0</hdop><vdop>1.5</vdop><extensions><gom:speed>0.526</gom:speed><gom:rel_alt>167.664</gom:rel_alt></extensions></trkpt>
   <trkpt lat="59.0721554423" lon="29.9701361381"><ele>94.732</ele><time>2026-04-22T10:49:46.118Z</time><hdop>3.0</hdop><vdop>1.625</vdop><extensions><gom:speed>0.299</gom:speed><gom:rel_alt>167.849</gom:rel_alt></extensions></trkpt>
   <trkpt lat="59.072066636" lon="29.9701909557"><ele>94.884</ele><time>2026-04-22T10:50:08.698Z</time><hdop>3.0</hdop><vdop>1.5</vdop><extensions><gom:speed>0.127</gom:speed><gom:rel_alt>168.425</gom:rel_alt></extensions></trkpt>
   <trkpt lat="59.0719779555" lon="29.9702442646"><ele>95.104</ele><time>2026-04-22T10:50:49.085Z</time><hdop>3.0</hdop><vdop>1.375</vdop><extensions><gom:speed>0.215</gom:speed><gom:rel_alt>168.306</gom:rel_alt></extensions></trkpt>
   <trkpt lat="59.0718872214" lon="29.9702670634"><ele>94.67</ele><time>2026-04-22T10:51:06.042Z</time><hdop>3.0</hdop><vdop>1.5</vdop><extensions><gom:speed>0.241</gom:speed><gom:rel_alt>167.796</gom:rel_alt></extensions></trkpt>
   <trkpt lat="59.0717922544" lon="29.970298747"><ele>94.737</ele><time>2026-04-22T10:51:23.036Z</time><hdop>3.0</hdop><vdop>1.5</vdop><extensions><gom:speed>0.211</gom:speed><gom:rel_alt>167.532</gom:rel_alt></extensions></trkpt>
   <trkpt lat="59.0717037415" lon="29.9703441769"><ele>94.612</ele><time>2026-04-22T10:51:39.939Z</time><hdop>3.0</hdop><vdop>1.5</vdop><extensions><gom:speed>0.197</gom:speed><gom:rel_alt>167.994</gom:rel_alt></extensions></trkpt>
   <trkpt lat="59.0716433499" lon="29.9704816401"><ele>94.951</ele><time>2026-04-22T10:54:00.580Z</time><hdop>3.0</hdop><vdop>1.375</vdop><extensions><gom:speed>0.158</gom:speed><gom:rel_alt>168.129</gom:rel_alt></extensions></trkpt>
   <trkpt lat="59.0715625484" lon="29.970562777"><ele>95.4</ele><time>2026-04-22T10:54:28.099Z</time><hdop>3.0</hdop><vdop>1.375</vdop><extensions><gom:speed>0.116</gom:speed><gom:rel_alt>168.562</gom:rel_alt></extensions></trkpt>
   <trkpt lat="59.071470557" lon="29.9706103024"><ele>94.931</ele><time>2026-04-22T10:54:50.148Z</time><hdop>3.0</hdop><vdop>1.25</vdop><extensions><gom:speed>0.207</gom:speed><gom:rel_alt>168.074</gom:rel_alt></extensions></trkpt>
   <trkpt lat="59.071378356" lon="29.970657241"><ele>95.358</ele><time>2026-04-22T10:55:12.079Z</time><hdop>3.0</hdop><vdop>1.375</vdop><extensions><gom:speed>0.181</gom:speed><gom:rel_alt>168.924</gom:rel_alt></extensions></trkpt>
   <trkpt lat="59.0712934474" lon="29.9707237095"><ele>94.504</ele><time>2026-04-22T10:55:32.084Z</time><hdop>3.0</hdop><vdop>1.25</vdop><extensions><gom:speed>0.092</gom:speed><gom:rel_alt>168.11</gom:rel_alt></extensions></trkpt>
   <trkpt lat="59.0712056469" lon="29.9707700614"><ele>94.679</ele><time>2026-04-22T10:56:49.554Z</time><hdop>3.0</hdop><vdop>1.25</vdop><extensions><gom:speed>0.144</gom:speed><gom:rel_alt>167.574</gom:rel_alt></extensions></trkpt>
   <trkpt lat="59.0711112248" lon="29.970771654"><ele>94.371</ele><time>2026-04-22T10:57:08.084Z</time><hdop>3.0</hdop><vdop>1.125</vdop><extensions><gom:speed>0.139</gom:speed><gom:rel_alt>168.092</gom:rel_alt></extensions></trkpt>
   <trkpt lat="59.0710207421" lon="29.9708346021"><ele>94.492</ele><time>2026-04-22T10:57:29.085Z</time><hdop>3.0</hdop><vdop>1.375</vdop><extensions><gom:speed>0.2</gom:speed><gom:rel_alt>168.573</gom:rel_alt></extensions></trkpt>
   <trkpt lat="59.0709312234" lon="29.9708135635"><ele>95.534</ele><time>2026-04-22T10:57:44.076Z</time><hdop>3.0</hdop><vdop>1.25</vdop><extensions><gom:speed>0.22</gom:speed><gom:rel_alt>169.152</gom:rel_alt></extensions></trkpt>
   <trkpt lat="59.0708557444" lon="29.9709197622"><ele>94.986</ele><time>2026-04-22T10:58:02.041Z</time><hdop>3.0</hdop><vdop>1.25</vdop><extensions><gom:speed>0.203</gom:speed><gom:rel_alt>169.278</gom:rel_alt></extensions></trkpt>
   <trkpt lat="59.0707824446" lon="29.9710223567"><ele>95.133</ele><time>2026-04-22T10:58:17.084Z</time><hdop>3.0</hdop><vdop>1.25</vdop><extensions><gom:speed>0.248</gom:speed><gom:rel_alt>169.183</gom:rel_alt></extensions></trkpt>
   <trkpt lat="59.0706999248" lon="29.9710982129"><ele>94.546</ele><time>2026-04-22T10:58:41.085Z</time><hdop>3.0</hdop><vdop>1.25</vdop><extensions><gom:speed>0.185</gom:speed><gom:rel_alt>169.659</gom:rel_alt></extensions></trkpt>
   <trkpt lat="59.0706209254" lon="29.9711873964"><ele>94.988</ele><time>2026-04-22T10:58:58.084Z</time><hdop>3.0</hdop><vdop>1.125</vdop><extensions><gom:speed>0.261</gom:speed><gom:rel_alt>169.273</gom:rel_alt></extensions></trkpt>
   <trkpt lat="59.0705306523" lon="29.9711433914"><ele>95.036</ele><time>2026-04-22T10:59:26.699Z</time><hdop>3.0</hdop><vdop>1.25</vdop><extensions><gom:speed>0.099</gom:speed><gom:rel_alt>169.08</gom:rel_alt></extensions></trkpt>
   <trkpt lat="59.0704397505" lon="29.9711420503"><ele>95.018</ele><time>2026-04-22T10:59:59.533Z</time><hdop>3.0</hdop><vdop>1.25</vdop><extensions><gom:speed>0.112</gom:speed><gom:rel_alt>169.411</gom:rel_alt></extensions></trkpt>
   <trkpt lat="59.0703489326" lon="29.9711325787"><ele>94.445</ele><time>2026-04-22T11:00:29.033Z</time><hdop>3.0</hdop><vdop>1.25</vdop><extensions><gom:speed>0.142</gom:speed><gom:rel_alt>170.029</gom:rel_alt></extensions></trkpt>
   <trkpt lat="59.070255642" lon="29.9711476662"><ele>94.323</ele><time>2026-04-22T11:01:00.893Z</time><hdop>3.0</hdop><vdop>1.125</vdop><extensions><gom:speed>0.247</gom:speed><gom:rel_alt>169.371</gom:rel_alt></extensions></trkpt>
   <trkpt lat="59.0701635249" lon="29.9711485882"><ele>94.271</ele><time>2026-04-22T11:01:28.755Z</time><hdop>3.0</hdop><vdop>1.0</vdop><extensions><gom:speed>0.268</gom:speed><gom:rel_alt>169.561</gom:rel_alt></extensions></trkpt>
   <trkpt lat="59.0700750539" lon="29.9712018133"><ele>94.141</ele><time>2026-04-22T11:01:56.140Z</time><hdop>3.0</hdop><vdop>1.125</vdop><extensions><gom:speed>0.084</gom:speed><gom:rel_alt>169.765</gom:rel_alt></extensions></trkpt>
   <trkpt lat="59.0699839426" lon="29.9712046631"><ele>94.088</ele><time>2026-04-22T11:02:15.084Z</time><hdop>3.0</hdop><vdop>1.125</vdop><extensions><gom:speed>0.331</gom:speed><gom:rel_alt>169.358</gom:rel_alt></extensions></trkpt>
   <trkpt lat="59.0698953459" lon="29.9711513542"><ele>94.176</ele><time>2026-04-22T11:02:58.036Z</time><hdop>3.0</hdop><vdop>1.125</vdop><extensions><gom:speed>0.097</gom:speed><gom:rel_alt>170.594</gom:rel_alt></extensions></trkpt>
   <trkpt lat="59.0698635366" lon="29.9713192437"><ele>95.933</ele><time>2026-04-22T11:19:01.660Z</time><hdop>3.0</hdop><vdop>1.75</vdop><extensions><gom:speed>0.116</gom:speed><gom:rel_alt>173.387</gom:rel_alt></extensions></trkpt>
   <trkpt lat="59.0698536459" lon="29.9714933358"><ele>95.362</ele><time>2026-04-22T11:19:21.937Z</time><hdop>3.0</hdop><vdop>1.75</vdop><extensions><gom:speed>0.223</gom:speed><gom:rel_alt>172.589</gom:rel_alt></extensions></trkpt>
   <trkpt lat="59.0698745169" lon="29.9716712837"><ele>95.681</ele><time>2026-04-22T11:19:39.876Z</time><hdop>3.0</hdop><vdop>1.5</vdop><extensions><gom:speed>0.383</gom:speed><gom:rel_alt>173.136</gom:rel_alt></extensions></trkpt>
   <trkpt lat="59.0698815577" lon="29.9718457111"><ele>95.832</ele><time>2026-04-22T11:19:53.920Z</time><hdop>3.0</hdop><vdop>2.0</vdop><extensions><gom:speed>0.395</gom:speed><gom:rel_alt>172.864</gom:rel_alt></extensions></trkpt>
   <trkpt lat="59.0699066196" lon="29.9720191326"><ele>96.142</ele><time>2026-04-22T11:20:11.085Z</time><hdop>3.0</hdop><vdop>1.75</vdop><extensions><gom:speed>0.349</gom:speed><gom:rel_alt>173.482</gom:rel_alt></extensions></trkpt>
   <trkpt lat="59.0699148338" lon="29.9721938953"><ele>96.231</ele><time>2026-04-22T11:20:30.085Z</time><hdop>3.0</hdop><vdop>1.875</vdop><extensions><gom:speed>0.22</gom:speed><gom:rel_alt>169.503</gom:rel_alt></extensions></trkpt>
   <trkpt lat="59.069922629" lon="29.9723751121"><ele>96.162</ele><time>2026-04-22T11:20:49.740Z</time><hdop>3.0</hdop><vdop>1.875</vdop><extensions><gom:speed>0.306</gom:speed><gom:rel_alt>172.962</gom:rel_alt></extensions></trkpt>
   <trkpt lat="59.0699483195" lon="29.972563202"><ele>94.5</ele><time>2026-04-22T11:21:05.917Z</time><hdop>3.0</hdop><vdop>1.75</vdop><extensions><gom:speed>0.402</gom:speed><gom:rel_alt>173.081</gom:rel_alt></extensions></trkpt>
   <trkpt lat="59.0699511275" lon="29.9727386352"><ele>95.739</ele><time>2026-04-22T11:21:23.085Z</time><hdop>3.0</hdop><vdop>1.875</vdop><extensions><gom:speed>0.231</gom:speed><gom:rel_alt>173.382</gom:rel_alt></extensions></trkpt>
   <trkpt lat="59.0699695258" lon="29.9729150743"><ele>96.015</ele><time>2026-04-22T11:21:40.084Z</time><hdop>3.0</hdop><vdop>1.875</vdop><extensions><gom:speed>0.149</gom:speed><gom:rel_alt>173.913</gom:rel_alt></extensions></trkpt>
   <trkpt lat="59.0699729204" lon="29.973092603"><ele>96.377</ele><time>2026-04-22T11:21:56.059Z</time><hdop>3.0</hdop><vdop>2.0</vdop><extensions><gom:speed>0.351</gom:speed><gom:rel_alt>173.971</gom:rel_alt></extensions></trkpt>
   <trkpt lat="59.0699955516" lon="29.9732759152"><ele>95.506</ele><time>2026-04-22T11:22:13.084Z</time><hdop>3.0</hdop><vdop>1.625</vdop><extensions><gom:speed>0.508</gom:speed><gom:rel_alt>172.343</gom:rel_alt></extensions></trkpt>
   <trkpt lat="59.0700115191" lon="29.9734536115"><ele>95.342</ele><time>2026-04-22T11:22:32.519Z</time><hdop>3.0</hdop><vdop>1.75</vdop><extensions><gom:speed>0.138</gom:speed><gom:rel_alt>173.68</gom:rel_alt></extensions></trkpt>
   <trkpt lat="59.0701032171" lon="29.9734852951"><ele>95.354</ele><time>2026-04-22T11:25:28.960Z</time><hdop>3.0</hdop><vdop>1.5</vdop><extensions><gom:speed>0.236</gom:speed><gom:rel_alt>173.757</gom:rel_alt></extensions></trkpt>
   <trkpt lat="59.0701948313" lon="29.9734436371"><ele>95.612</ele><time>2026-04-22T11:25:50.099Z</time><hdop>3.0</hdop><vdop>1.75</vdop><extensions><gom:speed>0.262</gom:speed><gom:rel_alt>173.688</gom:rel_alt></extensions></trkpt>
   <trkpt lat="59.0702813326" lon="29.9733896576"><ele>95.022</ele><time>2026-04-22T11:26:07.019Z</time><hdop>3.0</hdop><vdop>1.625</vdop><extensions><gom:speed>0.199</gom:speed><gom:rel_alt>173.353</gom:rel_alt></extensions></trkpt>
   <trkpt lat="59.0703692168" lon="29.9733523582"><ele>95.14</ele><time>2026-04-22T11:26:25.084Z</time><hdop>3.0</hdop><vdop>1.625</vdop><extensions><gom:speed>0.145</gom:speed><gom:rel_alt>173.49</gom:rel_alt></extensions></trkpt>
   <trkpt lat="59.0704541255" lon="29.9732822016"><ele>95.751</ele><time>2026-04-22T11:26:42.084Z</time><hdop>3.0</hdop><vdop>2.0</vdop><extensions><gom:speed>0.319</gom:speed><gom:rel_alt>173.485</gom:rel_alt></extensions></trkpt>
   <trkpt lat="59.0705493439" lon="29.9732435611"><ele>95.141</ele><time>2026-04-22T11:27:02.085Z</time><hdop>3.0</hdop><vdop>1.5</vdop><extensions><gom:speed>0.344</gom:speed><gom:rel_alt>173.628</gom:rel_alt></extensions></trkpt>
   <trkpt lat="59.0706400361" lon="29.9732107878"><ele>95.191</ele><time>2026-04-22T11:27:19.800Z</time><hdop>3.0</hdop><vdop>1.625</vdop><extensions><gom:speed>0.273</gom:speed><gom:rel_alt>173.548</gom:rel_alt></extensions></trkpt>
   <trkpt lat="59.0707289262" lon="29.9731698003"><ele>95.196</ele><time>2026-04-22T11:27:35.084Z</time><hdop>3.0</hdop><vdop>1.5</vdop><extensions><gom:speed>0.315</gom:speed><gom:rel_alt>174.0</gom:rel_alt></extensions></trkpt>
   <trkpt lat="59.0708176486" lon="29.9731322494"><ele>93.992</ele><time>2026-04-22T11:27:51.614Z</time><hdop>3.0</hdop><vdop>1.375</vdop><extensions><gom:speed>0.486</gom:speed><gom:rel_alt>174.225</gom:rel_alt></extensions></trkpt>
   <trkpt lat="59.0709047366" lon="29.9730742466"><ele>94.506</ele><time>2026-04-22T11:28:07.057Z</time><hdop>3.0</hdop><vdop>1.375</vdop><extensions><gom:speed>0.385</gom:speed><gom:rel_alt>172.964</gom:rel_alt></extensions></trkpt>
   <trkpt lat="59.0709945487" lon="29.9730223626"><ele>92.976</ele><time>2026-04-22T11:28:25.557Z</time><hdop>3.0</hdop><vdop>1.375</vdop><extensions><gom:speed>0.157</gom:speed><gom:rel_alt>174.132</gom:rel_alt></extensions></trkpt>
   <trkpt lat="59.071067136" lon="29.9729155772"><ele>93.706</ele><time>2026-04-22T11:28:55.085Z</time><hdop>3.0</hdop><vdop>1.25</vdop><extensions><gom:speed>0.025</gom:speed><gom:rel_alt>174.259</gom:rel_alt></extensions></trkpt>
   <trkpt lat="59.0711575348" lon="29.9728948739"><ele>94.196</ele><time>2026-04-22T11:30:02.377Z</time><hdop>3.0</hdop><vdop>1.375</vdop><extensions><gom:speed>0.092</gom:speed><gom:rel_alt>174.328</gom:rel_alt></extensions></trkpt>
   <trkpt lat="59.0712474307" lon="29.9728978914"><ele>92.956</ele><time>2026-04-22T11:30:20.534Z</time><hdop>3.0</hdop><vdop>1.25</vdop><extensions><gom:speed>0.124</gom:speed><gom:rel_alt>174.423</gom:rel_alt></extensions></trkpt>
   <trkpt lat="59.0713352312" lon="29.9728527129"><ele>92.842</ele><time>2026-04-22T11:30:34.150Z</time><hdop>3.0</hdop><vdop>1.125</vdop><extensions><gom:speed>0.27</gom:speed><gom:rel_alt>173.675</gom:rel_alt></extensions></trkpt>
   <trkpt lat="59.0714235345" lon="29.9727989011"><ele>92.647</ele><time>2026-04-22T11:30:44.084Z</time><hdop>3.0</hdop><vdop>1.125</vdop><extensions><gom:speed>0.756</gom:speed><gom:rel_alt>173.617</gom:rel_alt></extensions></trkpt>
   <trkpt lat="59.0715132209" lon="29.9727435805"><ele>92.424</ele><time>2026-04-22T11:30:57.998Z</time><hdop>3.0</hdop><vdop>1.25</vdop><extensions><gom:speed>1.108</gom:speed><gom:rel_alt>173.437</gom:rel_alt></extensions></trkpt>
   <trkpt lat="59.0716048351" lon="29.9727384676"><ele>92.496</ele><time>2026-04-22T11:31:15.084Z</time><hdop>3.0</hdop><vdop>1.125</vdop><extensions><gom:speed>0.506</gom:speed><gom:rel_alt>178.973</gom:rel_alt></extensions></trkpt>
   <trkpt lat="59.0716951501" lon="29.9727162555"><ele>93.26</ele><time>2026-04-22T11:31:30.084Z</time><hdop>3.0</hdop><vdop>1.25</vdop><extensions><gom:speed>0.475</gom:speed><gom:rel_alt>174.246</gom:rel_alt></extensions></trkpt>
   <trkpt lat="59.0717696233" lon="29.9726084642"><ele>93.035</ele><time>2026-04-22T11:31:47.953Z</time><hdop>3.0</hdop><vdop>1.25</vdop><extensions><gom:speed>0.543</gom:speed><gom:rel_alt>173.926</gom:rel_alt></extensions></trkpt>
   <trkpt lat="59.0718609441" lon="29.9725790438"><ele>92.775</ele><time>2026-04-22T11:32:00.777Z</time><hdop>3.0</hdop><vdop>1.125</vdop><extensions><gom:speed>0.413</gom:speed><gom:rel_alt>174.389</gom:rel_alt></extensions></trkpt>
   <trkpt lat="59.0719475292" lon="29.9725305964"><ele>92.132</ele><time>2026-04-22T11:32:14.617Z</time><hdop>3.0</hdop><vdop>1.125</vdop><extensions><gom:speed>0.277</gom:speed><gom:rel_alt>173.131</gom:rel_alt></extensions></trkpt>
   <trkpt lat="59.0720390177" lon="29.9724922073"><ele>92.99</ele><time>2026-04-22T11:32:30.085Z</time><hdop>3.0</hdop><vdop>1.125</vdop><extensions><gom:speed>0.278</gom:speed><gom:rel_alt>174.127</gom:rel_alt></extensions></trkpt>
   <trkpt lat="59.0721391395" lon="29.9724416644"><ele>92.651</ele><time>2026-04-22T11:32:45.084Z</time><hdop>3.0</hdop><vdop>1.125</vdop><extensions><gom:speed>0.717</gom:speed><gom:rel_alt>174.198</gom:rel_alt></extensions></trkpt>
   <trkpt lat="59.0722267304" lon="29.97239087"><ele>92.764</ele><time>2026-04-22T11:32:58.960Z</time><hdop>3.0</hdop><vdop>1.125</vdop><extensions><gom:speed>0.248</gom:speed><gom:rel_alt>174.058</gom:rel_alt></extensions></trkpt>
   <trkpt lat="59.0723132316" lon="29.9723373097"><ele>92.745</ele><time>2026-04-22T11:33:15.084Z</time><hdop>3.0</hdop><vdop>1.125</vdop><extensions><gom:speed>0.093</gom:speed><gom:rel_alt>173.778</gom:rel_alt></extensions></trkpt>
   <trkpt lat="59.0724051392" lon="29.9723119125"><ele>93.02</ele><time>2026-04-22T11:34:31.515Z</time><hdop>3.0</hdop><vdop>1.125</vdop><extensions><gom:speed>0.363</gom:speed><gom:rel_alt>173.332</gom:rel_alt></extensions></trkpt>
   <trkpt lat="59.0724957476" lon="29.9722962384"><ele>92.227</ele><time>2026-04-22T11:34:52.085Z</time><hdop>3.0</hdop><vdop>1.125</vdop><extensions><gom:speed>0.247</gom:speed><gom:rel_alt>173.297</gom:rel_alt></extensions></trkpt>
   <trkpt lat="59.0725842185" lon="29.9722462822"><ele>92.555</ele><time>2026-04-22T11:35:08.085Z</time><hdop>3.0</hdop><vdop>1.25</vdop><extensions><gom:speed>0.521</gom:speed><gom:rel_alt>174.373</gom:rel_alt></extensions></trkpt>
   <trkpt lat="59.0726723543" lon="29.9722052109"><ele>92.436</ele><time>2026-04-22T11:35:32.085Z</time><hdop>3.0</hdop><vdop>1.25</vdop><extensions><gom:speed>0.122</gom:speed><gom:rel_alt>173.72</gom:rel_alt></extensions></trkpt>
   <trkpt lat="59.0727604481" lon="29.9721582722"><ele>92.847</ele><time>2026-04-22T11:35:51.315Z</time><hdop>3.0</hdop><vdop>1.25</vdop><extensions><gom:speed>0.132</gom:speed><gom:rel_alt>174.325</gom:rel_alt></extensions></trkpt>
   <trkpt lat="59.0728449376" lon="29.9720840086"><ele>92.598</ele><time>2026-04-22T11:36:09.085Z</time><hdop>3.0</hdop><vdop>1.25</vdop><extensions><gom:speed>0.175</gom:speed><gom:rel_alt>175.007</gom:rel_alt></extensions></trkpt>
   <trkpt lat="59.0729326543" lon="29.9720203061"><ele>91.26</ele><time>2026-04-22T11:36:39.651Z</time><hdop>3.0</hdop><vdop>1.375</vdop><extensions><gom:speed>0.073</gom:speed><gom:rel_alt>172.124</gom:rel_alt></extensions></trkpt>
   <trkpt lat="59.073020329" lon="29.9719752953"><ele>92.187</ele><time>2026-04-22T11:37:05.084Z</time><hdop>3.0</hdop><vdop>1.375</vdop><extensions><gom:speed>0.468</gom:speed><gom:rel_alt>173.786</gom:rel_alt></extensions></trkpt>
   <trkpt lat="59.0731167209" lon="29.9719680868"><ele>91.892</ele><time>2026-04-22T11:37:22.965Z</time><hdop>3.0</hdop><vdop>1.25</vdop><extensions><gom:speed>0.303</gom:speed><gom:rel_alt>174.51</gom:rel_alt></extensions></trkpt>
   <trkpt lat="59.0732098438" lon="29.9719208129"><ele>92.187</ele><time>2026-04-22T11:37:40.084Z</time><hdop>3.0</hdop><vdop>1.125</vdop><extensions><gom:speed>0.176</gom:speed><gom:rel_alt>174.721</gom:rel_alt></extensions></trkpt>
   <trkpt lat="59.0732971413" lon="29.9718740419"><ele>91.985</ele><time>2026-04-22T11:38:11.085Z</time><hdop>3.0</hdop><vdop>1.125</vdop><extensions><gom:speed>0.058</gom:speed><gom:rel_alt>173.876</gom:rel_alt></extensions></trkpt>
   <trkpt lat="59.0733849418" lon="29.9718162068"><ele>91.893</ele><time>2026-04-22T11:39:01.532Z</time><hdop>3.0</hdop><vdop>1.375</vdop><extensions><gom:speed>0.167</gom:speed><gom:rel_alt>173.649</gom:rel_alt></extensions></trkpt>
   <trkpt lat="59.0734756339" lon="29.9718162906"><ele>92.11</ele><time>2026-04-22T11:40:26.964Z</time><hdop>1.875</hdop><vdop>1.25</vdop><extensions><gom:speed>0.078</gom:speed><gom:rel_alt>174.291</gom:rel_alt></extensions></trkpt>
   <trkpt lat="59.0735345168" lon="29.9719669972"><ele>93.422</ele><time>2026-04-22T11:44:22.965Z</time><hdop>1.75</hdop><vdop>1.125</vdop><extensions><gom:speed>0.038</gom:speed><gom:rel_alt>176.383</gom:rel_alt></extensions></trkpt>
   <trkpt lat="59.0735535437" lon="29.9721396644"><ele>92.975</ele><time>2026-04-22T11:44:39.965Z</time><hdop>1.75</hdop><vdop>1.125</vdop><extensions><gom:speed>0.318</gom:speed><gom:rel_alt>175.628</gom:rel_alt></extensions></trkpt>
   <trkpt lat="59.0735701399" lon="29.972322809"><ele>92.458</ele><time>2026-04-22T11:45:05.965Z</time><hdop>2.0</hdop><vdop>1.25</vdop><extensions><gom:speed>0.168</gom:speed><gom:rel_alt>176.613</gom:rel_alt></extensions></trkpt>
   <trkpt lat="59.0735859398" lon="29.9725166824"><ele>93.315</ele><time>2026-04-22T11:45:22.965Z</time><hdop>1.875</hdop><vdop>1.25</vdop><extensions><gom:speed>0.308</gom:speed><gom:rel_alt>177.052</gom:rel_alt></extensions></trkpt>
   <trkpt lat="59.0736096187" lon="29.9726860807"><ele>93.549</ele><time>2026-04-22T11:45:47.965Z</time><hdop>2.0</hdop><vdop>1.375</vdop><extensions><gom:speed>0.0</gom:speed><gom:rel_alt>177.419</gom:rel_alt></extensions></trkpt>
   <trkpt lat="59.0736144383" lon="29.9728615977"><ele>94.753</ele><time>2026-04-22T11:46:09.719Z</time><hdop>3.0</hdop><vdop>1.375</vdop><extensions><gom:speed>0.076</gom:speed><gom:rel_alt>177.824</gom:rel_alt></extensions></trkpt>
   <trkpt lat="59.0736378238" lon="29.9730454129"><ele>94.39</ele><time>2026-04-22T11:46:24.070Z</time><hdop>3.0</hdop><vdop>1.25</vdop><extensions><gom:speed>0.348</gom:speed><gom:rel_alt>177.258</gom:rel_alt></extensions></trkpt>
   <trkpt lat="59.0736913422" lon="29.9731927667"><ele>94.045</ele><time>2026-04-22T11:46:41.491Z</time><hdop>3.0</hdop><vdop>1.375</vdop><extensions><gom:speed>0.276</gom:speed><gom:rel_alt>177.43</gom:rel_alt></extensions></trkpt>
   <trkpt lat="59.0737820344" lon="29.9732675333"><ele>93.432</ele><time>2026-04-22T11:47:03.568Z</time><hdop>3.0</hdop><vdop>1.375</vdop><extensions><gom:speed>0.375</gom:speed><gom:rel_alt>176.896</gom:rel_alt></extensions></trkpt>
   <trkpt lat="59.0738648476" lon="29.9733809404"><ele>93.716</ele><time>2026-04-22T11:48:05.964Z</time><hdop>2.375</hdop><vdop>1.375</vdop><extensions><gom:speed>0.218</gom:speed><gom:rel_alt>177.678</gom:rel_alt></extensions></trkpt>
   <trkpt lat="59.073865141" lon="29.9735593073"><ele>93.695</ele><time>2026-04-22T11:48:30.964Z</time><hdop>3.125</hdop><vdop>1.375</vdop><extensions><gom:speed>0.0</gom:speed><gom:rel_alt>177.818</gom:rel_alt></extensions></trkpt>
   <trkpt lat="59.0738206331" lon="29.9737181444"><ele>93.869</ele><time>2026-04-22T11:49:13.964Z</time><hdop>2.875</hdop><vdop>1.25</vdop><extensions><gom:speed>0.0</gom:speed><gom:rel_alt>177.683</gom:rel_alt></extensions></trkpt>
   <trkpt lat="59.073745657" lon="29.973827193"><ele>93.609</ele><time>2026-04-22T11:49:38.963Z</time><hdop>2.0</hdop><vdop>1.375</vdop><extensions><gom:speed>0.0</gom:speed><gom:rel_alt>178.376</gom:rel_alt></extensions></trkpt>
   <trkpt lat="59.0736565573" lon="29.9738504108"><ele>93.249</ele><time>2026-04-22T11:52:20.964Z</time><hdop>1.5</hdop><vdop>1.25</vdop><extensions><gom:speed>0.198</gom:speed><gom:rel_alt>177.961</gom:rel_alt></extensions></trkpt>
   <trkpt lat="59.0735664519" lon="29.9738009576"><ele>93.567</ele><time>2026-04-22T11:52:39.963Z</time><hdop>1.75</hdop><vdop>1.375</vdop><extensions><gom:speed>0.298</gom:speed><gom:rel_alt>178.936</gom:rel_alt></extensions></trkpt>
   <trkpt lat="59.0734722393" lon="29.9738505785"><ele>92.758</ele><time>2026-04-22T11:52:55.963Z</time><hdop>1.625</hdop><vdop>1.25</vdop><extensions><gom:speed>0.288</gom:speed><gom:rel_alt>177.406</gom:rel_alt></extensions></trkpt>
   <trkpt lat="59.0733830558" lon="29.9739112635"><ele>92.957</ele><time>2026-04-22T11:53:17.964Z</time><hdop>1.5</hdop><vdop>1.25</vdop><extensions><gom:speed>0.178</gom:speed><gom:rel_alt>177.081</gom:rel_alt></extensions></trkpt>
   <trkpt lat="59.0732924475" lon="29.973975385"><ele>92.796</ele><time>2026-04-22T11:53:55.964Z</time><hdop>1.5</hdop><vdop>1.25</vdop><extensions><gom:speed>0.0</gom:speed><gom:rel_alt>178.281</gom:rel_alt></extensions></trkpt>
   <trkpt lat="59.073206952" lon="29.9740418535"><ele>92.885</ele><time>2026-04-22T11:54:13.964Z</time><hdop>1.5</hdop><vdop>1.125</vdop><extensions><gom:speed>0.158</gom:speed><gom:rel_alt>178.851</gom:rel_alt></extensions></trkpt>
   <trkpt lat="59.0731155474" lon="29.9740989343"><ele>92.711</ele><time>2026-04-22T11:54:35.964Z</time><hdop>1.625</hdop><vdop>1.25</vdop><extensions><gom:speed>0.298</gom:speed><gom:rel_alt>178.278</gom:rel_alt></extensions></trkpt>
   <trkpt lat="59.073023556" lon="29.9741631396"><ele>92.749</ele><time>2026-04-22T11:54:55.964Z</time><hdop>1.625</hdop><vdop>1.25</vdop><extensions><gom:speed>0.138</gom:speed><gom:rel_alt>177.58</gom:rel_alt></extensions></trkpt>
   <trkpt lat="59.0729344564" lon="29.9741968349"><ele>92.27</ele><time>2026-04-22T11:55:16.015Z</time><hdop>3.0</hdop><vdop>1.25</vdop><extensions><gom:speed>0.098</gom:speed><gom:rel_alt>177.266</gom:rel_alt></extensions></trkpt>
   <trkpt lat="59.0728478294" lon="29.9742512335"><ele>92.623</ele><time>2026-04-22T11:55:30.084Z</time><hdop>3.0</hdop><vdop>1.125</vdop><extensions><gom:speed>0.427</gom:speed><gom:rel_alt>178.421</gom:rel_alt></extensions></trkpt>
   <trkpt lat="59.0727584364" lon="29.9742877785"><ele>92.729</ele><time>2026-04-22T11:55:50.991Z</time><hdop>3.0</hdop><vdop>1.25</vdop><extensions><gom:speed>0.12</gom:speed><gom:rel_alt>177.958</gom:rel_alt></extensions></trkpt>
   <trkpt lat="59.072672941" lon="29.974345949"><ele>92.634</ele><time>2026-04-22T11:56:17.855Z</time><hdop>3.0</hdop><vdop>1.125</vdop><extensions><gom:speed>0.317</gom:speed><gom:rel_alt>178.339</gom:rel_alt></extensions></trkpt>
   <trkpt lat="59.0725837575" lon="29.9743728549"><ele>92.909</ele><time>2026-04-22T11:57:32.578Z</time><hdop>3.0</hdop><vdop>1.125</vdop><extensions><gom:speed>0.09</gom:speed><gom:rel_alt>178.954</gom:rel_alt></extensions></trkpt>
   <trkpt lat="59.0725281436" lon="29.9745137547"><ele>92.734</ele><time>2026-04-22T11:58:28.972Z</time><hdop>3.0</hdop><vdop>1.125</vdop><extensions><gom:speed>0.218</gom:speed><gom:rel_alt>178.376</gom:rel_alt></extensions></trkpt>
   <trkpt lat="59.0724485574" lon="29.9745949753"><ele>92.385</ele><time>2026-04-22T11:58:54.699Z</time><hdop>3.0</hdop><vdop>1.125</vdop><extensions><gom:speed>0.111</gom:speed><gom:rel_alt>177.472</gom:rel_alt></extensions></trkpt>
   <trkpt lat="59.0723643193" lon="29.9746784591"><ele>92.423</ele><time>2026-04-22T11:59:17.085Z</time><hdop>3.0</hdop><vdop>1.125</vdop><extensions><gom:speed>0.16</gom:speed><gom:rel_alt>179.559</gom:rel_alt></extensions></trkpt>
   <trkpt lat="59.0722765189" lon="29.9747378867"><ele>92.748</ele><time>2026-04-22T11:59:31.084Z</time><hdop>3.0</hdop><vdop>1.125</vdop><extensions><gom:speed>0.355</gom:speed><gom:rel_alt>178.767</gom:rel_alt></extensions></trkpt>
   <trkpt lat="59.0721832283" lon="29.9747758568"><ele>92.795</ele><time>2026-04-22T11:59:53.085Z</time><hdop>3.0</hdop><vdop>1.0</vdop><extensions><gom:speed>0.303</gom:speed><gom:rel_alt>178.312</gom:rel_alt></extensions></trkpt>
   <trkpt lat="59.0720887223" lon="29.9747896031"><ele>92.596</ele><time>2026-04-22T12:00:32.615Z</time><hdop>3.0</hdop><vdop>1.125</vdop><extensions><gom:speed>0.225</gom:speed><gom:rel_alt>178.423</gom:rel_alt></extensions></trkpt>
   <trkpt lat="59.0719981559" lon="29.974803098"><ele>92.142</ele><time>2026-04-22T12:00:47.069Z</time><hdop>3.0</hdop><vdop>1.125</vdop><extensions><gom:speed>0.163</gom:speed><gom:rel_alt>177.924</gom:rel_alt></extensions></trkpt>
   <trkpt lat="59.071908721" lon="29.9748337757"><ele>92.536</ele><time>2026-04-22T12:01:04.085Z</time><hdop>3.0</hdop><vdop>1.25</vdop><extensions><gom:speed>0.162</gom:speed><gom:rel_alt>178.915</gom:rel_alt></extensions></trkpt>
   <trkpt lat="59.0718259497" lon="29.9749099672"><ele>92.452</ele><time>2026-04-22T12:01:23.951Z</time><hdop>3.0</hdop><vdop>1.125</vdop><extensions><gom:speed>0.197</gom:speed><gom:rel_alt>177.842</gom:rel_alt></extensions></trkpt>
   <trkpt lat="59.0717431365" lon="29.9749875836"><ele>91.933</ele><time>2026-04-22T12:01:44.085Z</time><hdop>3.0</hdop><vdop>1.125</vdop><extensions><gom:speed>0.394</gom:speed><gom:rel_alt>177.771</gom:rel_alt></extensions></trkpt>
   <trkpt lat="59.0716546236" lon="29.9750404735"><ele>91.778</ele><time>2026-04-22T12:01:57.084Z</time><hdop>3.0</hdop><vdop>1.125</vdop><extensions><gom:speed>0.091</gom:speed><gom:rel_alt>177.636</gom:rel_alt></extensions></trkpt>
   <trkpt lat="59.0715671165" lon="29.9750817962"><ele>92.242</ele><time>2026-04-22T12:02:49.084Z</time><hdop>3.0</hdop><vdop>1.125</vdop><extensions><gom:speed>0.082</gom:speed><gom:rel_alt>178.204</gom:rel_alt></extensions></trkpt>
   <trkpt lat="59.071474245" lon="29.9750436586"><ele>92.102</ele><time>2026-04-22T12:04:45.085Z</time><hdop>3.0</hdop><vdop>1.25</vdop><extensions><gom:speed>0.386</gom:speed><gom:rel_alt>179.25</gom:rel_alt></extensions></trkpt>
   <trkpt lat="59.0713812478" lon="29.9750548065"><ele>91.912</ele><time>2026-04-22T12:04:59.793Z</time><hdop>3.0</hdop><vdop>1.25</vdop><extensions><gom:speed>0.225</gom:speed><gom:rel_alt>179.2</gom:rel_alt></extensions></trkpt>
   <trkpt lat="59.0712954171" lon="29.9751085345"><ele>92.407</ele><time>2026-04-22T12:05:15.016Z</time><hdop>3.0</hdop><vdop>1.25</vdop><extensions><gom:speed>0.338</gom:speed><gom:rel_alt>179.663</gom:rel_alt></extensions></trkpt>
   <trkpt lat="59.0712052278" lon="29.9751366977"><ele>92.21</ele><time>2026-04-22T12:05:33.085Z</time><hdop>3.0</hdop><vdop>1.125</vdop><extensions><gom:speed>0.503</gom:speed><gom:rel_alt>173.905</gom:rel_alt></extensions></trkpt>
   <trkpt lat="59.0711163378" lon="29.975170812"><ele>92.851</ele><time>2026-04-22T12:05:46.972Z</time><hdop>3.0</hdop><vdop>1.375</vdop><extensions><gom:speed>0.256</gom:speed><gom:rel_alt>179.985</gom:rel_alt></extensions></trkpt>
   <trkpt lat="59.0710225443" lon="29.9752276414"><ele>92.832</ele><time>2026-04-22T12:06:05.084Z</time><hdop>3.0</hdop><vdop>1.375</vdop><extensions><gom:speed>0.488</gom:speed><gom:rel_alt>178.96</gom:rel_alt></extensions></trkpt>
   <trkpt lat="59.0709307205" lon="29.9753055931"><ele>92.08</ele><time>2026-04-22T12:06:26.791Z</time><hdop>3.0</hdop><vdop>1.25</vdop><extensions><gom:speed>0.372</gom:speed><gom:rel_alt>180.638</gom:rel_alt></extensions></trkpt>
   <trkpt lat="59.0708367175" lon="29.9753048387"><ele>91.665</ele><time>2026-04-22T12:07:01.871Z</time><hdop>3.0</hdop><vdop>1.25</vdop><extensions><gom:speed>0.187</gom:speed><gom:rel_alt>179.845</gom:rel_alt></extensions></trkpt>
   <trkpt lat="59.0707481207" lon="29.9753372766"><ele>91.611</ele><time>2026-04-22T12:08:22.734Z</time><hdop>3.0</hdop><vdop>1.125</vdop><extensions><gom:speed>0.224</gom:speed><gom:rel_alt>180.357</gom:rel_alt></extensions></trkpt>
   <trkpt lat="59.0706641341" lon="29.97540056"><ele>92.628</ele><time>2026-04-22T12:08:41.084Z</time><hdop>3.0</hdop><vdop>1.125</vdop><extensions><gom:speed>0.262</gom:speed><gom:rel_alt>179.776</gom:rel_alt></extensions></trkpt>
   <trkpt lat="59.0705765432" lon="29.9754402064"><ele>91.741</ele><time>2026-04-22T12:08:53.809Z</time><hdop>3.0</hdop><vdop>1.125</vdop><extensions><gom:speed>0.2</gom:speed><gom:rel_alt>180.841</gom:rel_alt></extensions></trkpt>
   <trkpt lat="59.0704880303" lon="29.9754871451"><ele>92.254</ele><time>2026-04-22T12:09:05.492Z</time><hdop>3.0</hdop><vdop>1.25</vdop><extensions><gom:speed>0.433</gom:speed><gom:rel_alt>180.371</gom:rel_alt></extensions></trkpt>
   <trkpt lat="59.0704074383" lon="29.9755957745"><ele>92.007</ele><time>2026-04-22T12:09:33.071Z</time><hdop>3.0</hdop><vdop>1.125</vdop><extensions><gom:speed>0.353</gom:speed><gom:rel_alt>180.019</gom:rel_alt></extensions></trkpt>
   <trkpt lat="59.0703210209" lon="29.9756567948"><ele>91.601</ele><time>2026-04-22T12:09:46.590Z</time><hdop>3.0</hdop><vdop>1.25</vdop><extensions><gom:speed>0.652</gom:speed><gom:rel_alt>179.731</gom:rel_alt></extensions></trkpt>
   <trkpt lat="59.0702307478" lon="29.9757023085"><ele>92.744</ele><time>2026-04-22T12:10:03.949Z</time><hdop>3.0</hdop><vdop>1.125</vdop><extensions><gom:speed>0.486</gom:speed><gom:rel_alt>180.241</gom:rel_alt></extensions></trkpt>
   <trkpt lat="59.0701438274" lon="29.9757472355"><ele>92.001</ele><time>2026-04-22T12:10:16.894Z</time><hdop>3.0</hdop><vdop>1.25</vdop><extensions><gom:speed>0.453</gom:speed><gom:rel_alt>179.406</gom:rel_alt></extensions></trkpt>
   <trkpt lat="59.0700615171" lon="29.9758397717"><ele>92.449</ele><time>2026-04-22T12:10:30.094Z</time><hdop>3.0</hdop><vdop>1.25</vdop><extensions><gom:speed>0.359</gom:speed><gom:rel_alt>181.147</gom:rel_alt></extensions></trkpt>
   <trkpt lat="59.0699668436" lon="29.9758894764"><ele>92.159</ele><time>2026-04-22T12:10:50.055Z</time><hdop>3.0</hdop><vdop>1.25</vdop><extensions><gom:speed>0.242</gom:speed><gom:rel_alt>180.886</gom:rel_alt></extensions></trkpt>
   <trkpt lat="59.0698767381" lon="29.9759464734"><ele>92.339</ele><time>2026-04-22T12:11:07.953Z</time><hdop>3.0</hdop><vdop>1.125</vdop><extensions><gom:speed>0.263</gom:speed><gom:rel_alt>180.788</gom:rel_alt></extensions></trkpt>
   <trkpt lat="59.0697902369" lon="29.9759960104"><ele>92.386</ele><time>2026-04-22T12:11:20.795Z</time><hdop>3.0</hdop><vdop>1.125</vdop><extensions><gom:speed>0.458</gom:speed><gom:rel_alt>181.029</gom:rel_alt></extensions></trkpt>
   <trkpt lat="59.0696995447" lon="29.9760302924"><ele>92.133</ele><time>2026-04-22T12:11:35.570Z</time><hdop>3.0</hdop><vdop>1.125</vdop><extensions><gom:speed>0.412</gom:speed><gom:rel_alt>180.022</gom:rel_alt></extensions></trkpt>
   <trkpt lat="59.0696073437" lon="29.9760390096"><ele>92.217</ele><time>2026-04-22T12:11:50.122Z</time><hdop>3.0</hdop><vdop>1.125</vdop><extensions><gom:speed>0.617</gom:speed><gom:rel_alt>181.066</gom:rel_alt></extensions></trkpt>
   <trkpt lat="59.0695192499" lon="29.9760797456"><ele>92.584</ele><time>2026-04-22T12:12:09.084Z</time><hdop>3.0</hdop><vdop>1.125</vdop><extensions><gom:speed>0.194</gom:speed><gom:rel_alt>180.492</gom:rel_alt></extensions></trkpt>
   <trkpt lat="59.0694304437" lon="29.9761455436"><ele>92.281</ele><time>2026-04-22T12:13:31.455Z</time><hdop>3.0</hdop><vdop>1.125</vdop><extensions><gom:speed>0.311</gom:speed><gom:rel_alt>180.727</gom:rel_alt></extensions></trkpt>
   <trkpt lat="59.0693320401" lon="29.9761771433"><ele>92.447</ele><time>2026-04-22T12:13:48.093Z</time><hdop>3.0</hdop><vdop>1.0</vdop><extensions><gom:speed>0.336</gom:speed><gom:rel_alt>180.994</gom:rel_alt></extensions></trkpt>
   <trkpt lat="59.069245036" lon="29.9762335536"><ele>92.721</ele><time>2026-04-22T12:14:05.084Z</time><hdop>3.0</hdop><vdop>1.125</vdop><extensions><gom:speed>0.71</gom:speed><gom:rel_alt>181.121</gom:rel_alt></extensions></trkpt>
   <trkpt lat="59.0691530446" lon="29.9762472999"><ele>92.573</ele><time>2026-04-22T12:14:23.534Z</time><hdop>3.0</hdop><vdop>1.125</vdop><extensions><gom:speed>0.601</gom:speed><gom:rel_alt>181.227</gom:rel_alt></extensions></trkpt>
   <trkpt lat="59.0690642383" lon="29.9762947414"><ele>92.322</ele><time>2026-04-22T12:14:41.084Z</time><hdop>3.0</hdop><vdop>1.125</vdop><extensions><gom:speed>0.524</gom:speed><gom:rel_alt>181.441</gom:rel_alt></extensions></trkpt>
   <trkpt lat="59.0689716183" lon="29.9763626349"><ele>92.436</ele><time>2026-04-22T12:15:21.962Z</time><hdop>2.75</hdop><vdop>1.125</vdop><extensions><gom:speed>0.048</gom:speed><gom:rel_alt>180.672</gom:rel_alt></extensions></trkpt>
   <trkpt lat="59.0688810518" lon="29.9764027004"><ele>92.655</ele><time>2026-04-22T12:16:02.962Z</time><hdop>1.375</hdop><vdop>1.125</vdop><extensions><gom:speed>0.238</gom:speed><gom:rel_alt>181.1</gom:rel_alt></extensions></trkpt>
   <trkpt lat="59.0687875517" lon="29.9764458672"><ele>92.693</ele><time>2026-04-22T12:18:21.963Z</time><hdop>1.75</hdop><vdop>1.125</vdop><extensions><gom:speed>0.688</gom:speed><gom:rel_alt>181.34</gom:rel_alt></extensions></trkpt>
   <trkpt lat="59.0686848315" lon="29.9764581886"><ele>92.745</ele><time>2026-04-22T12:18:37.962Z</time><hdop>1.5</hdop><vdop>1.125</vdop><extensions><gom:speed>0.418</gom:speed><gom:rel_alt>181.288</gom:rel_alt></extensions></trkpt>
   <trkpt lat="59.0685926305" lon="29.9764967453"><ele>92.504</ele><time>2026-04-22T12:18:52.963Z</time><hdop>1.5</hdop><vdop>1.0</vdop><extensions><gom:speed>0.0</gom:speed><gom:rel_alt>181.615</gom:rel_alt></extensions></trkpt>
   <trkpt lat="59.0685027346" lon="29.9765364755"><ele>92.699</ele><time>2026-04-22T12:19:09.671Z</time><hdop>3.0</hdop><vdop>1.125</vdop><extensions><gom:speed>0.481</gom:speed><gom:rel_alt>180.532</gom:rel_alt></extensions></trkpt>
   <trkpt lat="59.0684101565" lon="29.9765943107"><ele>92.86</ele><time>2026-04-22T12:19:23.097Z</time><hdop>3.0</hdop><vdop>1.0</vdop><extensions><gom:speed>0.526</gom:speed><gom:rel_alt>180.78</gom:rel_alt></extensions></trkpt>
   <trkpt lat="59.0683197577" lon="29.9766556662"><ele>92.503</ele><time>2026-04-22T12:19:38.809Z</time><hdop>3.0</hdop><vdop>1.125</vdop><extensions><gom:speed>0.506</gom:speed><gom:rel_alt>181.145</gom:rel_alt></extensions></trkpt>
   <trkpt lat="59.0682314543" lon="29.9766879365"><ele>92.962</ele><time>2026-04-22T12:20:59.963Z</time><hdop>1.375</hdop><vdop>1.0</vdop><extensions><gom:speed>0.448</gom:speed><gom:rel_alt>181.496</gom:rel_alt></extensions></trkpt>
   <trkpt lat="59.0681602501" lon="29.976796566"><ele>92.935</ele><time>2026-04-22T12:21:27.963Z</time><hdop>1.5</hdop><vdop>1.0</vdop><extensions><gom:speed>0.448</gom:speed><gom:rel_alt>181.322</gom:rel_alt></extensions></trkpt>
   <trkpt lat="59.0680820469" lon="29.9768872582"><ele>93.106</ele><time>2026-04-22T12:21:41.962Z</time><hdop>1.375</hdop><vdop>1.0</vdop><extensions><gom:speed>0.558</gom:speed><gom:rel_alt>180.978</gom:rel_alt></extensions></trkpt>
   <trkpt lat="59.0679931568" lon="29.9769538943"><ele>92.796</ele><time>2026-04-22T12:22:05.962Z</time><hdop>2.0</hdop><vdop>1.0</vdop><extensions><gom:speed>0.468</gom:speed><gom:rel_alt>181.155</gom:rel_alt></extensions></trkpt>
   <trkpt lat="59.0679177197" lon="29.9770617694"><ele>92.778</ele><time>2026-04-22T12:22:20.963Z</time><hdop>1.5</hdop><vdop>1.0</vdop><extensions><gom:speed>0.288</gom:speed><gom:rel_alt>180.476</gom:rel_alt></extensions></trkpt>
   <trkpt lat="59.067830045" lon="29.9771128152"><ele>92.832</ele><time>2026-04-22T12:22:40.963Z</time><hdop>1.5</hdop><vdop>1.0</vdop><extensions><gom:speed>0.518</gom:speed><gom:rel_alt>181.594</gom:rel_alt></extensions></trkpt>
   <trkpt lat="59.0677359162" lon="29.9771711532"><ele>93.832</ele><time>2026-04-22T12:22:56.963Z</time><hdop>1.5</hdop><vdop>1.0</vdop><extensions><gom:speed>0.548</gom:speed><gom:rel_alt>181.642</gom:rel_alt></extensions></trkpt>
   <trkpt lat="59.0676491216" lon="29.9772302457"><ele>93.715</ele><time>2026-04-22T12:23:13.534Z</time><hdop>3.0</hdop><vdop>1.0</vdop><extensions><gom:speed>0.214</gom:speed><gom:rel_alt>179.869</gom:rel_alt></extensions></trkpt>
   <trkpt lat="59.067559519" lon="29.9772429862"><ele>94.028</ele><time>2026-04-22T12:23:29.627Z</time><hdop>3.0</hdop><vdop>1.0</vdop><extensions><gom:speed>0.909</gom:speed><gom:rel_alt>181.221</gom:rel_alt></extensions></trkpt>
   <trkpt lat="59.0674846267" lon="29.9773456645"><ele>93.764</ele><time>2026-04-22T12:23:51.936Z</time><hdop>3.0</hdop><vdop>1.0</vdop><extensions><gom:speed>0.373</gom:speed><gom:rel_alt>181.425</gom:rel_alt></extensions></trkpt>
   <trkpt lat="59.0674226426" lon="29.9774755001"><ele>93.48</ele><time>2026-04-22T12:24:18.635Z</time><hdop>3.0</hdop><vdop>1.0</vdop><extensions><gom:speed>0.378</gom:speed><gom:rel_alt>180.4</gom:rel_alt></extensions></trkpt>
   <trkpt lat="59.0673559226" lon="29.9775926792"><ele>93.44</ele><time>2026-04-22T12:24:33.085Z</time><hdop>3.0</hdop><vdop>1.0</vdop><extensions><gom:speed>0.565</gom:speed><gom:rel_alt>181.618</gom:rel_alt></extensions></trkpt>
   <trkpt lat="59.0672664458" lon="29.9776657693"><ele>93.956</ele><time>2026-04-22T12:24:50.091Z</time><hdop>3.0</hdop><vdop>1.0</vdop><extensions><gom:speed>0.476</gom:speed><gom:rel_alt>181.277</gom:rel_alt></extensions></trkpt>
   <trkpt lat="59.0671716465" lon="29.9777034041"><ele>92.876</ele><time>2026-04-22T12:25:03.510Z</time><hdop>3.0</hdop><vdop>1.0</vdop><extensions><gom:speed>0.323</gom:speed><gom:rel_alt>180.904</gom:rel_alt></extensions></trkpt>
   <trkpt lat="59.0670892524" lon="29.9777905759"><ele>93.524</ele><time>2026-04-22T12:25:16.653Z</time><hdop>3.0</hdop><vdop>1.0</vdop><extensions><gom:speed>0.635</gom:speed><gom:rel_alt>180.511</gom:rel_alt></extensions></trkpt>
   <trkpt lat="59.0669980573" lon="29.9778392747"><ele>94.188</ele><time>2026-04-22T12:25:34.713Z</time><hdop>3.0</hdop><vdop>1.0</vdop><extensions><gom:speed>0.396</gom:speed><gom:rel_alt>181.235</gom:rel_alt></extensions></trkpt>
   <trkpt lat="59.0669079518" lon="29.9778324854"><ele>93.457</ele><time>2026-04-22T12:27:05.963Z</time><hdop>1.5</hdop><vdop>1.0</vdop><extensions><gom:speed>0.428</gom:speed><gom:rel_alt>181.272</gom:rel_alt></extensions></trkpt>
   <trkpt lat="59.0668180559" lon="29.9778858781"><ele>92.913</ele><time>2026-04-22T12:27:25.963Z</time><hdop>1.5</hdop><vdop>1.0</vdop><extensions><gom:speed>0.0</gom:speed><gom:rel_alt>180.801</gom:rel_alt></extensions></trkpt>
   <trkpt lat="59.0667278247" lon="29.9779287935"><ele>93.637</ele><time>2026-04-22T12:27:56.963Z</time><hdop>1.5</hdop><vdop>1.0</vdop><extensions><gom:speed>0.0</gom:speed><gom:rel_alt>181.192</gom:rel_alt></extensions></trkpt>
   <trkpt lat="59.06664015" lon="29.9780000396"><ele>93.749</ele><time>2026-04-22T12:28:12.963Z</time><hdop>1.5</hdop><vdop>1.0</vdop><extensions><gom:speed>0.518</gom:speed><gom:rel_alt>181.782</gom:rel_alt></extensions></trkpt>
   <trkpt lat="59.0665462308" lon="29.9779893946"><ele>92.907</ele><time>2026-04-22T12:28:31.702Z</time><hdop>3.0</hdop><vdop>1.0</vdop><extensions><gom:speed>0.567</gom:speed><gom:rel_alt>180.867</gom:rel_alt></extensions></trkpt>
   <trkpt lat="59.066458137" lon="29.9780590482"><ele>93.263</ele><time>2026-04-22T12:28:50.868Z</time><hdop>3.0</hdop><vdop>1.0</vdop><extensions><gom:speed>0.403</gom:speed><gom:rel_alt>181.879</gom:rel_alt></extensions></trkpt>
   <trkpt lat="59.0663756171" lon="29.9781325575"><ele>94.174</ele><time>2026-04-22T12:29:08.683Z</time><hdop>3.0</hdop><vdop>1.0</vdop><extensions><gom:speed>0.282</gom:speed><gom:rel_alt>175.786</gom:rel_alt></extensions></trkpt>
   <trkpt lat="59.0662829552" lon="29.9781900574"><ele>94.046</ele><time>2026-04-22T12:29:32.092Z</time><hdop>3.0</hdop><vdop>1.0</vdop><extensions><gom:speed>0.481</gom:speed><gom:rel_alt>181.507</gom:rel_alt></extensions></trkpt>
   <trkpt lat="59.0661960349" lon="29.9782366608"><ele>94.021</ele><time>2026-04-22T12:29:47.907Z</time><hdop>3.0</hdop><vdop>1.0</vdop><extensions><gom:speed>0.24</gom:speed><gom:rel_alt>181.805</gom:rel_alt></extensions></trkpt>
   <trkpt lat="59.0661091564" lon="29.9783043865"><ele>93.791</ele><time>2026-04-22T12:30:04.948Z</time><hdop>3.0</hdop><vdop>1.0</vdop><extensions><gom:speed>0.343</gom:speed><gom:rel_alt>181.8</gom:rel_alt></extensions></trkpt>
   <trkpt lat="59.0660345575" lon="29.9784087412"><ele>93.355</ele><time>2026-04-22T12:30:50.567Z</time><hdop>3.0</hdop><vdop>1.0</vdop><extensions><gom:speed>0.186</gom:speed><gom:rel_alt>182.107</gom:rel_alt></extensions></trkpt>
   <trkpt lat="59.0659430271" lon="29.9784712702"><ele>94.29</ele><time>2026-04-22T12:31:11.712Z</time><hdop>3.0</hdop><vdop>1.0</vdop><extensions><gom:speed>0.226</gom:speed><gom:rel_alt>180.96</gom:rel_alt></extensions></trkpt>
   <trkpt lat="59.0658706494" lon="29.9785783071"><ele>93.87</ele><time>2026-04-22T12:31:32.965Z</time><hdop>3.0</hdop><vdop>1.0</vdop><extensions><gom:speed>0.298</gom:speed><gom:rel_alt>182.136</gom:rel_alt></extensions></trkpt>
   <trkpt lat="59.065797643" lon="29.9786803149"><ele>93.715</ele><time>2026-04-22T12:31:48.685Z</time><hdop>3.0</hdop><vdop>1.0</vdop><extensions><gom:speed>0.418</gom:speed><gom:rel_alt>181.478</gom:rel_alt></extensions></trkpt>
   <trkpt lat="59.0657238403" lon="29.9787891958"><ele>93.728</ele><time>2026-04-22T12:32:07.086Z</time><hdop>3.0</hdop><vdop>1.0</vdop><extensions><gom:speed>0.249</gom:speed><gom:rel_alt>181.198</gom:rel_alt></extensions></trkpt>
   <trkpt lat="59.0656512531" lon="29.9788927962"><ele>93.971</ele><time>2026-04-22T12:32:19.094Z</time><hdop>3.0</hdop><vdop>1.0</vdop><extensions><gom:speed>0.104</gom:speed><gom:rel_alt>181.911</gom:rel_alt></extensions></trkpt>
   <trkpt lat="59.0655652547" lon="29.9789545708"><ele>94.095</ele><time>2026-04-22T12:32:41.085Z</time><hdop>3.0</hdop><vdop>1.0</vdop><extensions><gom:speed>0.186</gom:speed><gom:rel_alt>181.914</gom:rel_alt></extensions></trkpt>
   <trkpt lat="59.0654802203" lon="29.9790162616"><ele>94.55</ele><time>2026-04-22T12:33:07.091Z</time><hdop>3.0</hdop><vdop>1.0</vdop><extensions><gom:speed>0.081</gom:speed><gom:rel_alt>182.083</gom:rel_alt></extensions></trkpt>
   <trkpt lat="59.0653970299" lon="29.9790834844"><ele>93.792</ele><time>2026-04-22T12:33:29.887Z</time><hdop>3.0</hdop><vdop>1.0</vdop><extensions><gom:speed>0.119</gom:speed><gom:rel_alt>181.243</gom:rel_alt></extensions></trkpt>
   <trkpt lat="59.0653119536" lon="29.9791628611"><ele>94.149</ele><time>2026-04-22T12:33:45.965Z</time><hdop>3.0</hdop><vdop>1.125</vdop><extensions><gom:speed>0.262</gom:speed><gom:rel_alt>181.642</gom:rel_alt></extensions></trkpt>
   <trkpt lat="59.0652289309" lon="29.9792320118"><ele>94.451</ele><time>2026-04-22T12:34:01.084Z</time><hdop>3.0</hdop><vdop>1.125</vdop><extensions><gom:speed>0.247</gom:speed><gom:rel_alt>182.455</gom:rel_alt></extensions></trkpt>
   <trkpt lat="59.0651447347" lon="29.9793190159"><ele>94.284</ele><time>2026-04-22T12:34:17.026Z</time><hdop>3.0</hdop><vdop>1.125</vdop><extensions><gom:speed>0.458</gom:speed><gom:rel_alt>181.813</gom:rel_alt></extensions></trkpt>
   <trkpt lat="59.0650691299" lon="29.97941348"><ele>94.374</ele><time>2026-04-22T12:34:28.585Z</time><hdop>3.0</hdop><vdop>1.125</vdop><extensions><gom:speed>0.569</gom:speed><gom:rel_alt>181.89</gom:rel_alt></extensions></trkpt>
   <trkpt lat="59.0649956206" lon="29.9795159907"><ele>94.426</ele><time>2026-04-22T12:34:42.585Z</time><hdop>3.0</hdop><vdop>1.125</vdop><extensions><gom:speed>0.439</gom:speed><gom:rel_alt>182.075</gom:rel_alt></extensions></trkpt>
   <trkpt lat="59.0649138551" lon="29.979588997"><ele>94.929</ele><time>2026-04-22T12:34:56.084Z</time><hdop>3.0</hdop><vdop>1.0</vdop><extensions><gom:speed>0.491</gom:speed><gom:rel_alt>181.166</gom:rel_alt></extensions></trkpt>
   <trkpt lat="59.0648371188" lon="29.9796874844"><ele>94.325</ele><time>2026-04-22T12:35:11.084Z</time><hdop>3.0</hdop><vdop>1.125</vdop><extensions><gom:speed>0.068</gom:speed><gom:rel_alt>181.142</gom:rel_alt></extensions></trkpt>
   <trkpt lat="59.0647598377" lon="29.9797982932"><ele>94.377</ele><time>2026-04-22T12:35:24.629Z</time><hdop>3.0</hdop><vdop>1.0</vdop><extensions><gom:speed>0.363</gom:speed><gom:rel_alt>182.577</gom:rel_alt></extensions></trkpt>
   <trkpt lat="59.0646831432" lon="29.9798947689"><ele>94.821</ele><time>2026-04-22T12:35:40.625Z</time><hdop>3.0</hdop><vdop>1.125</vdop><extensions><gom:speed>0.202</gom:speed><gom:rel_alt>182.746</gom:rel_alt></extensions></trkpt>
   <trkpt lat="59.0646047305" lon="29.9799999617"><ele>94.114</ele><time>2026-04-22T12:35:56.746Z</time><hdop>3.0</hdop><vdop>1.125</vdop><extensions><gom:speed>0.561</gom:speed><gom:rel_alt>182.067</gom:rel_alt></extensions></trkpt>
   <trkpt lat="59.0645179359" lon="29.9800645862"><ele>95.396</ele><time>2026-04-22T12:36:13.085Z</time><hdop>3.0</hdop><vdop>1.0</vdop><extensions><gom:speed>0.313</gom:speed><gom:rel_alt>182.91</gom:rel_alt></extensions></trkpt>
   <trkpt lat="59.0644393556" lon="29.9801710364"><ele>94.609</ele><time>2026-04-22T12:36:26.426Z</time><hdop>3.0</hdop><vdop>1.125</vdop><extensions><gom:speed>0.469</gom:speed><gom:rel_alt>182.305</gom:rel_alt></extensions></trkpt>
   <trkpt lat="59.0643624516" lon="29.9802789115"><ele>94.689</ele><time>2026-04-22T12:36:42.990Z</time><hdop>3.0</hdop><vdop>1.0</vdop><extensions><gom:speed>0.314</gom:speed><gom:rel_alt>182.358</gom:rel_alt></extensions></trkpt>
   <trkpt lat="59.0642745255" lon="29.9803246767"><ele>94.63</ele><time>2026-04-22T12:36:57.730Z</time><hdop>3.0</hdop><vdop>1.25</vdop><extensions><gom:speed>0.177</gom:speed><gom:rel_alt>181.544</gom:rel_alt></extensions></trkpt>
   <trkpt lat="59.0641836237" lon="29.9803400156"><ele>94.648</ele><time>2026-04-22T12:37:16.947Z</time><hdop>3.0</hdop><vdop>1.125</vdop><extensions><gom:speed>0.403</gom:speed><gom:rel_alt>182.656</gom:rel_alt></extensions></trkpt>
   <trkpt lat="59.0640920514" lon="29.9803867866"><ele>94.817</ele><time>2026-04-22T12:37:30.828Z</time><hdop>3.0</hdop><vdop>1.25</vdop><extensions><gom:speed>0.499</gom:speed><gom:rel_alt>182.807</gom:rel_alt></extensions></trkpt>
   <trkpt lat="59.0640108308" lon="29.9804644868"><ele>95.151</ele><time>2026-04-22T12:37:43.084Z</time><hdop>3.0</hdop><vdop>1.125</vdop><extensions><gom:speed>0.595</gom:speed><gom:rel_alt>183.124</gom:rel_alt></extensions></trkpt>
   <trkpt lat="59.0639217312" lon="29.9805402592"><ele>95.189</ele><time>2026-04-22T12:37:57.005Z</time><hdop>3.0</hdop><vdop>1.125</vdop><extensions><gom:speed>0.437</gom:speed><gom:rel_alt>183.557</gom:rel_alt></extensions></trkpt>
   <trkpt lat="59.063835649" lon="29.9805980944"><ele>94.583</ele><time>2026-04-22T12:38:53.831Z</time><hdop>3.0</hdop><vdop>1.25</vdop><extensions><gom:speed>0.173</gom:speed><gom:rel_alt>183.259</gom:rel_alt></extensions></trkpt>
   <trkpt lat="59.0637475552" lon="29.9806478829"><ele>95.163</ele><time>2026-04-22T12:39:07.528Z</time><hdop>3.0</hdop><vdop>1.125</vdop><extensions><gom:speed>0.591</gom:speed><gom:rel_alt>183.409</gom:rel_alt></extensions></trkpt>
   <trkpt lat="59.0636590423" lon="29.9807104957"><ele>95.233</ele><time>2026-04-22T12:39:20.097Z</time><hdop>3.0</hdop><vdop>1.25</vdop><extensions><gom:speed>0.619</gom:speed><gom:rel_alt>184.043</gom:rel_alt></extensions></trkpt>
   <trkpt lat="59.0635846529" lon="29.9808167782"><ele>95.82</ele><time>2026-04-22T12:39:34.809Z</time><hdop>3.0</hdop><vdop>1.125</vdop><extensions><gom:speed>0.288</gom:speed><gom:rel_alt>183.523</gom:rel_alt></extensions></trkpt>
   <trkpt lat="59.0635146221" lon="29.9809293472"><ele>95.537</ele><time>2026-04-22T12:39:57.631Z</time><hdop>3.0</hdop><vdop>1.25</vdop><extensions><gom:speed>0.128</gom:speed><gom:rel_alt>183.94</gom:rel_alt></extensions></trkpt>
   <trkpt lat="59.0634275342" lon="29.9810091429"><ele>95.577</ele><time>2026-04-22T12:40:12.085Z</time><hdop>3.0</hdop><vdop>1.25</vdop><extensions><gom:speed>0.165</gom:speed><gom:rel_alt>182.368</gom:rel_alt></extensions></trkpt>
   <trkpt lat="59.0633436313" lon="29.9810929619"><ele>95.115</ele><time>2026-04-22T12:40:25.107Z</time><hdop>3.0</hdop><vdop>1.25</vdop><extensions><gom:speed>0.483</gom:speed><gom:rel_alt>183.644</gom:rel_alt></extensions></trkpt>
   <trkpt lat="59.0632616563" lon="29.9811694049"><ele>95.708</ele><time>2026-04-22T12:40:40.785Z</time><hdop>3.0</hdop><vdop>1.25</vdop><extensions><gom:speed>0.176</gom:speed><gom:rel_alt>183.771</gom:rel_alt></extensions></trkpt>
   <trkpt lat="59.0631805195" lon="29.9812455126"><ele>95.261</ele><time>2026-04-22T12:40:58.828Z</time><hdop>3.0</hdop><vdop>1.25</vdop><extensions><gom:speed>0.18</gom:speed><gom:rel_alt>184.273</gom:rel_alt></extensions></trkpt>
   <trkpt lat="59.063086726" lon="29.9812815547"><ele>95.576</ele><time>2026-04-22T12:41:12.965Z</time><hdop>3.0</hdop><vdop>1.25</vdop><extensions><gom:speed>0.615</gom:speed><gom:rel_alt>184.03</gom:rel_alt></extensions></trkpt>
   <trkpt lat="59.0630025298" lon="29.9813450896"><ele>95.694</ele><time>2026-04-22T12:41:28.904Z</time><hdop>3.0</hdop><vdop>1.25</vdop><extensions><gom:speed>0.289</gom:speed><gom:rel_alt>184.014</gom:rel_alt></extensions></trkpt>
   <trkpt lat="59.062931535" lon="29.9814550601"><ele>95.475</ele><time>2026-04-22T12:41:46.865Z</time><hdop>3.0</hdop><vdop>1.375</vdop><extensions><gom:speed>0.173</gom:speed><gom:rel_alt>184.215</gom:rel_alt></extensions></trkpt>
   <trkpt lat="59.0628558464" lon="29.9815727421"><ele>96.332</ele><time>2026-04-22T12:42:01.508Z</time><hdop>3.0</hdop><vdop>1.25</vdop><extensions><gom:speed>0.524</gom:speed><gom:rel_alt>184.353</gom:rel_alt></extensions></trkpt>
   <trkpt lat="59.0627914315" lon="29.9817067687"><ele>95.721</ele><time>2026-04-22T12:42:15.749Z</time><hdop>3.0</hdop><vdop>1.375</vdop><extensions><gom:speed>0.502</gom:speed><gom:rel_alt>183.964</gom:rel_alt></extensions></trkpt>
   <trkpt lat="59.0626968417" lon="29.9817166593"><ele>96.336</ele><time>2026-04-22T12:42:38.931Z</time><hdop>3.0</hdop><vdop>1.25</vdop><extensions><gom:speed>0.539</gom:speed><gom:rel_alt>184.839</gom:rel_alt></extensions></trkpt>
   <trkpt lat="59.0626053533" lon="29.9816981353"><ele>95.818</ele><time>2026-04-22T12:42:54.668Z</time><hdop>3.0</hdop><vdop>1.25</vdop><extensions><gom:speed>0.297</gom:speed><gom:rel_alt>184.152</gom:rel_alt></extensions></trkpt>
   <trkpt lat="59.0625151221" lon="29.9816896696"><ele>95.881</ele><time>2026-04-22T12:43:26.083Z</time><hdop>3.0</hdop><vdop>1.375</vdop><extensions><gom:speed>0.328</gom:speed><gom:rel_alt>184.9</gom:rel_alt></extensions></trkpt>
   <trkpt lat="59.062426232" lon="29.9817198445"><ele>96.084</ele><time>2026-04-22T12:43:38.410Z</time><hdop>3.0</hdop><vdop>1.375</vdop><extensions><gom:speed>0.657</gom:speed><gom:rel_alt>184.625</gom:rel_alt></extensions></trkpt>
   <trkpt lat="59.0623492442" lon="29.9818232771"><ele>95.683</ele><time>2026-04-22T12:43:50.988Z</time><hdop>3.0</hdop><vdop>1.25</vdop><extensions><gom:speed>0.515</gom:speed><gom:rel_alt>184.469</gom:rel_alt></extensions></trkpt>
   <trkpt lat="59.0622846197" lon="29.9819500953"><ele>95.865</ele><time>2026-04-22T12:44:01.884Z</time><hdop>3.0</hdop><vdop>1.375</vdop><extensions><gom:speed>0.459</gom:speed><gom:rel_alt>185.425</gom:rel_alt></extensions></trkpt>
   <trkpt lat="59.0622226356" lon="29.9820853793"><ele>95.722</ele><time>2026-04-22T12:44:14.465Z</time><hdop>3.0</hdop><vdop>1.375</vdop><extensions><gom:speed>0.416</gom:speed><gom:rel_alt>185.394</gom:rel_alt></extensions></trkpt>
   <trkpt lat="59.0621665187" lon="29.982222591"><ele>95.957</ele><time>2026-04-22T12:44:25.084Z</time><hdop>3.0</hdop><vdop>1.375</vdop><extensions><gom:speed>0.565</gom:speed><gom:rel_alt>185.232</gom:rel_alt></extensions></trkpt>
   <trkpt lat="59.062121927" lon="29.9823841103"><ele>96.149</ele><time>2026-04-22T12:44:45.984Z</time><hdop>3.0</hdop><vdop>1.375</vdop><extensions><gom:speed>0.355</gom:speed><gom:rel_alt>185.354</gom:rel_alt></extensions></trkpt>
   <trkpt lat="59.0620661454" lon="29.9825314641"><ele>95.956</ele><time>2026-04-22T12:44:59.608Z</time><hdop>3.0</hdop><vdop>1.375</vdop><extensions><gom:speed>0.621</gom:speed><gom:rel_alt>185.708</gom:rel_alt></extensions></trkpt>
   <trkpt lat="59.0620827416" lon="29.982712178"><ele>95.546</ele><time>2026-04-22T12:45:24.085Z</time><hdop>3.0</hdop><vdop>1.375</vdop><extensions><gom:speed>0.246</gom:speed><gom:rel_alt>184.765</gom:rel_alt></extensions></trkpt>
   <trkpt lat="59.0620247388" lon="29.9828617949"><ele>96.028</ele><time>2026-04-22T12:45:48.991Z</time><hdop>3.0</hdop><vdop>1.375</vdop><extensions><gom:speed>0.45</gom:speed><gom:rel_alt>185.526</gom:rel_alt></extensions></trkpt>
   <trkpt lat="59.0619321188" lon="29.9828614597"><ele>94.977</ele><time>2026-04-22T12:46:10.009Z</time><hdop>3.0</hdop><vdop>1.375</vdop><extensions><gom:speed>0.257</gom:speed><gom:rel_alt>184.522</gom:rel_alt></extensions></trkpt>
   <trkpt lat="59.0618585257" lon="29.9827481363"><ele>96.278</ele><time>2026-04-22T12:46:28.085Z</time><hdop>3.0</hdop><vdop>1.25</vdop><extensions><gom:speed>0.404</gom:speed><gom:rel_alt>185.092</gom:rel_alt></extensions></trkpt>
   <trkpt lat="59.0617765507" lon="29.9826654908"><ele>95.473</ele><time>2026-04-22T12:46:41.051Z</time><hdop>3.0</hdop><vdop>1.375</vdop><extensions><gom:speed>0.488</gom:speed><gom:rel_alt>184.807</gom:rel_alt></extensions></trkpt>
   <trkpt lat="59.0616857328" lon="29.9826462962"><ele>95.709</ele><time>2026-04-22T12:46:52.691Z</time><hdop>3.0</hdop><vdop>1.375</vdop><extensions><gom:speed>0.696</gom:speed><gom:rel_alt>186.229</gom:rel_alt></extensions></trkpt>
   <trkpt lat="59.0615886284" lon="29.9826203123"><ele>95.685</ele><time>2026-04-22T12:47:05.804Z</time><hdop>3.0</hdop><vdop>1.375</vdop><extensions><gom:speed>0.591</gom:speed><gom:rel_alt>185.42</gom:rel_alt></extensions></trkpt>
   <trkpt lat="59.0614954217" lon="29.9826387525"><ele>96.209</ele><time>2026-04-22T12:47:22.607Z</time><hdop>3.0</hdop><vdop>1.375</vdop><extensions><gom:speed>0.224</gom:speed><gom:rel_alt>185.737</gom:rel_alt></extensions></trkpt>
   <trkpt lat="59.0614055257" lon="29.9826167919"><ele>95.777</ele><time>2026-04-22T12:47:29.987Z</time><hdop>3.0</hdop><vdop>1.375</vdop><extensions><gom:speed>0.95</gom:speed><gom:rel_alt>185.779</gom:rel_alt></extensions></trkpt>
   <trkpt lat="59.0613119418" lon="29.9826126848"><ele>95.763</ele><time>2026-04-22T12:47:40.909Z</time><hdop>3.0</hdop><vdop>1.5</vdop><extensions><gom:speed>0.681</gom:speed><gom:rel_alt>185.679</gom:rel_alt></extensions></trkpt>
   <trkpt lat="59.0612223392" lon="29.9825818394"><ele>95.581</ele><time>2026-04-22T12:47:51.084Z</time><hdop>3.0</hdop><vdop>1.25</vdop><extensions><gom:speed>0.711</gom:speed><gom:rel_alt>186.147</gom:rel_alt></extensions></trkpt>
   <trkpt lat="59.061133533" lon="29.9825184722"><ele>95.406</ele><time>2026-04-22T12:48:04.384Z</time><hdop>3.0</hdop><vdop>1.25</vdop><extensions><gom:speed>0.581</gom:speed><gom:rel_alt>186.059</gom:rel_alt></extensions></trkpt>
   <trkpt lat="59.0610440562" lon="29.9824698572"><ele>95.661</ele><time>2026-04-22T12:48:12.847Z</time><hdop>3.0</hdop><vdop>1.25</vdop><extensions><gom:speed>0.792</gom:speed><gom:rel_alt>186.141</gom:rel_alt></extensions></trkpt>
   <trkpt lat="59.0609489216" lon="29.9824526742"><ele>95.213</ele><time>2026-04-22T12:48:23.683Z</time><hdop>3.0</hdop><vdop>1.125</vdop><extensions><gom:speed>0.887</gom:speed><gom:rel_alt>186.384</gom:rel_alt></extensions></trkpt>
   <trkpt lat="59.0608612469" lon="29.9824035563"><ele>95.72</ele><time>2026-04-22T12:48:34.108Z</time><hdop>3.0</hdop><vdop>1.125</vdop><extensions><gom:speed>0.848</gom:speed><gom:rel_alt>186.482</gom:rel_alt></extensions></trkpt>
   <trkpt lat="59.0607718539" lon="29.982381009"><ele>95.423</ele><time>2026-04-22T12:48:45.987Z</time><hdop>3.0</hdop><vdop>1.125</vdop><extensions><gom:speed>0.857</gom:speed><gom:rel_alt>186.514</gom:rel_alt></extensions></trkpt>
   <trkpt lat="59.0606836343" lon="29.9823404406"><ele>95.695</ele><time>2026-04-22T12:48:57.203Z</time><hdop>3.0</hdop><vdop>1.125</vdop><extensions><gom:speed>0.865</gom:speed><gom:rel_alt>187.27</gom:rel_alt></extensions></trkpt>
   <trkpt lat="59.060599019" lon="29.9822677695"><ele>95.593</ele><time>2026-04-22T12:49:14.626Z</time><hdop>3.0</hdop><vdop>1.125</vdop><extensions><gom:speed>0.395</gom:speed><gom:rel_alt>186.152</gom:rel_alt></extensions></trkpt>
   <trkpt lat="59.0605048483" lon="29.9822204117"><ele>95.743</ele><time>2026-04-22T12:49:26.706Z</time><hdop>3.0</hdop><vdop>1.125</vdop><extensions><gom:speed>0.741</gom:speed><gom:rel_alt>187.032</gom:rel_alt></extensions></trkpt>
   <trkpt lat="59.0604107196" lon="29.9822228425"><ele>95.558</ele><time>2026-04-22T12:49:35.966Z</time><hdop>3.0</hdop><vdop>1.125</vdop><extensions><gom:speed>0.987</gom:speed><gom:rel_alt>186.905</gom:rel_alt></extensions></trkpt>
   <trkpt lat="59.0603171356" lon="29.9822075036"><ele>95.867</ele><time>2026-04-22T12:49:46.985Z</time><hdop>3.0</hdop><vdop>1.125</vdop><extensions><gom:speed>0.883</gom:speed><gom:rel_alt>186.577</gom:rel_alt></extensions></trkpt>
   <trkpt lat="59.0602260243" lon="29.9821942602"><ele>95.68</ele><time>2026-04-22T12:49:57.665Z</time><hdop>3.0</hdop><vdop>1.25</vdop><extensions><gom:speed>0.99</gom:speed><gom:rel_alt>186.847</gom:rel_alt></extensions></trkpt>
   <trkpt lat="59.060134452" lon="29.982173054"><ele>95.712</ele><time>2026-04-22T12:50:07.084Z</time><hdop>3.0</hdop><vdop>1.375</vdop><extensions><gom:speed>0.978</gom:speed><gom:rel_alt>186.411</gom:rel_alt></extensions></trkpt>
   <trkpt lat="59.0600396527" lon="29.9821440526"><ele>95.408</ele><time>2026-04-22T12:50:17.158Z</time><hdop>3.0</hdop><vdop>1.125</vdop><extensions><gom:speed>0.96</gom:speed><gom:rel_alt>186.144</gom:rel_alt></extensions></trkpt>
   <trkpt lat="59.0599444343" lon="29.9821319826"><ele>95.776</ele><time>2026-04-22T12:50:33.884Z</time><hdop>3.0</hdop><vdop>1.125</vdop><extensions><gom:speed>0.77</gom:speed><gom:rel_alt>187.42</gom:rel_alt></extensions></trkpt>
   <trkpt lat="59.0598603219" lon="29.9820656818"><ele>95.768</ele><time>2026-04-22T12:50:41.950Z</time><hdop>3.0</hdop><vdop>1.125</vdop><extensions><gom:speed>0.838</gom:speed><gom:rel_alt>186.58</gom:rel_alt></extensions></trkpt>
   <trkpt lat="59.0597699231" lon="29.9820346687"><ele>95.436</ele><time>2026-04-22T12:50:51.889Z</time><hdop>3.0</hdop><vdop>1.125</vdop><extensions><gom:speed>0.78</gom:speed><gom:rel_alt>186.601</gom:rel_alt></extensions></trkpt>
   <trkpt lat="59.0596793566" lon="29.9820408713"><ele>95.776</ele><time>2026-04-22T12:51:04.931Z</time><hdop>3.0</hdop><vdop>1.25</vdop><extensions><gom:speed>0.647</gom:speed><gom:rel_alt>186.765</gom:rel_alt></extensions></trkpt>
   <trkpt lat="59.0595894188" lon="29.9820101098"><ele>95.514</ele><time>2026-04-22T12:51:16.363Z</time><hdop>3.0</hdop><vdop>1.125</vdop><extensions><gom:speed>0.732</gom:speed><gom:rel_alt>186.942</gom:rel_alt></extensions></trkpt>
   <trkpt lat="59.0595061446" lon="29.9819444795"><ele>95.195</ele><time>2026-04-22T12:51:27.284Z</time><hdop>3.0</hdop><vdop>1.125</vdop><extensions><gom:speed>0.974</gom:speed><gom:rel_alt>187.027</gom:rel_alt></extensions></trkpt>
   <trkpt lat="59.0594162487" lon="29.9819246982"><ele>95.976</ele><time>2026-04-22T12:51:36.071Z</time><hdop>3.0</hdop><vdop>1.125</vdop><extensions><gom:speed>1.063</gom:speed><gom:rel_alt>186.712</gom:rel_alt></extensions></trkpt>
   <trkpt lat="59.0593230419" lon="29.9818848841"><ele>95.299</ele><time>2026-04-22T12:51:45.027Z</time><hdop>3.0</hdop><vdop>1.125</vdop><extensions><gom:speed>1.095</gom:speed><gom:rel_alt>186.672</gom:rel_alt></extensions></trkpt>
   <trkpt lat="59.0592315534" lon="29.9818762508"><ele>94.847</ele><time>2026-04-22T12:51:54.328Z</time><hdop>3.0</hdop><vdop>1.125</vdop><extensions><gom:speed>0.999</gom:speed><gom:rel_alt>186.26</gom:rel_alt></extensions></trkpt>
   <trkpt lat="59.0591459323" lon="29.9818089441"><ele>95.113</ele><time>2026-04-22T12:52:04.085Z</time><hdop>3.0</hdop><vdop>1.125</vdop><extensions><gom:speed>0.916</gom:speed><gom:rel_alt>186.189</gom:rel_alt></extensions></trkpt>
   <trkpt lat="59.0590552401" lon="29.9817868159"><ele>94.549</ele><time>2026-04-22T12:52:14.523Z</time><hdop>3.0</hdop><vdop>1.0</vdop><extensions><gom:speed>0.896</gom:speed><gom:rel_alt>186.641</gom:rel_alt></extensions></trkpt>
   <trkpt lat="59.0589621171" lon="29.9817589041"><ele>95.163</ele><time>2026-04-22T12:52:25.650Z</time><hdop>3.0</hdop><vdop>1.125</vdop><extensions><gom:speed>0.893</gom:speed><gom:rel_alt>187.389</gom:rel_alt></extensions></trkpt>
   <trkpt lat="59.0588711316" lon="29.9817087803"><ele>95.658</ele><time>2026-04-22T12:52:34.972Z</time><hdop>3.0</hdop><vdop>1.125</vdop><extensions><gom:speed>0.857</gom:speed><gom:rel_alt>186.493</gom:rel_alt></extensions></trkpt>
   <trkpt lat="59.0587846303" lon="29.9816584051"><ele>94.618</ele><time>2026-04-22T12:52:50.667Z</time><hdop>3.0</hdop><vdop>1.125</vdop><extensions><gom:speed>0.592</gom:speed><gom:rel_alt>186.263</gom:rel_alt></extensions></trkpt>
   <trkpt lat="59.0586935191" lon="29.9816183396"><ele>94.865</ele><time>2026-04-22T12:53:01.971Z</time><hdop>3.0</hdop><vdop>1.125</vdop><extensions><gom:speed>0.363</gom:speed><gom:rel_alt>186.083</gom:rel_alt></extensions></trkpt>
   <trkpt lat="59.0586047547" lon="29.9815870751"><ele>95.148</ele><time>2026-04-22T12:53:11.325Z</time><hdop>3.0</hdop><vdop>1.0</vdop><extensions><gom:speed>0.868</gom:speed><gom:rel_alt>186.839</gom:rel_alt></extensions></trkpt>
   <trkpt lat="59.0585144397" lon="29.9816000671"><ele>94.815</ele><time>2026-04-22T12:53:20.827Z</time><hdop>3.0</hdop><vdop>1.0</vdop><extensions><gom:speed>1.031</gom:speed><gom:rel_alt>186.783</gom:rel_alt></extensions></trkpt>
   <trkpt lat="59.0584250467" lon="29.9816221115"><ele>95.255</ele><time>2026-04-22T12:53:29.883Z</time><hdop>3.0</hdop><vdop>1.125</vdop><extensions><gom:speed>1.024</gom:speed><gom:rel_alt>186.923</gom:rel_alt></extensions></trkpt>
   <trkpt lat="59.0583354442" lon="29.9815985583"><ele>95.295</ele><time>2026-04-22T12:53:37.747Z</time><hdop>3.0</hdop><vdop>1.125</vdop><extensions><gom:speed>1.077</gom:speed><gom:rel_alt>187.135</gom:rel_alt></extensions></trkpt>
   <trkpt lat="59.0582394295" lon="29.9815714009"><ele>95.066</ele><time>2026-04-22T12:53:49.350Z</time><hdop>3.0</hdop><vdop>1.0</vdop><extensions><gom:speed>0.694</gom:speed><gom:rel_alt>186.472</gom:rel_alt></extensions></trkpt>
   <trkpt lat="59.0581549399" lon="29.9814943713"><ele>95.121</ele><time>2026-04-22T12:54:01.086Z</time><hdop>3.0</hdop><vdop>1.125</vdop><extensions><gom:speed>0.822</gom:speed><gom:rel_alt>186.3</gom:rel_alt></extensions></trkpt>
   <trkpt lat="59.0580731325" lon="29.9813970574"><ele>94.789</ele><time>2026-04-22T12:54:18.009Z</time><hdop>3.0</hdop><vdop>1.125</vdop><extensions><gom:speed>0.378</gom:speed><gom:rel_alt>186.089</gom:rel_alt></extensions></trkpt>
   <trkpt lat="59.0579768244" lon="29.9813731689"><ele>95.059</ele><time>2026-04-22T12:54:32.098Z</time><hdop>3.0</hdop><vdop>1.125</vdop><extensions><gom:speed>0.458</gom:speed><gom:rel_alt>186.963</gom:rel_alt></extensions></trkpt>
   <trkpt lat="59.0578863418" lon="29.9813311756"><ele>94.936</ele><time>2026-04-22T12:54:45.089Z</time><hdop>3.0</hdop><vdop>1.0</vdop><extensions><gom:speed>0.916</gom:speed><gom:rel_alt>186.577</gom:rel_alt></extensions></trkpt>
   <trkpt lat="59.0577909557" lon="29.9813626077"><ele>94.75</ele><time>2026-04-22T12:54:54.649Z</time><hdop>3.0</hdop><vdop>1.125</vdop><extensions><gom:speed>1.05</gom:speed><gom:rel_alt>186.752</gom:rel_alt></extensions></trkpt>
   <trkpt lat="59.057696324" lon="29.9813346122"><ele>95.043</ele><time>2026-04-22T12:55:05.443Z</time><hdop>3.0</hdop><vdop>1.0</vdop><extensions><gom:speed>0.936</gom:speed><gom:rel_alt>186.178</gom:rel_alt></extensions></trkpt>
   <trkpt lat="59.0576052547" lon="29.9813458439"><ele>94.574</ele><time>2026-04-22T12:55:13.007Z</time><hdop>3.0</hdop><vdop>1.0</vdop><extensions><gom:speed>0.984</gom:speed><gom:rel_alt>186.139</gom:rel_alt></extensions></trkpt>
   <trkpt lat="59.0575130537" lon="29.9812921998"><ele>94.608</ele><time>2026-04-22T12:55:22.866Z</time><hdop>3.0</hdop><vdop>1.0</vdop><extensions><gom:speed>0.891</gom:speed><gom:rel_alt>186.384</gom:rel_alt></extensions></trkpt>
   <trkpt lat="59.0574226549" lon="29.9812502064"><ele>94.555</ele><time>2026-04-22T12:55:33.142Z</time><hdop>3.0</hdop><vdop>1.0</vdop><extensions><gom:speed>0.897</gom:speed><gom:rel_alt>186.762</gom:rel_alt></extensions></trkpt>
   <trkpt lat="59.0573329266" lon="29.9812279944"><ele>94.633</ele><time>2026-04-22T12:55:42.762Z</time><hdop>3.0</hdop><vdop>1.0</vdop><extensions><gom:speed>0.931</gom:speed><gom:rel_alt>187.502</gom:rel_alt></extensions></trkpt>
   <trkpt lat="59.0572398456" lon="29.9812612705"><ele>95.42</ele><time>2026-04-22T12:55:51.605Z</time><hdop>3.0</hdop><vdop>1.125</vdop><extensions><gom:speed>0.975</gom:speed><gom:rel_alt>186.982</gom:rel_alt></extensions></trkpt>
   <trkpt lat="59.0571441243" lon="29.9812391423"><ele>95.109</ele><time>2026-04-22T12:56:02.751Z</time><hdop>3.0</hdop><vdop>1.125</vdop><extensions><gom:speed>0.804</gom:speed><gom:rel_alt>186.247</gom:rel_alt></extensions></trkpt>
   <trkpt lat="59.057055318" lon="29.9812088836"><ele>94.87</ele><time>2026-04-22T12:56:12.084Z</time><hdop>3.0</hdop><vdop>1.0</vdop><extensions><gom:speed>0.768</gom:speed><gom:rel_alt>186.16</gom:rel_alt></extensions></trkpt>
   <trkpt lat="59.0569627399" lon="29.9811956402"><ele>95.252</ele><time>2026-04-22T12:56:23.788Z</time><hdop>3.0</hdop><vdop>1.125</vdop><extensions><gom:speed>0.762</gom:speed><gom:rel_alt>186.596</gom:rel_alt></extensions></trkpt>
   <trkpt lat="59.0568744365" lon="29.9811509647"><ele>94.314</ele><time>2026-04-22T12:56:38.845Z</time><hdop>3.0</hdop><vdop>1.0</vdop><extensions><gom:speed>0.673</gom:speed><gom:rel_alt>186.387</gom:rel_alt></extensions></trkpt>
   <trkpt lat="59.0567837443" lon="29.9810886871"><ele>94.668</ele><time>2026-04-22T12:56:50.387Z</time><hdop>3.0</hdop><vdop>1.125</vdop><extensions><gom:speed>0.85</gom:speed><gom:rel_alt>186.131</gom:rel_alt></extensions></trkpt>
   <trkpt lat="59.0566939322" lon="29.9810580932"><ele>94.463</ele><time>2026-04-22T12:56:59.084Z</time><hdop>3.0</hdop><vdop>1.0</vdop><extensions><gom:speed>0.964</gom:speed><gom:rel_alt>186.876</gom:rel_alt></extensions></trkpt>
   <trkpt lat="59.0566053355" lon="29.981022973"><ele>94.99</ele><time>2026-04-22T12:57:06.690Z</time><hdop>3.0</hdop><vdop>1.125</vdop><extensions><gom:speed>1.012</gom:speed><gom:rel_alt>187.56</gom:rel_alt></extensions></trkpt>
   <trkpt lat="59.0565118354" lon="29.9809845839"><ele>95.581</ele><time>2026-04-22T12:57:17.509Z</time><hdop>3.0</hdop><vdop>1.125</vdop><extensions><gom:speed>0.889</gom:speed><gom:rel_alt>187.415</gom:rel_alt></extensions></trkpt>
   <trkpt lat="59.056419844" lon="29.9809699994"><ele>95.26</ele><time>2026-04-22T12:57:24.449Z</time><hdop>3.0</hdop><vdop>1.125</vdop><extensions><gom:speed>0.932</gom:speed><gom:rel_alt>187.138</gom:rel_alt></extensions></trkpt>
   <trkpt lat="59.0563278526" lon="29.9809176125"><ele>95.332</ele><time>2026-04-22T12:57:34.606Z</time><hdop>3.0</hdop><vdop>1.0</vdop><extensions><gom:speed>0.831</gom:speed><gom:rel_alt>187.555</gom:rel_alt></extensions></trkpt>
   <trkpt lat="59.0562348554" lon="29.9809128348"><ele>95.433</ele><time>2026-04-22T12:57:43.085Z</time><hdop>3.0</hdop><vdop>1.125</vdop><extensions><gom:speed>0.853</gom:speed><gom:rel_alt>187.946</gom:rel_alt></extensions></trkpt>
   <trkpt lat="59.0561412295" lon="29.9808644712"><ele>95.667</ele><time>2026-04-22T12:57:54.508Z</time><hdop>3.0</hdop><vdop>1.0</vdop><extensions><gom:speed>0.84</gom:speed><gom:rel_alt>187.27</gom:rel_alt></extensions></trkpt>
   <trkpt lat="59.0561377511" lon="29.9806749564"><ele>95.639</ele><time>2026-04-22T12:58:22.749Z</time><hdop>3.0</hdop><vdop>1.125</vdop><extensions><gom:speed>0.197</gom:speed><gom:rel_alt>187.079</gom:rel_alt></extensions></trkpt>
   <trkpt lat="59.0560691452" lon="29.9808012717"><ele>95.348</ele><time>2026-04-22T13:00:25.063Z</time><hdop>3.0</hdop><vdop>1.375</vdop><extensions><gom:speed>0.294</gom:speed><gom:rel_alt>186.958</gom:rel_alt></extensions></trkpt>
   <trkpt lat="59.0560368329" lon="29.9809681554"><ele>96.318</ele><time>2026-04-22T13:00:40.045Z</time><hdop>3.0</hdop><vdop>1.5</vdop><extensions><gom:speed>1.054</gom:speed><gom:rel_alt>188.884</gom:rel_alt></extensions></trkpt>
   <trkpt lat="59.0560564466" lon="29.981144343"><ele>96.151</ele><time>2026-04-22T13:00:46.689Z</time><hdop>3.0</hdop><vdop>1.125</vdop><extensions><gom:speed>1.199</gom:speed><gom:rel_alt>187.93</gom:rel_alt></extensions></trkpt>
   <trkpt lat="59.0560656248" lon="29.9813284934"><ele>95.862</ele><time>2026-04-22T13:00:53.868Z</time><hdop>3.0</hdop><vdop>1.25</vdop><extensions><gom:speed>1.232</gom:speed><gom:rel_alt>188.567</gom:rel_alt></extensions></trkpt>
  </trkseg>
 </trk>
</gpx>